Provisional Data: Little Mehoopany Creek near North Mehoopany, PA


Please select a monitoring station.
Please select start date.
Please select start date.

Toggle Unit: C/F Toggle Unit: C/F
Sample Time Temperature (C) Temperature (F) Specific Conductivity (mS/cm) pH   Turbidity (NTU+) DO (mg/L)
10/22/2021 12:00:00 AM 14.49 58.082 0.106 7.39 5.38 9.37
10/22/2021 12:15:00 AM 14.49 58.082 0.105 7.34 3.2 9.45
10/22/2021 12:30:00 AM 14.49 58.082 0.105 7.39 3.5 9.45
10/22/2021 12:45:00 AM 14.47 58.046 0.104 7.31 5.92 9.45
10/22/2021 1:00:00 AM 14.47 58.046 0.106 7.38 3.39 9.49
10/22/2021 1:15:00 AM 14.45 58.01 0.104 7.27 3.61 9.31
10/22/2021 1:30:00 AM 14.44 57.992 0.105 7.3 5.61 9.32
10/22/2021 1:45:00 AM 14.42 57.956 0.104 7.25 3.26 9.19
10/22/2021 2:00:00 AM 14.43 57.974 0.106 7.35 3.66 9.41
10/22/2021 2:15:00 AM 14.38 57.884 0.105 7.24 3.1 9.35
10/22/2021 2:30:00 AM 14.35 57.83 0.106 7.35 3.12 9.37
10/22/2021 2:45:00 AM 14.3 57.74 0.105 7.28 3.03 9.38
10/22/2021 3:00:00 AM 14.28 57.704 0.105 7.34 3.17 9.49
10/22/2021 3:15:00 AM 14.23 57.614 0.104 7.25 4.09 9.39
10/22/2021 3:30:00 AM 14.2 57.56 0.106 7.33 3.58 9.23
10/22/2021 3:45:00 AM 14.16 57.488 0.105 7.37 3.34 9.49
10/22/2021 4:00:00 AM 14.1 57.38 0.107 7.35 3.22 9.46
10/22/2021 4:15:00 AM 14.07 57.326 0.104 7.26 4.22 9.45
10/22/2021 4:30:00 AM 14.05 57.29 0.107 7.23 3.14 9.44
10/22/2021 4:45:00 AM 13.99 57.182 0.105 7.29 3.12 9.46
10/22/2021 5:00:00 AM 13.96 57.128 0.107 7.24 3.1 9.34
10/22/2021 5:15:00 AM 13.91 57.038 0.105 7.28 3.3 9.54
10/22/2021 5:30:00 AM 13.88 56.984 0.106 7.32 3.13 9.58
10/22/2021 5:45:00 AM 13.84 56.912 0.105 7.37 3.04 9.58
10/22/2021 6:00:00 AM 13.79 56.822 0.105 7.28 3 9.59
10/22/2021 6:15:00 AM 13.75 56.75 0.104 7.37 3.09 9.63
10/22/2021 6:30:00 AM 13.69 56.642 0.108 7.32 3.07 9.58
10/22/2021 6:45:00 AM 13.67 56.606 0.104 7.35 2.92 9.67
10/22/2021 7:00:00 AM 13.62 56.516 0.114 7.27 2.89 9.49
10/22/2021 7:15:00 AM 13.61 56.498 0.104 7.31 2.97 9.65
10/22/2021 7:30:00 AM 13.58 56.444 0.106 7.38 3.25 9.71
10/22/2021 7:45:00 AM 13.57 56.426 0.104 7.31 3.06 9.35
10/22/2021 8:00:00 AM 13.58 56.444 0.105 7.41 3.08 9.76
10/22/2021 8:15:00 AM 13.57 56.426 0.104 7.36 2.89 9.78
10/22/2021 8:30:00 AM 13.58 56.444 0.105 7.3 3.04 9.79
10/22/2021 8:45:00 AM 13.59 56.462 0.104 7.15 2.99 9.47
10/22/2021 9:00:00 AM 13.62 56.516 0.113 7.46 2.93 10.04
10/22/2021 9:15:00 AM 13.65 56.57 0.103 7.27 3.04 9.82
10/22/2021 9:30:00 AM 13.69 56.642 0.103 7.35 3.06 10.04
10/22/2021 9:45:00 AM 13.73 56.714 0.115 7.32 2.88 10.1
10/22/2021 10:00:00 AM 13.77 56.786 0.105 7.38 3.36 10.1
10/22/2021 10:15:00 AM 13.81 56.858 0.107 7.36 3.02 10.07
10/22/2021 10:30:00 AM 13.83 56.894 0.104 7.46 3.1 10.19
10/22/2021 10:45:00 AM 13.87 56.966 0.101 7.47 4.98 10.13
10/22/2021 11:00:00 AM 13.91 57.038 0.105 7.45 3.55 10.3
10/22/2021 11:15:00 AM 13.96 57.128 0.112 7.51 3.15 10.26
10/22/2021 11:30:00 AM 14.01 57.218 0.105 7.49 3.24 10.36
10/22/2021 11:45:00 AM 14.01 57.218 0.104 7.4 3.25 10.3
10/22/2021 12:00:00 PM 14.15 57.47 0.103 7.57 3.1 10.58
10/22/2021 12:15:00 PM 14.22 57.596 0.112 7.53 3.19 10.4
10/22/2021 12:30:00 PM 14.25 57.65 0.102 7.27 3.39 9.98
10/22/2021 12:45:00 PM 14.3 57.74 0.105 7.43 3.24 10.44
10/22/2021 1:00:00 PM 14.28 57.704 0.104 7.3 3.43 10.19
10/22/2021 1:15:00 PM 14.28 57.704 0.105 7.55 3.27 10.22
10/22/2021 1:30:00 PM 14.28 57.704 0.104 7.56 3.31 10.18
10/22/2021 1:45:00 PM 14.27 57.686 0.103 7.55 3.37 10.12
10/22/2021 2:00:00 PM 14.26 57.668 0.103 7.49 3.28 10.14
10/22/2021 2:15:00 PM 14.29 57.722 0.105 7.55 3.18 10.2
10/22/2021 2:30:00 PM 14.28 57.704 0.104 7.5 3.12 9.91
10/22/2021 2:45:00 PM 14.28 57.704 0.107 7.45 3.16 10.05
10/22/2021 3:00:00 PM 14.24 57.632 0.104 7.3 3.19 9.85
10/22/2021 3:15:00 PM 14.3 57.74 0.105 7.55 3.12 10.27
10/22/2021 3:30:00 PM 14.34 57.812 0.103 7.58 3.43 10.29
10/22/2021 3:45:00 PM 14.33 57.794 0.106 7.57 3.29 10.36
10/22/2021 4:00:00 PM 14.35 57.83 0.106 7.35 3.18 10.08
10/22/2021 4:15:00 PM 14.35 57.83 0.106 7.44 3.1 10.09
10/22/2021 4:30:00 PM 14.35 57.83 0.105 7.46 3.37 10.22
10/22/2021 4:45:00 PM 14.34 57.812 0.104 7.51 3.21 10.13
10/22/2021 5:00:00 PM 14.31 57.758 0.106 7.24 3.32 9.75
10/22/2021 5:15:00 PM 14.33 57.794 0.103 7.47 3.29 10.02
10/22/2021 5:30:00 PM 14.31 57.758 0.112 7.53 3.14 10.01
10/22/2021 5:45:00 PM 14.26 57.668 0.105 7.4 3.19 9.68
10/22/2021 6:00:00 PM 14.23 57.614 0.103 7.44 3.12 9.83
10/22/2021 6:15:00 PM 14.2 57.56 0.104 7.39 3.23 9.59
10/22/2021 6:30:00 PM 14.17 57.506 0.104 7.37 3.27 9.62
10/22/2021 6:45:00 PM 14.15 57.47 0.105 7.36 3.29 9.62
10/22/2021 7:00:00 PM 14.11 57.398 0.106 7.37 3.45 9.44
10/22/2021 7:15:00 PM 14.07 57.326 0.105 7.3 3.33 9.57
10/22/2021 7:30:00 PM 14.05 57.29 0.105 7.35 3.33 9.61
10/22/2021 7:45:00 PM 14.04 57.272 0.105 7.4 3.45 9.72
10/22/2021 8:00:00 PM 14.01 57.218 0.104 7.39 3.33 9.48
10/22/2021 8:15:00 PM 13.97 57.146 0.105 7.39 3.33 9.69
10/22/2021 8:30:00 PM 13.92 57.056 0.105 7.38 3.16 9.66
10/22/2021 8:45:00 PM 13.88 56.984 0.104 7.28 4.03 9.56
10/22/2021 9:00:00 PM 13.84 56.912 0.103 7.44 3.27 9.73
10/22/2021 9:15:00 PM 13.79 56.822 0.103 7.42 3.26 9.72
10/22/2021 9:30:00 PM 13.73 56.714 0.105 7.41 3.78 9.75
10/22/2021 9:45:00 PM 13.69 56.642 0.104 7.46 4.07 9.82
10/22/2021 10:00:00 PM 13.64 56.552 0.104 7.37 3.57 9.53
10/22/2021 10:15:00 PM 13.6 56.48 0.106 7.42 4.13 9.76
10/22/2021 10:30:00 PM 13.56 56.408 0.104 7.41 3.3 9.84
10/22/2021 10:45:00 PM 13.48 56.264 0.106 7.41 3.24 9.76
10/22/2021 11:00:00 PM 13.41 56.138 0.104 7.39 9.52 9.74
10/22/2021 11:15:00 PM 13.35 56.03 0.114 7.26 3.39 9.83
10/22/2021 11:30:00 PM 13.28 55.904 0.113 7.44 3.35 9.93
10/22/2021 11:45:00 PM 13.2 55.76 0.107 7.42 3.19 9.83
10/23/2021 12:00:00 AM 13.12 55.616 0.104 7.37 5.26 9.86
10/23/2021 12:15:00 AM 13.05 55.49 0.105 7.4 4.47 9.92
10/23/2021 12:30:00 AM 13 55.4 0.105 7.21 5.13 9.69
10/23/2021 12:45:00 AM 12.9 55.22 0.105 7.41 3.12 9.92
10/23/2021 1:00:00 AM 12.83 55.094 0.104 7.38 3.21 9.89
10/23/2021 1:15:00 AM 12.79 55.022 0.104 7.42 3.11 9.97
10/23/2021 1:30:00 AM 12.75 54.95 0.103 7.37 3.06 9.9
10/23/2021 1:45:00 AM 12.72 54.896 0.102 7.34 4.37 9.93
10/23/2021 2:00:00 AM 12.69 54.842 0.104 7.29 3.58 9.46
10/23/2021 2:15:00 AM 12.65 54.77 0.104 7.28 3.26 9.62
10/23/2021 2:30:00 AM 12.61 54.698 0.103 7.33 2.87 9.96
10/23/2021 2:45:00 AM 12.59 54.662 0.104 7.27 3.02 9.9
10/23/2021 3:00:00 AM 12.57 54.626 0.105 7.39 2.95 9.93
10/23/2021 3:15:00 AM 12.54 54.572 0.103 7.36 10.78 9.97
10/23/2021 3:30:00 AM 12.52 54.536 0.102 7.4 3.26 10.04
10/23/2021 3:45:00 AM 12.48 54.464 0.104 7.36 3.22 9.88
10/23/2021 4:00:00 AM 12.46 54.428 0.105 7.35 3.59 10.06
10/23/2021 4:15:00 AM 12.43 54.374 0.104 7.4 9.04 10.04
10/23/2021 4:30:00 AM 12.4 54.32 0.104 7.36 3.1 10
10/23/2021 4:45:00 AM 12.36 54.248 0.104 7.31 3.14 9.96
10/23/2021 5:00:00 AM 12.33 54.194 0.106 7.24 2.91 9.97
10/23/2021 5:15:00 AM 12.3 54.14 0.104 7.38 2.95 10.09
10/23/2021 5:30:00 AM 12.27 54.086 0.105 7.38 2.96 10.14
10/23/2021 5:45:00 AM 12.24 54.032 0.106 7.43 3.11 10.15
10/23/2021 6:00:00 AM 12.22 53.996 0.104 7.36 3.05 10.05
10/23/2021 6:15:00 AM 12.18 53.924 0.102 7.33 3.13 10.12
10/23/2021 6:30:00 AM 12.16 53.888 0.107 7.38 3.17 10.06
10/23/2021 6:45:00 AM 12.14 53.852 0.105 7.37 3.7 10.15
10/23/2021 7:00:00 AM 12.12 53.816 0.105 7.35 3.45 10.01
10/23/2021 7:15:00 AM 12.09 53.762 0.105 7.29 3.09 10.06
10/23/2021 7:30:00 AM 12.07 53.726 0.105 7.27 3.1 10.07
10/23/2021 7:45:00 AM 12.05 53.69 0.103 7.32 3.17 10.18
10/23/2021 8:00:00 AM 12.03 53.654 0.106 7.42 3.11 10.28
10/23/2021 8:15:00 AM 12.02 53.636 0.103 7.39 2.95 10.28
10/23/2021 8:30:00 AM 12.01 53.618 0.106 7.46 3.21 10.43
10/23/2021 8:45:00 AM 12.02 53.636 0.103 7.42 2.97 10.55
10/23/2021 9:00:00 AM 12.03 53.654 0.106 7.48 2.97 10.62
10/23/2021 9:15:00 AM 12.06 53.708 0.105 7.46 3 10.65
10/23/2021 9:30:00 AM 12.08 53.744 0.106 7.54 3.05 10.81
10/23/2021 9:45:00 AM 12.13 53.834 0.105 7.42 2.99 10.76
10/23/2021 10:00:00 AM 12.13 53.834 0.106 7.53 3.12 10.8
10/23/2021 10:15:00 AM 12.14 53.852 0.103 7.55 3.09 10.88
10/23/2021 10:30:00 AM 12.17 53.906 0.106 7.52 3.11 10.86
10/23/2021 10:45:00 AM 12.2 53.96 0.104 7.55 2.97 10.87
10/23/2021 11:00:00 AM 12.26 54.068 0.106 7.53 3.04 10.93
10/23/2021 11:15:00 AM 12.3 54.14 0.103 7.67 3.03 11.04
10/23/2021 11:30:00 AM 12.36 54.248 0.103 7.47 2.99 11
10/23/2021 11:45:00 AM 12.42 54.356 0.102 7.55 3.06 11.01
10/23/2021 12:00:00 PM 12.47 54.446 0.104 7.55 3.01 10.98
10/23/2021 12:15:00 PM 12.49 54.482 0.102 7.53 2.97 10.96
10/23/2021 12:30:00 PM 12.48 54.464 0.1 7.6 3.09 10.88
10/23/2021 12:45:00 PM 12.52 54.536 0.099 7.67 2.95 10.94
10/23/2021 1:00:00 PM 12.6 54.68 0.104 7.7 3 10.98
10/23/2021 1:15:00 PM 12.67 54.806 0.102 7.69 3.02 11.02
10/23/2021 1:30:00 PM 12.71 54.878 0.104 7.6 3.2 10.96
10/23/2021 1:45:00 PM 12.71 54.878 0.101 7.63 2.98 10.9
10/23/2021 2:00:00 PM 12.71 54.878 0.104 7.59 3.13 10.82
10/23/2021 2:15:00 PM 12.73 54.914 0.101 7.65 3 10.8
10/23/2021 2:30:00 PM 12.75 54.95 0.104 7.61 3.1 10.77
10/23/2021 2:45:00 PM 12.74 54.932 0.104 7.62 3.1 10.7
10/23/2021 3:00:00 PM 12.74 54.932 0.102 7.67 3.15 10.66
10/23/2021 3:15:00 PM 12.73 54.914 0.112 7.53 2.98 10.54
10/23/2021 3:30:00 PM 12.73 54.914 0.103 7.55 3.02 10.55
10/23/2021 3:45:00 PM 12.73 54.914 0.105 7.52 3.54 10.54
10/23/2021 4:00:00 PM 12.74 54.932 0.103 7.48 3.18 10.48
10/23/2021 4:15:00 PM 12.71 54.878 0.104 7.36 3.16 10.42
10/23/2021 4:30:00 PM 12.69 54.842 0.105 7.39 3.04 10.2
10/23/2021 4:45:00 PM 12.67 54.806 0.104 7.43 3.26 10.3
10/23/2021 5:00:00 PM 12.65 54.77 0.103 7.43 8.55 10.22
10/23/2021 5:15:00 PM 12.63 54.734 0.102 7.37 4.74 10.19
10/23/2021 5:30:00 PM 12.61 54.698 0.104 7.27 3.17 10.11
10/23/2021 5:45:00 PM 12.6 54.68 0.103 7.38 3.05 10.16
10/23/2021 6:00:00 PM 12.58 54.644 0.105 7.36 3.14 10.02
10/23/2021 6:15:00 PM 12.55 54.59 0.106 7.32 3.02 10.04
10/23/2021 6:30:00 PM 12.52 54.536 0.106 7.34 3.27 10.05
10/23/2021 6:45:00 PM 12.49 54.482 0.104 7.25 3.1 9.92
10/23/2021 7:00:00 PM 12.46 54.428 0.106 7.34 3.17 10.01
10/23/2021 7:15:00 PM 12.44 54.392 0.104 7.4 3.13 10.09
10/23/2021 7:30:00 PM 12.44 54.392 0.107 7.33 3.23 9.94
10/23/2021 7:45:00 PM 12.4 54.32 0.104 7.3 3.22 9.83
10/23/2021 8:00:00 PM 12.37 54.266 0.105 7.34 3.1 10.03
10/23/2021 8:15:00 PM 12.35 54.23 0.114 7.32 2.95 9.94
10/23/2021 8:30:00 PM 12.32 54.176 0.104 7.38 3.14 10.08
10/23/2021 8:45:00 PM 12.27 54.086 0.113 7.4 3.11 10.09
10/23/2021 9:00:00 PM 12.23 54.014 0.102 7.26 3.12 10.01
10/23/2021 9:15:00 PM 12.21 53.978 0.107 7.33 3.2 9.98
10/23/2021 9:30:00 PM 12.2 53.96 0.105 7.34 2.92 10.06
10/23/2021 9:45:00 PM 12.16 53.888 0.106 7.34 3.16 10.11
10/23/2021 10:00:00 PM 12.12 53.816 0.102 7.34 3.1 9.99
10/23/2021 10:15:00 PM 12.08 53.744 0.106 7.41 3.05 10.15
10/23/2021 10:30:00 PM 12.06 53.708 0.104 7.4 3.19 10.19
10/23/2021 10:45:00 PM 12.04 53.672 0.106 7.36 3.06 10.05
10/23/2021 11:00:00 PM 12.02 53.636 0.105 7.32 3.06 10.08
10/23/2021 11:15:00 PM 12.02 53.636 0.104 7.32 3.36 10.18
10/23/2021 11:30:00 PM 12 53.6 0.101 7.32 3.31 10.1
10/23/2021 11:45:00 PM 12 53.6 0.114 7.34 3.09 10.08
10/24/2021 12:00:00 AM 11.98 53.564 0.104 7.43 3.05 10.17
10/24/2021 12:15:00 AM 11.96 53.528 0.103 7.25 2.9 10.08
10/24/2021 12:30:00 AM 11.96 53.528 0.103 7.32 3.14 10.13
10/24/2021 12:45:00 AM 11.98 53.564 0.106 7.34 3.51 10.17
10/24/2021 1:00:00 AM 11.96 53.528 0.104 7.33 3.04 10.19
10/24/2021 1:15:00 AM 11.94 53.492 0.106 7.36 3.15 10.11
10/24/2021 1:30:00 AM 11.94 53.492 0.106 7.28 3.15 10.04
10/24/2021 1:45:00 AM 11.93 53.474 0.103 7.34 3.19 10.18
10/24/2021 2:00:00 AM 11.93 53.474 0.107 7.22 3.02 10.02
10/24/2021 2:15:00 AM 11.93 53.474 0.104 7.26 2.99 10
10/24/2021 2:30:00 AM 11.92 53.456 0.107 7.35 3.17 10.1
10/24/2021 2:45:00 AM 11.9 53.42 0.105 7.33 3.15 10.02
10/24/2021 3:00:00 AM 11.86 53.348 0.106 7.34 3.04 10.17
10/24/2021 3:15:00 AM 11.82 53.276 0.105 7.32 2.95 10.1
10/24/2021 3:30:00 AM 11.79 53.222 0.114 7.33 2.88 10.22
10/24/2021 3:45:00 AM 11.77 53.186 0.114 7.35 2.89 10.19
10/24/2021 4:00:00 AM 11.76 53.168 0.105 7.39 2.98 10.18
10/24/2021 4:15:00 AM 11.72 53.096 0.107 7.32 3.07 10.11
10/24/2021 4:30:00 AM 11.67 53.006 0.106 7.24 3.09 10.14
10/24/2021 4:45:00 AM 11.63 52.934 0.105 7.39 3.02 10.32
10/24/2021 5:00:00 AM 11.58 52.844 0.102 7.27 3.07 10.05
10/24/2021 5:15:00 AM 11.54 52.772 0.103 7.32 3.07 10.25
10/24/2021 5:30:00 AM 11.5 52.7 0.105 7.37 3.07 10.29
10/24/2021 5:45:00 AM 11.48 52.664 0.105 7.39 4.03 10.34
10/24/2021 6:00:00 AM 11.47 52.646 0.103 7.36 3.11 10.29
10/24/2021 6:15:00 AM 11.44 52.592 0.106 7.37 3.1 10.34
10/24/2021 6:30:00 AM 11.44 52.592 0.105 7.19 2.99 10.17
10/24/2021 6:45:00 AM 11.41 52.538 0.105 7.38 3.05 10.32
10/24/2021 7:00:00 AM 11.42 52.556 0.105 7.27 3 10.24
10/24/2021 7:15:00 AM 11.37 52.466 0.103 7.39 3.01 10.36
10/24/2021 7:30:00 AM 11.36 52.448 0.106 7.39 2.99 10.34
10/24/2021 7:45:00 AM 11.36 52.448 0.106 7.39 3.04 10.34
10/24/2021 8:00:00 AM 11.36 52.448 0.104 7.31 2.98 10.42
10/24/2021 8:15:00 AM 11.33 52.394 0.102 7.39 2.85 10.43
10/24/2021 8:30:00 AM 11.32 52.376 0.107 7.34 3.06 10.43
10/24/2021 8:45:00 AM 11.33 52.394 0.105 7.37 3.04 10.53
10/24/2021 9:00:00 AM 11.32 52.376 0.106 7.41 2.97 10.46
10/24/2021 9:15:00 AM 11.33 52.394 0.105 7.43 3.03 10.78
10/24/2021 9:30:00 AM 11.33 52.394 0.104 7.42 2.9 10.88
10/24/2021 9:45:00 AM 11.39 52.502 0.107 7.36 2.93 10.77
10/24/2021 10:00:00 AM 11.34 52.412 0.105 7.53 3.02 11.07
10/24/2021 10:15:00 AM 11.37 52.466 0.101 7.47 3.06 11.09
10/24/2021 10:30:00 AM 11.39 52.502 0.106 7.5 2.98 11.12
10/24/2021 10:45:00 AM 11.42 52.556 0.104 7.36 3.05 11.09
10/24/2021 11:00:00 AM 11.45 52.61 0.114 7.52 2.94 11.07
10/24/2021 11:15:00 AM 11.47 52.646 0.104 7.59 2.98 11.26
10/24/2021 11:30:00 AM 11.54 52.772 0.102 7.58 3.07 11.26
10/24/2021 11:45:00 AM 11.58 52.844 0.104 7.6 3 11.25
10/24/2021 12:00:00 PM 11.7 53.06 0.104 7.5 2.95 11.18
10/24/2021 12:15:00 PM 11.71 53.078 0.101 7.55 3.05 11.11
10/24/2021 12:30:00 PM 11.75 53.15 0.102 7.65 2.93 11.29
10/24/2021 12:45:00 PM 11.83 53.294 0.103 7.57 3.05 11.13
10/24/2021 1:00:00 PM 11.87 53.366 0.104 7.58 3.11 11.21
10/24/2021 1:15:00 PM 11.95 53.51 0.104 7.6 2.85 11.22
10/24/2021 1:30:00 PM 11.98 53.564 0.112 7.73 2.82 11.19
10/24/2021 1:45:00 PM 12.01 53.618 0.104 7.56 2.88 11.06
10/24/2021 2:00:00 PM 12.05 53.69 0.104 7.54 2.98 11.03
10/24/2021 2:15:00 PM 12.08 53.744 0.104 7.6 2.95 11.04
10/24/2021 2:30:00 PM 12.13 53.834 0.113 7.57 2.97 10.93
10/24/2021 2:45:00 PM 12.14 53.852 0.102 7.62 2.96 10.87
10/24/2021 3:00:00 PM 12.15 53.87 0.102 7.57 3.03 10.8
10/24/2021 3:15:00 PM 12.17 53.906 0.1 7.57 3.03 10.71
10/24/2021 3:30:00 PM 12.19 53.942 0.107 7.59 2.91 10.65
10/24/2021 3:45:00 PM 12.2 53.96 0.104 7.54 2.94 10.56
10/24/2021 4:00:00 PM 12.21 53.978 0.107 7.44 2.97 10.47
10/24/2021 4:15:00 PM 12.22 53.996 0.104 7.49 2.99 10.49
10/24/2021 4:30:00 PM 12.23 54.014 0.107 7.47 3.03 10.51
10/24/2021 4:45:00 PM 12.24 54.032 0.105 7.53 5.13 10.53
10/24/2021 5:00:00 PM 12.24 54.032 0.107 7.53 3.07 10.55
10/24/2021 5:15:00 PM 12.23 54.014 0.114 7.53 2.92 10.49
10/24/2021 5:30:00 PM 12.23 54.014 0.107 7.44 3.01 10.36
10/24/2021 5:45:00 PM 12.22 53.996 0.103 7.48 2.89 10.32
10/24/2021 6:00:00 PM 12.21 53.978 0.107 7.45 2.94 10.24
10/24/2021 6:15:00 PM 12.2 53.96 0.115 7.43 2.87 10.15
10/24/2021 6:30:00 PM 12.2 53.96 0.107 7.47 3.15 10.24
10/24/2021 6:45:00 PM 12.19 53.942 0.105 7.4 2.98 10.14
10/24/2021 7:00:00 PM 12.18 53.924 0.107 7.43 2.93 10.2
10/24/2021 7:15:00 PM 12.17 53.906 0.104 7.39 3.2 10.18
10/24/2021 7:30:00 PM 12.16 53.888 0.103 7.41 3.05 10.2
10/24/2021 7:45:00 PM 12.15 53.87 0.103 7.38 3.1 10.14
10/24/2021 8:00:00 PM 12.14 53.852 0.105 7.44 2.99 10.22
10/24/2021 8:15:00 PM 12.13 53.834 0.116 7.38 2.92 10.15
10/24/2021 8:30:00 PM 12.11 53.798 0.102 7.42 2.98 10.22
10/24/2021 8:45:00 PM 12.11 53.798 0.105 7.39 3.09 10.19
10/24/2021 9:00:00 PM 12.09 53.762 0.104 7.34 3.14 10.1
10/24/2021 9:15:00 PM 12.08 53.744 0.106 7.42 3.06 10.14
10/24/2021 9:30:00 PM 12.06 53.708 0.104 7.31 3.03 10.16
10/24/2021 9:45:00 PM 12.06 53.708 0.105 7.4 3.19 10.15
10/24/2021 10:00:00 PM 12.07 53.726 0.104 7.31 3.38 10.06
10/24/2021 10:15:00 PM 12.06 53.708 0.115 7.2 2.96 9.91
10/24/2021 10:30:00 PM 12.07 53.726 0.102 7.25 3.09 9.91
10/24/2021 10:45:00 PM 12.05 53.69 0.107 7.33 3.08 10.04
10/24/2021 11:00:00 PM 12.03 53.654 0.105 7.39 3.07 10.15
10/24/2021 11:15:00 PM 12.04 53.672 0.108 7.39 3.14 10.17
10/24/2021 11:30:00 PM 12.04 53.672 0.105 7.33 3.11 10.05
10/24/2021 11:45:00 PM 12.05 53.69 0.106 7.38 3 10.08
10/25/2021 12:00:00 AM 12.05 53.69 0.104 7.28 2.92 10.07
10/25/2021 12:15:00 AM 12.05 53.69 0.101 7.38 2.97 10.21
10/25/2021 12:30:00 AM 12.06 53.708 0.107 7.26 2.9 9.98
10/25/2021 12:45:00 AM 12.05 53.69 0.104 7.39 3.07 10.16
10/25/2021 1:00:00 AM 12.07 53.726 0.106 7.34 3.03 10.04
10/25/2021 1:15:00 AM 12.07 53.726 0.104 7.33 3.06 9.99
10/25/2021 1:30:00 AM 12.09 53.762 0.103 7.27 3.09 9.94
10/25/2021 1:45:00 AM 12.11 53.798 0.114 7.34 2.87 10.15
10/25/2021 2:00:00 AM 12.11 53.798 0.102 7.33 2.99 10.07
10/25/2021 2:15:00 AM 12.12 53.816 0.103 7.31 3.09 9.9
10/25/2021 2:30:00 AM 12.13 53.834 0.104 7.32 3.01 10.1
10/25/2021 2:45:00 AM 12.15 53.87 0.104 7.31 3.11 9.97
10/25/2021 3:00:00 AM 12.16 53.888 0.114 7.31 2.96 10.05
10/25/2021 3:15:00 AM 12.17 53.906 0.102 7.41 3.14 10.15
10/25/2021 3:30:00 AM 12.19 53.942 0.103 7.38 3.18 10.13
10/25/2021 3:45:00 AM 12.2 53.96 0.104 7.29 3.16 10
10/25/2021 4:00:00 AM 12.21 53.978 0.105 7.38 3.11 10.12
10/25/2021 4:15:00 AM 12.2 53.96 0.104 7.39 2.94 10.13
10/25/2021 4:30:00 AM 12.19 53.942 0.104 7.37 3.14 10.01
10/25/2021 4:45:00 AM 12.21 53.978 0.101 7.26 3.08 9.74
10/25/2021 5:00:00 AM 12.17 53.906 0.106 7.31 3.22 10.09
10/25/2021 5:15:00 AM 12.14 53.852 0.103 7.39 3.21 10.06
10/25/2021 5:30:00 AM 12.12 53.816 0.106 7.39 3.04 10.14
10/25/2021 5:45:00 AM 12.1 53.78 0.114 7.41 2.79 10.14
10/25/2021 6:00:00 AM 12.08 53.744 0.105 7.35 3.14 10.13
10/25/2021 6:15:00 AM 12.05 53.69 0.105 7.4 3.02 10.18
10/25/2021 6:30:00 AM 12.04 53.672 0.104 7.38 3.04 10.17
10/25/2021 6:45:00 AM 12.02 53.636 0.103 7.41 2.93 10.2
10/25/2021 7:00:00 AM 12 53.6 0.115 7.43 2.99 10.16
10/25/2021 7:15:00 AM 11.98 53.564 0.104 7.33 2.98 10.13
10/25/2021 7:30:00 AM 11.97 53.546 0.105 7.4 2.94 10.16
10/25/2021 7:45:00 AM 11.97 53.546 0.106 7.34 3.33 10.07
10/25/2021 8:00:00 AM 11.95 53.51 0.105 7.4 3.01 10.19
10/25/2021 8:15:00 AM 11.94 53.492 0.104 7.43 3 10.29
10/25/2021 8:30:00 AM 11.95 53.51 0.103 7.39 2.9 10.26
10/25/2021 8:45:00 AM 11.95 53.51 0.108 7.46 3.07 10.38
10/25/2021 9:00:00 AM 11.97 53.546 0.106 7.46 2.95 10.49
10/25/2021 9:15:00 AM 12.01 53.618 0.115 7.46 2.98 10.5
10/25/2021 9:30:00 AM 12.06 53.708 0.107 7.46 2.96 10.57
10/25/2021 9:45:00 AM 12.13 53.834 0.105 7.43 2.99 10.62
10/25/2021 10:00:00 AM 12.23 54.014 0.107 7.49 2.92 10.56
10/25/2021 10:15:00 AM 12.31 54.158 0.104 7.53 2.85 10.74
10/25/2021 10:30:00 AM 12.42 54.356 0.108 7.56 2.94 10.83
10/25/2021 10:45:00 AM 12.56 54.608 0.104 7.52 2.9 10.88
10/25/2021 11:00:00 AM 12.71 54.878 0.107 7.54 3.01 10.87
10/25/2021 11:15:00 AM 12.84 55.112 0.105 7.51 2.97 10.85
10/25/2021 11:30:00 AM 12.94 55.292 0.115 7.63 3.2 10.92
10/25/2021 11:45:00 AM 13.02 55.436 0.104 7.65 2.87 10.9
10/25/2021 12:00:00 PM 13.02 55.436 0.102 7.59 2.91 10.82
10/25/2021 12:15:00 PM 12.94 55.292 0.106 7.52 2.91 10.78
10/25/2021 12:30:00 PM 12.95 55.31 0.105 7.42 2.92 10.63
10/25/2021 12:45:00 PM 13.17 55.706 0.109 7.53 2.98 10.61
10/25/2021 1:00:00 PM 13.34 56.012 0.107 7.4 2.79 10.43
10/25/2021 1:15:00 PM 13.43 56.174 0.106 7.62 2.93 10.71
10/25/2021 1:30:00 PM 13.51 56.318 0.102 7.57 3.03 10.64
10/25/2021 1:45:00 PM 13.6 56.48 0.106 7.46 3 10.57
10/25/2021 2:00:00 PM 13.67 56.606 0.105 7.6 2.96 10.53
10/25/2021 2:15:00 PM 13.71 56.678 0.115 7.57 2.85 10.49
10/25/2021 2:30:00 PM 13.74 56.732 0.107 7.3 2.98 10.39
10/25/2021 2:45:00 PM 13.83 56.894 0.106 7.62 2.97 10.38
10/25/2021 3:00:00 PM 13.87 56.966 0.104 7.5 2.93 10.33
10/25/2021 3:15:00 PM 13.87 56.966 0.108 7.29 2.94 10.06
10/25/2021 3:30:00 PM 13.96 57.128 0.104 7.6 2.87 10.32
10/25/2021 3:45:00 PM 14.04 57.272 0.103 7.64 2.99 10.41
10/25/2021 4:00:00 PM 14.12 57.416 0.107 7.63 2.88 10.32
10/25/2021 4:15:00 PM 14.18 57.524 0.106 7.53 3.01 10.23
10/25/2021 4:30:00 PM 14.25 57.65 0.115 7.54 2.85 10.15
10/25/2021 4:45:00 PM 14.32 57.776 0.104 7.52 3.17 10.11
10/25/2021 5:00:00 PM 14.38 57.884 0.109 7.55 2.99 10
10/25/2021 5:15:00 PM 14.4 57.92 0.106 7.49 2.89 9.88
10/25/2021 5:30:00 PM 14.41 57.938 0.107 7.46 3.05 9.82
10/25/2021 5:45:00 PM 14.4 57.92 0.105 7.45 2.9 9.77
10/25/2021 6:00:00 PM 14.39 57.902 0.109 7.43 2.93 9.69
10/25/2021 6:15:00 PM 14.36 57.848 0.106 7.45 2.86 9.65
10/25/2021 6:30:00 PM 14.32 57.776 0.11 7.48 2.95 9.64
10/25/2021 6:45:00 PM 14.27 57.686 0.106 7.44 2.98 9.58
10/25/2021 7:00:00 PM 14.23 57.614 0.108 7.42 3.02 9.59
10/25/2021 7:15:00 PM 14.19 57.542 0.108 7.39 3.03 9.38
10/25/2021 7:30:00 PM 14.16 57.488 0.108 7.32 3.22 9.39
10/25/2021 7:45:00 PM 14.11 57.398 0.109 7.18 3.43 9.21
10/25/2021 8:00:00 PM 14.08 57.344 0.107 7.14 3.27 9.12
10/25/2021 8:15:00 PM 14.07 57.326 0.108 7.21 3.32 9.18
10/25/2021 8:30:00 PM 14.07 57.326 0.105 7.14 3.54 9.35
10/25/2021 8:45:00 PM 14.04 57.272 0.106 6.97 3.18 9.1
10/25/2021 9:00:00 PM 14.07 57.326 0.105 7.09 3.19 9.35
10/25/2021 9:15:00 PM 14.07 57.326 0.103 7.14 3.17 9.21
10/25/2021 9:30:00 PM 14.06 57.308 0.103 7.15 3.24 9.23
10/25/2021 9:45:00 PM 14.09 57.362 0.102 7.16 3.61 9.39
10/25/2021 10:00:00 PM 14.07 57.326 0.102 7.05 3.25 9.24
10/25/2021 10:15:00 PM 14.11 57.398 0.1 7.11 3.36 9.32
10/25/2021 10:30:00 PM 14.1 57.38 0.106 7.1 3.37 9.15
10/25/2021 10:45:00 PM 14.1 57.38 0.104 7.14 3.23 9.05
10/25/2021 11:00:00 PM 14.12 57.416 0.105 7.1 3.07 9.2
10/25/2021 11:15:00 PM 14.11 57.398 0.102 7.14 3.11 9.25
10/25/2021 11:30:00 PM 14.15 57.47 0.103 7.3 3.15 9.43
10/25/2021 11:45:00 PM 14.12 57.416 0.102 6.84 3.23 8.96
10/26/2021 12:00:00 AM 14.13 57.434 0.099 7.13 3.19 8.93
10/26/2021 12:15:00 AM 14.12 57.416 0.104 7 3.15 9.31
10/26/2021 12:30:00 AM 14.12 57.416 0.101 7.21 3.18 9.41
10/26/2021 12:45:00 AM 14.12 57.416 0.103 7.27 3.16 9.37
10/26/2021 1:00:00 AM 14.1 57.38 0.102 7.19 3.34 9.28
10/26/2021 1:15:00 AM 14.09 57.362 0.103 7.2 3.24 9.23
10/26/2021 1:30:00 AM 14.08 57.344 0.102 7.16 3.39 9.34
10/26/2021 1:45:00 AM 14.08 57.344 0.101 7.13 3.34 9.31
10/26/2021 2:00:00 AM 14.07 57.326 0.1 7.22 3.31 9.36
10/26/2021 2:15:00 AM 14.05 57.29 0.1 7.06 3.22 9.13
10/26/2021 2:30:00 AM 14.01 57.218 0.113 6.88 3.12 9.09
10/26/2021 2:45:00 AM 14.03 57.254 0.101 7.25 3.23 8.86
10/26/2021 3:00:00 AM 14.02 57.236 0.102 7.05 3.05 9.1
10/26/2021 3:15:00 AM 13.99 57.182 0.111 6.95 3.21 9.27
10/26/2021 3:30:00 AM 14 57.2 0.103 7.13 3.19 9.35
10/26/2021 3:45:00 AM 13.99 57.182 0.103 7.25 3.14 9.43
10/26/2021 4:00:00 AM 13.96 57.128 0.101 7.1 3.23 9.17
10/26/2021 4:15:00 AM 13.95 57.11 0.103 7.14 3.36 9.2
10/26/2021 4:30:00 AM 13.97 57.146 0.101 7.07 3.24 9.25
10/26/2021 4:45:00 AM 13.96 57.128 0.104 7.14 3.36 9.35
10/26/2021 5:00:00 AM 13.97 57.146 0.102 7.07 3.24 9.34
10/26/2021 5:15:00 AM 13.95 57.11 0.102 7.18 3.35 9.25
10/26/2021 5:30:00 AM 13.95 57.11 0.101 7.02 3.24 9.17
10/26/2021 5:45:00 AM 13.96 57.128 0.102 7.18 3.3 9.33
10/26/2021 6:00:00 AM 13.96 57.128 0.1 7.08 3.35 9.24
10/26/2021 6:15:00 AM 13.95 57.11 0.099 6.99 3.2 9.34
10/26/2021 6:30:00 AM 13.93 57.074 0.111 7.04 3.13 9.16
10/26/2021 6:45:00 AM 13.96 57.128 0.101 7.16 3.14 9.35
10/26/2021 7:00:00 AM 13.94 57.092 0.103 7.13 3.17 9.28
10/26/2021 7:15:00 AM 13.95 57.11 0.1 7.1 3.35 9.22
10/26/2021 7:30:00 AM 13.91 57.038 0.103 7 3.15 9.05
10/26/2021 7:45:00 AM 13.93 57.074 0.103 7.03 3.38 9.25
10/26/2021 8:00:00 AM 13.92 57.056 0.099 7 3.3 9.29
10/26/2021 8:15:00 AM 13.92 57.056 0.103 7.05 3.2 9.25
10/26/2021 8:30:00 AM 13.94 57.092 0.1 7.16 3.15 9.41
10/26/2021 8:45:00 AM 13.91 57.038 0.103 7.21 3.14 9.4
10/26/2021 9:00:00 AM 13.92 57.056 0.101 7.22 3.25 9.46
10/26/2021 9:15:00 AM 13.91 57.038 0.102 7.12 3.1 9.42
10/26/2021 9:30:00 AM 13.91 57.038 0.1 7.1 3.19 9.46
10/26/2021 9:45:00 AM 13.92 57.056 0.11 7.16 3.47 9.58
10/26/2021 10:00:00 AM 13.94 57.092 0.101 7.15 3.04 9.56
10/26/2021 10:15:00 AM 13.94 57.092 0.105 7.02 3.1 9.5
10/26/2021 10:30:00 AM 13.96 57.128 0.099 7.13 3.14 9.74
10/26/2021 10:45:00 AM 13.96 57.128 0.101 7.17 3.42 9.66
10/26/2021 11:00:00 AM 13.96 57.128 0.099 7.25 3.23 9.73
10/26/2021 11:15:00 AM 13.96 57.128 0.101 7.08 3.36 9.55
10/26/2021 11:30:00 AM 13.95 57.11 0.099 7.05 3.34 9.44
10/26/2021 11:45:00 AM 13.99 57.182 0.096 7.2 3.5 9.76
10/26/2021 12:00:00 PM 13.98 57.164 0.097 7.1 3.7 9.58
10/26/2021 12:15:00 PM 13.98 57.164 0.097 7.18 3.71 9.56
10/26/2021 12:30:00 PM 13.94 57.092 0.095 6.95 4.25 9.48
10/26/2021 12:45:00 PM 13.94 57.092 0.094 7.2 4.57 9.7
10/26/2021 1:00:00 PM 13.93 57.074 0.093 7.33 5 9.79
10/26/2021 1:15:00 PM 13.91 57.038 0.092 7.3 6.37 9.75
10/26/2021 1:30:00 PM 13.89 57.002 0.092 7.37 6.67 9.75
10/26/2021 1:45:00 PM 13.83 56.894 0.092 7.34 8.54 9.65
10/26/2021 2:00:00 PM 13.76 56.768 0.094 6.93 9.11 9.45
10/26/2021 2:15:00 PM 13.71 56.678 0.092 7.21 10.61 9.77
10/26/2021 2:30:00 PM 13.65 56.57 0.09 7.15 12.86 9.75
10/26/2021 2:45:00 PM 13.6 56.48 0.09 7.07 14.71 9.82
10/26/2021 3:00:00 PM 13.59 56.462 0.088 7.3 16.76 9.92
10/26/2021 3:15:00 PM 13.57 56.426 0.085 7.45 23.75 10.02
10/26/2021 3:30:00 PM 13.53 56.354 0.087 7.43 25.96 10
10/26/2021 3:45:00 PM 13.48 56.264 0.085 7.41 27.78 10
10/26/2021 4:00:00 PM 13.42 56.156 0.084 7.43 25.32 10.01
10/26/2021 4:15:00 PM 13.37 56.066 0.082 7.38 25.76 10.02
10/26/2021 4:30:00 PM 13.3 55.94 0.082 7.4 20.16 10.03
10/26/2021 4:45:00 PM 13.26 55.868 0.082 7.41 22.46 10.06
10/26/2021 5:00:00 PM 13.22 55.796 0.082 7.38 17.73 10.06
10/26/2021 5:15:00 PM 13.17 55.706 0.083 7.39 17.87 10.06
10/26/2021 5:30:00 PM 13.14 55.652 0.084 7.4 19.73 10.08
10/26/2021 5:45:00 PM 13.1 55.58 0.085 7.39 15.69 10.07
10/26/2021 6:00:00 PM 13.08 55.544 0.086 7.42 14.16 10.08
10/26/2021 6:15:00 PM 13.07 55.526 0.087 7.39 17.26 10.09
10/26/2021 6:30:00 PM 13.07 55.526 0.087 7.38 17.7 10.07
10/26/2021 6:45:00 PM 13.07 55.526 0.088 7.38 19.19 10.04
10/26/2021 7:00:00 PM 13.07 55.526 0.087 7.45 22.51 10.11
10/26/2021 7:15:00 PM 13.08 55.544 0.083 7.43 20.11 10.1
10/26/2021 7:30:00 PM 13.09 55.562 0.085 7.42 18.33 10.12
10/26/2021 7:45:00 PM 13.11 55.598 0.087 7.44 28.89 10.12
10/26/2021 8:00:00 PM 13.13 55.634 0.087 7.44 17.42 10.12
10/26/2021 8:15:00 PM 13.14 55.652 0.084 7.42 19.96 10.13
10/26/2021 8:30:00 PM 13.15 55.67 0.089 7.47 23.13 10.14
10/26/2021 8:45:00 PM 13.16 55.688 0.086 7.46 19.79 10.14
10/26/2021 9:00:00 PM 13.16 55.688 0.088 7.44 24.99 10.15
10/26/2021 9:15:00 PM 13.17 55.706 0.088 7.44 30.83 10.15
10/26/2021 9:30:00 PM 13.18 55.724 0.087 7.45 19.75 10.16
10/26/2021 9:45:00 PM 13.19 55.742 0.085 7.49 17.16 10.16
10/26/2021 10:00:00 PM 13.21 55.778 0.089 7.47 21.24 10.16
10/26/2021 10:15:00 PM 13.23 55.814 0.086 7.45 15.72 10.15
10/26/2021 10:30:00 PM 13.25 55.85 0.088 7.45 16.43 10.14
10/26/2021 10:45:00 PM 13.26 55.868 0.088 7.47 15.68 10.16
10/26/2021 11:00:00 PM 13.28 55.904 0.088 7.44 15.19 10.17
10/26/2021 11:15:00 PM 13.29 55.922 0.085 7.44 16.95 10.15
10/26/2021 11:30:00 PM 13.31 55.958 0.084 7.45 16.49 10.16
10/26/2021 11:45:00 PM 13.33 55.994 0.088 7.45 16.14 10.16
10/27/2021 12:00:00 AM 13.34 56.012 0.086 7.44 16.83 10.16
10/27/2021 12:15:00 AM 13.36 56.048 0.087 7.42 14.66 10.16
10/27/2021 12:30:00 AM 13.39 56.102 0.085 7.43 13.92 10.15
10/27/2021 12:45:00 AM 13.41 56.138 0.084 7.42 17.62 10.15
10/27/2021 1:00:00 AM 13.44 56.192 0.094 7.46 13.43 10.17
10/27/2021 1:15:00 AM 13.46 56.228 0.088 7.46 14.96 10.15
10/27/2021 1:30:00 AM 13.47 56.246 0.087 7.44 14.24 10.15
10/27/2021 1:45:00 AM 13.49 56.282 0.087 7.43 12.83 10.16
10/27/2021 2:00:00 AM 13.5 56.3 0.087 7.43 14.68 10.13
10/27/2021 2:15:00 AM 13.51 56.318 0.086 7.4 12.47 10.07
10/27/2021 2:30:00 AM 13.53 56.354 0.085 7.45 13.77 10.12
10/27/2021 2:45:00 AM 13.54 56.372 0.084 7.47 132.86 10.15
10/27/2021 3:00:00 AM 13.55 56.39 0.085 7.46 13.36 10.12
10/27/2021 3:15:00 AM 13.56 56.408 0.085 7.45 14.78 10.13
10/27/2021 3:30:00 AM 13.56 56.408 0.088 7.43 14.1 10.13
10/27/2021 3:45:00 AM 13.57 56.426 0.087 7.44 11.6 10.14
10/27/2021 4:00:00 AM 13.57 56.426 0.085 7.45 11.29 10.13
10/27/2021 4:15:00 AM 13.56 56.408 0.086 7.42 11.62 10.14
10/27/2021 4:30:00 AM 13.56 56.408 0.085 7.44 11.3 10.15
10/27/2021 4:45:00 AM 13.56 56.408 0.084 7.46 13.37 10.13
10/27/2021 5:00:00 AM 13.55 56.39 0.085 7.46 11.68 10.15
10/27/2021 5:15:00 AM 13.54 56.372 0.084 7.46 11.38 10.15
10/27/2021 5:30:00 AM 13.53 56.354 0.085 7.47 13.25 10.15
10/27/2021 5:45:00 AM 13.52 56.336 0.085 7.46 13.97 10.15
10/27/2021 6:00:00 AM 13.5 56.3 0.088 7.47 11.21 10.16
10/27/2021 6:15:00 AM 13.49 56.282 0.089 7.45 12.93 10.16
10/27/2021 6:30:00 AM 13.48 56.264 0.085 7.47 13.54 10.19
10/27/2021 6:45:00 AM 13.47 56.246 0.088 7.47 13.23 10.18
10/27/2021 7:00:00 AM 13.46 56.228 0.086 7.47 11.43 10.19
10/27/2021 7:15:00 AM 13.44 56.192 0.089 7.45 13.28 10.17
10/27/2021 7:30:00 AM 13.43 56.174 0.086 7.47 12.61 10.2
10/27/2021 7:45:00 AM 13.42 56.156 0.089 7.48 12.45 10.19
10/27/2021 8:00:00 AM 13.41 56.138 0.086 7.46 12.33 10.19
10/27/2021 8:15:00 AM 13.4 56.12 0.088 7.47 12.08 10.22
10/27/2021 8:30:00 AM 13.4 56.12 0.087 7.5 11.61 10.22
10/27/2021 8:45:00 AM 13.39 56.102 0.086 7.47 11.71 10.22
10/27/2021 9:00:00 AM 13.38 56.084 0.09 7.49 11.52 10.24
10/27/2021 9:15:00 AM 13.37 56.066 0.087 7.48 11.83 10.24
10/27/2021 9:30:00 AM 13.36 56.048 0.089 7.48 11.65 10.24
10/27/2021 9:45:00 AM 13.34 56.012 0.087 7.48 11.26 10.24
10/27/2021 10:00:00 AM 13.32 55.976 0.087 7.48 10.57 10.28
10/27/2021 10:15:00 AM 13.32 55.976 0.085 7.49 10.78 10.29
10/27/2021 10:30:00 AM 13.31 55.958 0.09 7.49 10.88 10.28
10/27/2021 10:45:00 AM 13.3 55.94 0.088 7.51 10.36 10.32
10/27/2021 11:00:00 AM 13.31 55.958 0.088 7.51 10.55 10.32
10/27/2021 11:15:00 AM 13.31 55.958 0.085 7.52 11.12 10.34
10/27/2021 11:30:00 AM 13.33 55.994 0.089 7.52 10.1 10.36
10/27/2021 11:45:00 AM 13.35 56.03 0.087 7.53 10.74 10.37
10/27/2021 12:00:00 PM 13.39 56.102 0.089 7.54 9.71 10.35
10/27/2021 12:15:00 PM 13.44 56.192 0.086 7.53 11.87 10.36
10/27/2021 12:30:00 PM 13.5 56.3 0.088 7.54 9.9 10.36
10/27/2021 12:45:00 PM 13.5 56.3 0.087 7.54 9.56 10.35
10/27/2021 1:00:00 PM 13.52 56.336 0.087 7.56 9.78 10.35
10/27/2021 1:15:00 PM 13.54 56.372 0.095 7.54 9.75 10.34
10/27/2021 1:30:00 PM 13.56 56.408 0.085 7.56 9.71 10.33
10/27/2021 1:45:00 PM 13.59 56.462 0.089 7.55 9.89 10.33
10/27/2021 2:00:00 PM 13.6 56.48 0.089 7.54 10.93 10.33
10/27/2021 2:15:00 PM 13.62 56.516 0.088 7.53 9.82 10.33
10/27/2021 2:30:00 PM 13.65 56.57 0.086 7.56 9.75 10.33
10/27/2021 2:45:00 PM 13.67 56.606 0.084 7.54 9.73 10.28
10/27/2021 3:00:00 PM 13.69 56.642 0.085 7.56 9.49 10.29
10/27/2021 3:15:00 PM 13.7 56.66 0.084 7.51 8.98 10.25
10/27/2021 3:30:00 PM 13.71 56.678 0.085 7.52 10.35 10.24
10/27/2021 3:45:00 PM 13.69 56.642 0.084 7.5 9.32 10.21
10/27/2021 4:00:00 PM 13.66 56.588 0.083 7.51 9.32 10.21
10/27/2021 4:15:00 PM 13.64 56.552 0.086 7.49 8.92 10.21
10/27/2021 4:30:00 PM 13.63 56.534 0.088 7.49 9.37 10.22
10/27/2021 4:45:00 PM 13.61 56.498 0.088 7.47 8.86 10.23
10/27/2021 5:00:00 PM 13.58 56.444 0.089 7.46 8.58 10.23
10/27/2021 5:15:00 PM 13.55 56.39 0.088 7.51 8.69 10.22
10/27/2021 5:30:00 PM 13.53 56.354 0.085 7.49 8.72 10.23
10/27/2021 5:45:00 PM 13.5 56.3 0.088 7.48 8.42 10.24
10/27/2021 6:00:00 PM 13.46 56.228 0.086 7.49 8.91 10.22
10/27/2021 6:15:00 PM 13.44 56.192 0.087 7.48 8.65 10.25
10/27/2021 6:30:00 PM 13.41 56.138 0.089 7.46 9.58 10.23
10/27/2021 6:45:00 PM 13.38 56.084 0.094 7.46 9.4 10.23
10/27/2021 7:00:00 PM 13.34 56.012 0.085 7.44 7.54 10.26
10/27/2021 7:15:00 PM 13.31 55.958 0.095 7.47 9.11 10.26
10/27/2021 7:30:00 PM 13.28 55.904 0.086 7.45 9.61 10.27
10/27/2021 7:45:00 PM 13.25 55.85 0.091 7.48 8.61 10.29
10/27/2021 8:00:00 PM 13.22 55.796 0.089 7.46 8.45 10.29
10/27/2021 8:15:00 PM 13.2 55.76 0.089 7.47 9.64 10.29
10/27/2021 8:30:00 PM 13.18 55.724 0.088 7.47 8.89 10.3
10/27/2021 8:45:00 PM 13.16 55.688 0.087 7.44 9.92 10.31
10/27/2021 9:00:00 PM 13.13 55.634 0.088 7.49 9.55 10.32
10/27/2021 9:15:00 PM 13.1 55.58 0.089 7.49 8.19 10.33
10/27/2021 9:30:00 PM 13.07 55.526 0.087 7.49 9.57 10.33
10/27/2021 9:45:00 PM 13.03 55.454 0.084 7.46 9.75 10.34
10/27/2021 10:00:00 PM 13 55.4 0.088 7.49 8.71 10.35
10/27/2021 10:15:00 PM 12.96 55.328 0.089 7.48 8.3 10.35
10/27/2021 10:30:00 PM 12.92 55.256 0.088 7.48 8.32 10.36
10/27/2021 10:45:00 PM 12.88 55.184 0.089 7.48 8.32 10.38
10/27/2021 11:00:00 PM 12.84 55.112 0.086 7.48 8.17 10.38
10/27/2021 11:15:00 PM 12.8 55.04 0.089 7.49 8.32 10.39
10/27/2021 11:30:00 PM 12.76 54.968 0.089 7.47 8.17 10.4
10/27/2021 11:45:00 PM 12.72 54.896 0.088 7.48 8.46 10.4
10/28/2021 12:00:00 AM 12.68 54.824 0.089 7.47 8.24 10.41
10/28/2021 12:15:00 AM 12.64 54.752 0.084 7.47 8.28 10.42
10/28/2021 12:30:00 AM 12.6 54.68 0.088 7.48 8.17 10.44
10/28/2021 12:45:00 AM 12.56 54.608 0.09 7.47 7.67 10.43
10/28/2021 1:00:00 AM 12.52 54.536 0.088 7.48 8.06 10.45
10/28/2021 1:15:00 AM 12.49 54.482 0.085 7.47 8.17 10.47
10/28/2021 1:30:00 AM 12.46 54.428 0.09 7.47 7.81 10.46
10/28/2021 1:45:00 AM 12.42 54.356 0.086 7.47 7.97 10.47
10/28/2021 2:00:00 AM 12.39 54.302 0.09 7.47 7.93 10.49
10/28/2021 2:15:00 AM 12.36 54.248 0.089 7.46 8.02 10.49
10/28/2021 2:30:00 AM 12.32 54.176 0.089 7.47 8.77 10.51
10/28/2021 2:45:00 AM 12.29 54.122 0.086 7.46 8.11 10.5
10/28/2021 3:00:00 AM 12.26 54.068 0.089 7.46 8.3 10.52
10/28/2021 3:15:00 AM 12.23 54.014 0.089 7.46 8.07 10.53
10/28/2021 3:30:00 AM 12.2 53.96 0.09 7.47 8.35 10.54
10/28/2021 3:45:00 AM 12.17 53.906 0.088 7.46 8.11 10.53
10/28/2021 4:00:00 AM 12.14 53.852 0.09 7.46 8.04 10.55
10/28/2021 4:15:00 AM 12.11 53.798 0.088 7.45 8.34 10.54
10/28/2021 4:30:00 AM 12.08 53.744 0.09 7.48 8.14 10.56
10/28/2021 4:45:00 AM 12.05 53.69 0.09 7.44 8.22 10.57
10/28/2021 5:00:00 AM 12.03 53.654 0.09 7.43 7.99 10.57
10/28/2021 5:15:00 AM 12 53.6 0.09 7.44 7.92 10.58
10/28/2021 5:30:00 AM 11.97 53.546 0.09 7.46 8.55 10.57
10/28/2021 5:45:00 AM 11.94 53.492 0.09 7.43 7.78 10.58
10/28/2021 6:00:00 AM 11.91 53.438 0.089 7.43 7.59 10.6
10/28/2021 6:15:00 AM 11.88 53.384 0.089 7.42 7.89 10.59
10/28/2021 6:30:00 AM 11.86 53.348 0.09 7.41 8 10.59
10/28/2021 6:45:00 AM 11.83 53.294 0.09 7.43 7.75 10.61
10/28/2021 7:00:00 AM 11.82 53.276 0.09 7.42 7.86 10.61
10/28/2021 7:15:00 AM 11.81 53.258 0.09 7.45 7.6 10.62
10/28/2021 7:30:00 AM 11.79 53.222 0.09 7.44 7.57 10.62
10/28/2021 7:45:00 AM 11.78 53.204 0.09 7.45 7.42 10.64
10/28/2021 8:00:00 AM 11.78 53.204 0.089 7.43 7.85 10.64
10/28/2021 8:15:00 AM 11.76 53.168 0.089 7.43 7.77 10.66
10/28/2021 8:30:00 AM 11.75 53.15 0.089 7.46 7.6 10.67
10/28/2021 8:45:00 AM 11.76 53.168 0.089 7.47 7.46 10.7
10/28/2021 9:00:00 AM 11.76 53.168 0.089 7.49 8.14 10.71
10/28/2021 9:15:00 AM 11.77 53.186 0.089 7.46 7.62 10.71
10/28/2021 9:30:00 AM 11.78 53.204 0.089 7.48 7.49 10.72
10/28/2021 9:45:00 AM 11.81 53.258 0.089 7.47 7.39 10.71
10/28/2021 10:00:00 AM 11.83 53.294 0.089 7.46 7.6 10.73
10/28/2021 10:15:00 AM 11.88 53.384 0.089 7.46 7.53 10.72
10/28/2021 10:30:00 AM 11.93 53.474 0.089 7.48 7.42 10.71
10/28/2021 10:45:00 AM 11.99 53.582 0.088 7.47 7.5 10.71
10/28/2021 11:00:00 AM 12.07 53.726 0.089 7.45 7.3 10.71
10/28/2021 11:15:00 AM 12.15 53.87 0.089 7.49 7.31 10.69
10/28/2021 11:30:00 AM 12.22 53.996 0.089 7.47 7.43 10.66
10/28/2021 11:45:00 AM 12.29 54.122 0.089 7.5 7.94 10.67
10/28/2021 12:00:00 PM 12.36 54.248 0.088 7.48 7.48 10.63
10/28/2021 12:15:00 PM 12.44 54.392 0.089 7.49 7.35 10.62
10/28/2021 12:30:00 PM 12.51 54.518 0.088 7.48 7.3 10.6
10/28/2021 12:45:00 PM 12.57 54.626 0.087 7.49 8.7 10.58
10/28/2021 1:00:00 PM 12.63 54.734 0.085 7.5 7.43 10.53
10/28/2021 1:15:00 PM 12.71 54.878 0.087 7.49 7.48 10.53
10/28/2021 1:30:00 PM 12.78 55.004 0.085 7.49 7.79 10.5
10/28/2021 1:45:00 PM 12.86 55.148 0.088 7.47 7.68 10.48
10/28/2021 2:00:00 PM 12.94 55.292 0.089 7.47 7.21 10.43
10/28/2021 2:15:00 PM 13.02 55.436 0.085 7.48 7.79 10.43
10/28/2021 2:30:00 PM 13.09 55.562 0.088 7.46 7.65 10.38
10/28/2021 2:45:00 PM 13.14 55.652 0.087 7.45 7.5 10.35
10/28/2021 3:00:00 PM 13.19 55.742 0.085 7.46 7.36 10.35
10/28/2021 3:15:00 PM 13.24 55.832 0.088 7.47 7.59 10.33
10/28/2021 3:30:00 PM 13.27 55.886 0.088 7.5 7.73 10.32
10/28/2021 3:45:00 PM 13.29 55.922 0.088 7.5 7.57 10.31
10/28/2021 4:00:00 PM 13.3 55.94 0.087 7.46 7.44 10.27
10/28/2021 4:15:00 PM 13.3 55.94 0.085 7.4 7.37 10.26
10/28/2021 4:30:00 PM 13.29 55.922 0.087 7.48 7.47 10.28
10/28/2021 4:45:00 PM 13.27 55.886 0.086 7.45 7.48 10.26
10/28/2021 5:00:00 PM 13.23 55.814 0.088 7.42 7.82 10.26
10/28/2021 5:15:00 PM 13.19 55.742 0.086 7.41 7.45 10.25
10/28/2021 5:30:00 PM 13.15 55.67 0.084 7.39 7.28 10.26
10/28/2021 5:45:00 PM 13.12 55.616 0.087 7.42 7.38 10.3
10/28/2021 6:00:00 PM 13.08 55.544 0.085 7.41 7.4 10.24
10/28/2021 6:15:00 PM 13.03 55.454 0.087 7.38 8.04 10.24
10/28/2021 6:30:00 PM 12.99 55.382 0.094 7.39 7.25 10.25
10/28/2021 6:45:00 PM 12.94 55.292 0.087 7.38 8 10.26
10/28/2021 7:00:00 PM 12.88 55.184 0.085 7.37 7.69 10.28
10/28/2021 7:15:00 PM 12.82 55.076 0.09 7.36 7.81 10.27
10/28/2021 7:30:00 PM 12.77 54.986 0.088 7.39 7.85 10.29
10/28/2021 7:45:00 PM 12.72 54.896 0.088 7.4 7.67 10.33
10/28/2021 8:00:00 PM 12.66 54.788 0.085 7.39 7.51 10.33
10/28/2021 8:15:00 PM 12.61 54.698 0.09 7.2 7.63 10.27
10/28/2021 8:30:00 PM 12.56 54.608 0.088 7.37 7.23 10.34
10/28/2021 8:45:00 PM 12.52 54.536 0.09 7.35 7.53 10.33
10/28/2021 9:00:00 PM 12.49 54.482 0.09 7.41 7.26 10.37
10/28/2021 9:15:00 PM 12.45 54.41 0.089 7.4 7.25 10.39
10/28/2021 9:30:00 PM 12.41 54.338 0.089 7.31 12.09 10.39
10/28/2021 9:45:00 PM 12.38 54.284 0.09 7.41 10.95 10.4
10/28/2021 10:00:00 PM 12.35 54.23 0.089 7.37 9.56 10.37
10/28/2021 10:15:00 PM 12.33 54.194 0.089 7.37 8.86 10.4
10/28/2021 10:30:00 PM 12.32 54.176 0.089 7.33 8.85 10.39
10/28/2021 10:45:00 PM 12.32 54.176 0.09 7.33 8.38 10.34
10/28/2021 11:00:00 PM 12.32 54.176 0.088 7.36 8.32 10.38
10/28/2021 11:15:00 PM 12.32 54.176 0.09 7.38 8.24 10.4
10/28/2021 11:30:00 PM 12.33 54.194 0.089 7.31 8.69 10.33
10/28/2021 11:45:00 PM 12.35 54.23 0.089 7.39 8.93 10.44
10/29/2021 12:00:00 AM 12.36 54.248 0.089 7.38 8.47 10.41
10/29/2021 12:15:00 AM 12.37 54.266 0.089 7.36 8.2 10.4
10/29/2021 12:30:00 AM 12.39 54.302 0.089 7.38 8.26 10.42
10/29/2021 12:45:00 AM 12.42 54.356 0.089 7.4 8.22 10.38
10/29/2021 1:00:00 AM 12.43 54.374 0.084 7.34 8.03 10.39
10/29/2021 1:15:00 AM 12.45 54.41 0.089 7.36 8.63 10.38
10/29/2021 1:30:00 AM 12.45 54.41 0.09 7.38 9.92 10.4
10/29/2021 1:45:00 AM 12.45 54.41 0.088 7.34 8.6 10.34
10/29/2021 2:00:00 AM 12.45 54.41 0.089 7.36 9.06 10.37
10/29/2021 2:15:00 AM 12.45 54.41 0.089 7.37 8.94 10.38
10/29/2021 2:30:00 AM 12.45 54.41 0.089 7.35 8.67 10.36
10/29/2021 2:45:00 AM 12.46 54.428 0.089 7.39 8.98 10.38
10/29/2021 3:00:00 AM 12.47 54.446 0.085 7.41 8.9 10.35
10/29/2021 3:15:00 AM 12.46 54.428 0.087 7.34 8.07 10.36
10/29/2021 3:30:00 AM 12.46 54.428 0.089 7.38 8.39 10.35
10/29/2021 3:45:00 AM 12.45 54.41 0.086 7.36 8.9 10.33
10/29/2021 4:00:00 AM 12.45 54.41 0.087 7.31 13.12 10.29
10/29/2021 4:15:00 AM 12.44 54.392 0.086 7.4 9.48 10.38
10/29/2021 4:30:00 AM 12.45 54.41 0.085 7.41 8.44 10.35
10/29/2021 4:45:00 AM 12.46 54.428 0.09 7.35 8.01 10.34
10/29/2021 5:00:00 AM 12.46 54.428 0.089 7.4 8.02 10.34
10/29/2021 5:15:00 AM 12.47 54.446 0.089 7.31 7.71 10.23
10/29/2021 5:30:00 AM 12.46 54.428 0.09 7.35 9.38 10.35
10/29/2021 5:45:00 AM 12.45 54.41 0.095 7.4 8.05 10.36
10/29/2021 6:00:00 AM 12.45 54.41 0.09 7.36 9.69 10.29
10/29/2021 6:15:00 AM 12.45 54.41 0.089 7.36 9.69 10.34
10/29/2021 6:30:00 AM 12.43 54.374 0.086 7.39 9.19 10.31
10/29/2021 6:45:00 AM 12.42 54.356 0.089 7.38 9.62 10.37
10/29/2021 7:00:00 AM 12.41 54.338 0.091 7.33 9.3 10.33
10/29/2021 7:15:00 AM 12.39 54.302 0.089 7.36 9.39 10.18
10/29/2021 7:30:00 AM 12.36 54.248 0.09 7.35 10.69 10.34
10/29/2021 7:45:00 AM 12.35 54.23 0.087 7.33 7.24 10.3
10/29/2021 8:00:00 AM 12.31 54.158 0.09 7.38 12.58 10.33
10/29/2021 8:15:00 AM 12.28 54.104 0.09 7.31 7.49 10.21
10/29/2021 8:30:00 AM 12.25 54.05 0.086 7.38 7.26 10.37
10/29/2021 8:45:00 AM 12.22 53.996 0.091 7.35 7.76 10.46
10/29/2021 9:00:00 AM 12.2 53.96 0.09 7.32 7.58 10.4
10/29/2021 9:15:00 AM 12.16 53.888 0.09 7.37 8.08 10.47
10/29/2021 9:30:00 AM 12.13 53.834 0.089 7.42 7.56 10.55
10/29/2021 9:45:00 AM 12.12 53.816 0.086 7.39 7.46 10.53
10/29/2021 10:00:00 AM 12.12 53.816 0.089 7.45 7.6 10.57
10/29/2021 10:15:00 AM 12.12 53.816 0.087 7.41 7.25 10.58
10/29/2021 10:30:00 AM 12.15 53.87 0.09 7.4 7.3 10.65
10/29/2021 10:45:00 AM 12.22 53.996 0.091 7.39 7.24 10.64
10/29/2021 11:00:00 AM 12.26 54.068 0.089 7.35 7.47 10.58
10/29/2021 11:15:00 AM 12.33 54.194 0.09 7.33 7.76 10.42
10/29/2021 11:30:00 AM 12.24 54.032 0.091 7.37 7.58 10.55
10/29/2021 11:45:00 AM 12.28 54.104 0.091 7.39 8.26 10.62
10/29/2021 12:00:00 PM 12.36 54.248 0.087 7.36 8.3 10.6
10/29/2021 12:15:00 PM 12.4 54.32 0.091 7.28 8.05 10.53
10/29/2021 12:30:00 PM 12.36 54.248 0.085 7.37 9.77 10.5
10/29/2021 12:45:00 PM 12.37 54.266 0.088 7.38 7.67 10.48
10/29/2021 1:00:00 PM 12.39 54.302 0.086 7.4 9 10.47
10/29/2021 1:15:00 PM 12.45 54.41 0.089 7.36 7.52 10.41
10/29/2021 1:30:00 PM 12.54 54.572 0.09 7.39 7.82 10.47
10/29/2021 1:45:00 PM 12.45 54.41 0.091 7.42 8.41 10.46
10/29/2021 2:00:00 PM 12.5 54.5 0.086 7.28 9.27 10.4
10/29/2021 2:15:00 PM 12.56 54.608 0.088 7.27 8.65 10.3
10/29/2021 2:30:00 PM 12.59 54.662 0.09 7.25 7.76 10.42
10/29/2021 2:45:00 PM 12.54 54.572 0.09 7.43 7.91 10.48
10/29/2021 3:00:00 PM 12.52 54.536 0.086 7.35 7.9 10.36
10/29/2021 3:15:00 PM 12.51 54.518 0.089 7.39 7.98 10.43
10/29/2021 3:30:00 PM 12.49 54.482 0.09 7.38 7.71 10.25
10/29/2021 3:45:00 PM 12.46 54.428 0.089 7.33 9.41 10.23
10/29/2021 4:00:00 PM 12.43 54.374 0.09 7.3 7.28 10.27
10/29/2021 4:15:00 PM 12.42 54.356 0.09 7.31 8.58 10.17
10/29/2021 4:30:00 PM 12.38 54.284 0.089 7.26 8.16 10.3
10/29/2021 4:45:00 PM 12.36 54.248 0.089 7.34 7.16 10.3
10/29/2021 5:00:00 PM 12.34 54.212 0.085 7.33 7.25 10.33
10/29/2021 5:15:00 PM 12.31 54.158 0.09 7.27 7.36 10.22
10/29/2021 5:30:00 PM 12.29 54.122 0.087 7.25 7.34 10.2
10/29/2021 5:45:00 PM 12.26 54.068 0.086 7.26 7 10.21
10/29/2021 6:00:00 PM 12.22 53.996 0.095 7.28 7.1 10.15
10/29/2021 6:15:00 PM 12.2 53.96 0.089 7.27 6.97 10.22
10/29/2021 6:30:00 PM 12.17 53.906 0.089 7.22 7.46 10.24
10/29/2021 6:45:00 PM 12.15 53.87 0.088 7.2 7.49 10.15
10/29/2021 7:00:00 PM 12.11 53.798 0.091 7.23 7.21 10.25
10/29/2021 7:15:00 PM 12.09 53.762 0.086 7.23 7.36 10.21
10/29/2021 7:30:00 PM 12.07 53.726 0.095 7.28 8.87 10.18
10/29/2021 7:45:00 PM 12.04 53.672 0.086 7.26 7.55 10.28
10/29/2021 8:00:00 PM 12.02 53.636 0.09 7.29 896.84 10.19
10/29/2021 8:15:00 PM 12 53.6 0.09 7.14 7.92 10.17
10/29/2021 8:30:00 PM 11.96 53.528 0.089 7.12 8.59 10.16
10/29/2021 8:45:00 PM 11.88 53.384 0.087 7.31 13.15 10.37
10/29/2021 9:00:00 PM 11.83 53.294 0.085 7.33 10.6 10.35
10/29/2021 9:15:00 PM 11.78 53.204 0.085 7.32 14.84 10.44
10/29/2021 9:30:00 PM 11.7 53.06 0.083 7.34 12.06 10.47
10/29/2021 9:45:00 PM 11.65 52.97 0.082 7.35 13.37 10.52
10/29/2021 10:00:00 PM 11.59 52.862 0.08 7.38 33.19 10.59
10/29/2021 10:15:00 PM 11.51 52.718 0.076 7.33 56.47 10.6
10/29/2021 10:30:00 PM 11.46 52.628 0.075 7.39 612.78 10.64
10/29/2021 10:45:00 PM 11.39 52.502 0.071 7.22 78.21 10.69
10/29/2021 11:00:00 PM 11.33 52.394 0.067 7.16 79.62 10.69
10/29/2021 11:15:00 PM 11.27 52.286 0.065 7.13 69.89 10.72
10/29/2021 11:30:00 PM 11.27 52.286 0.066 7.16 50.52 10.71
10/29/2021 11:45:00 PM 11.31 52.358 0.067 7.27 39.78 10.69
10/30/2021 12:00:00 AM 11.36 52.448 0.069 7.22 32.12 10.65
10/30/2021 12:15:00 AM 11.42 52.556 0.071 7.24 25.65 10.64
10/30/2021 12:30:00 AM 11.48 52.664 0.072 7.3 19.89 10.62
10/30/2021 12:45:00 AM 11.54 52.772 0.073 7.25 18.04 10.59
10/30/2021 1:00:00 AM 11.59 52.862 0.074 7.28 14.88 10.57
10/30/2021 1:15:00 AM 11.64 52.952 0.075 7.3 15.32 10.57
10/30/2021 1:30:00 AM 11.7 53.06 0.076 7.24 14.49 10.51
10/30/2021 1:45:00 AM 11.74 53.132 0.076 7.32 13.67 10.55
10/30/2021 2:00:00 AM 11.78 53.204 0.077 7.29 14.04 10.52
10/30/2021 2:15:00 AM 11.81 53.258 0.078 7.34 14.91 10.53
10/30/2021 2:30:00 AM 11.85 53.33 0.078 7.32 13.9 10.52
10/30/2021 2:45:00 AM 11.89 53.402 0.079 7.33 15.38 10.5
10/30/2021 3:00:00 AM 11.91 53.438 0.08 7.32 15.38 10.52
10/30/2021 3:15:00 AM 11.93 53.474 0.08 7.34 17.03 10.49
10/30/2021 3:30:00 AM 11.95 53.51 0.08 7.3 18.25 10.49
10/30/2021 3:45:00 AM 11.96 53.528 0.08 7.33 16.08 10.49
10/30/2021 4:00:00 AM 11.96 53.528 0.08 7.37 16.33 10.51
10/30/2021 4:15:00 AM 11.98 53.564 0.081 7.34 16.61 10.49
10/30/2021 4:30:00 AM 11.99 53.582 0.081 7.35 15.94 10.48
10/30/2021 4:45:00 AM 12 53.6 0.081 7.32 17.3 10.5
10/30/2021 5:00:00 AM 12 53.6 0.081 7.32 15.93 10.49
10/30/2021 5:15:00 AM 11.99 53.582 0.08 7.34 17.74 10.5
10/30/2021 5:30:00 AM 11.99 53.582 0.08 7.3 15.9 10.5
10/30/2021 5:45:00 AM 11.98 53.564 0.08 7.32 15.67 10.49
10/30/2021 6:00:00 AM 11.97 53.546 0.08 7.37 14.64 10.5
10/30/2021 6:15:00 AM 11.96 53.528 0.079 7.31 14.63 10.5
10/30/2021 6:30:00 AM 11.95 53.51 0.079 7.32 15.02 10.5
10/30/2021 6:45:00 AM 11.94 53.492 0.078 7.3 14.79 10.5
10/30/2021 7:00:00 AM 11.93 53.474 0.078 7.36 13.6 10.52
10/30/2021 7:15:00 AM 11.93 53.474 0.078 7.36 13.07 10.52
10/30/2021 7:30:00 AM 11.93 53.474 0.078 7.34 13.56 10.51
10/30/2021 7:45:00 AM 11.93 53.474 0.078 7.35 13.23 10.52
10/30/2021 8:00:00 AM 11.94 53.492 0.079 7.31 13.22 10.51
10/30/2021 8:15:00 AM 11.95 53.51 0.079 7.37 12.71 10.53
10/30/2021 8:30:00 AM 11.96 53.528 0.079 7.36 12.01 10.53
10/30/2021 8:45:00 AM 11.97 53.546 0.079 7.37 11.82 10.53
10/30/2021 9:00:00 AM 11.98 53.564 0.079 7.34 10.95 10.53
10/30/2021 9:15:00 AM 11.99 53.582 0.079 7.36 11.39 10.54
10/30/2021 9:30:00 AM 12.02 53.636 0.08 7.33 11.12 10.55
10/30/2021 9:45:00 AM 12.03 53.654 0.08 7.31 11.01 10.52
10/30/2021 10:00:00 AM 12.04 53.672 0.08 7.32 10.27 10.54
10/30/2021 10:15:00 AM 12.06 53.708 0.08 7.32 10.61 10.53
10/30/2021 10:30:00 AM 12.08 53.744 0.08 7.32 10.98 10.53
10/30/2021 10:45:00 AM 12.11 53.798 0.08 7.34 10.33 10.54
10/30/2021 11:00:00 AM 12.14 53.852 0.08 7.35 10.83 10.54
10/30/2021 11:15:00 AM 12.14 53.852 0.079 7.29 10.13 10.51
10/30/2021 11:30:00 AM 12.13 53.834 0.078 7.34 10.23 10.51
10/30/2021 11:45:00 AM 12.12 53.816 0.078 7.33 9.91 10.52
10/30/2021 12:00:00 PM 12.12 53.816 0.078 7.3 10.09 10.51
10/30/2021 12:15:00 PM 12.12 53.816 0.079 7.35 10.74 10.51
10/30/2021 12:30:00 PM 12.14 53.852 0.079 7.36 10.38 10.52
10/30/2021 12:45:00 PM 12.16 53.888 0.079 7.38 10.59 10.52
10/30/2021 1:00:00 PM 12.18 53.924 0.079 7.36 10.78 10.5
10/30/2021 1:15:00 PM 12.19 53.942 0.08 7.37 10.67 10.5
10/30/2021 1:30:00 PM 12.2 53.96 0.08 7.35 10.27 10.5
10/30/2021 1:45:00 PM 12.21 53.978 0.079 7.38 10.2 10.48
10/30/2021 2:00:00 PM 12.23 54.014 0.079 7.37 10.2 10.48
10/30/2021 2:15:00 PM 12.24 54.032 0.079 7.37 10.16 10.5
10/30/2021 2:30:00 PM 12.26 54.068 0.079 7.39 9.82 10.48
10/30/2021 2:45:00 PM 12.28 54.104 0.079 7.33 9.64 10.46
10/30/2021 3:00:00 PM 12.29 54.122 0.079 7.36 10 10.45
10/30/2021 3:15:00 PM 12.29 54.122 0.079 7.37 9.85 10.45
10/30/2021 3:30:00 PM 12.3 54.14 0.079 7.33 9.38 10.44
10/30/2021 3:45:00 PM 12.3 54.14 0.079 7.32 9.62 10.43
10/30/2021 4:00:00 PM 12.3 54.14 0.079 7.3 9.08 10.45
10/30/2021 4:15:00 PM 12.31 54.158 0.079 7.35 9.53 10.45
10/30/2021 4:30:00 PM 12.31 54.158 0.079 7.33 9.41 10.44
10/30/2021 4:45:00 PM 12.32 54.176 0.08 7.35 9.39 10.44
10/30/2021 5:00:00 PM 12.32 54.176 0.08 7.31 9.55 10.45
10/30/2021 5:15:00 PM 12.32 54.176 0.08 7.34 9.82 10.46
10/30/2021 5:30:00 PM 12.31 54.158 0.08 7.34 9.48 10.46
10/30/2021 5:45:00 PM 12.29 54.122 0.08 7.32 9.13 10.44
10/30/2021 6:00:00 PM 12.26 54.068 0.08 7.3 9.24 10.44
10/30/2021 6:15:00 PM 12.23 54.014 0.08 7.34 9.8 10.45
10/30/2021 6:30:00 PM 12.19 53.942 0.08 7.28 9.58 10.45
10/30/2021 6:45:00 PM 12.17 53.906 0.08 7.27 8.98 10.43
10/30/2021 7:00:00 PM 12.15 53.87 0.08 7.32 9.44 10.45
10/30/2021 7:15:00 PM 12.14 53.852 0.08 7.29 9.13 10.45
10/30/2021 7:30:00 PM 12.13 53.834 0.08 7.31 8.99 10.46
10/30/2021 7:45:00 PM 12.1 53.78 0.08 7.28 8.79 10.47
10/30/2021 8:00:00 PM 12.07 53.726 0.081 7.28 8.52 10.47
10/30/2021 8:15:00 PM 12.04 53.672 0.081 7.29 8.55 10.49
10/30/2021 8:30:00 PM 12.02 53.636 0.081 7.32 8.56 10.49
10/30/2021 8:45:00 PM 12 53.6 0.081 7.29 8.67 10.5
10/30/2021 9:00:00 PM 11.98 53.564 0.081 7.29 8.61 10.51
10/30/2021 9:15:00 PM 11.96 53.528 0.081 7.24 8.32 10.5
10/30/2021 9:30:00 PM 11.95 53.51 0.081 7.36 8.66 10.51
10/30/2021 9:45:00 PM 11.94 53.492 0.082 7.28 8.44 10.51
10/30/2021 10:00:00 PM 11.92 53.456 0.082 7.3 8.22 10.52
10/30/2021 10:15:00 PM 11.91 53.438 0.082 7.3 8.24 10.5
10/30/2021 10:30:00 PM 11.89 53.402 0.082 7.27 8.08 10.5
10/30/2021 10:45:00 PM 11.88 53.384 0.082 7.29 8.36 10.49
10/30/2021 11:00:00 PM 11.86 53.348 0.082 7.3 8.1 10.53
10/30/2021 11:15:00 PM 11.86 53.348 0.082 7.25 8.02 10.5
10/30/2021 11:30:00 PM 11.85 53.33 0.082 7.26 8.42 10.51
10/30/2021 11:45:00 PM 11.84 53.312 0.082 7.34 7.98 10.51
10/31/2021 12:00:00 AM 11.83 53.294 0.082 7.31 8.22 10.51
10/31/2021 12:15:00 AM 11.82 53.276 0.082 7.29 7.74 10.51
10/31/2021 12:30:00 AM 11.82 53.276 0.083 7.32 7.79 10.49
10/31/2021 12:45:00 AM 11.82 53.276 0.082 7.33 8.39 10.52
10/31/2021 1:00:00 AM 11.83 53.294 0.083 7.32 7.76 10.5
10/31/2021 1:15:00 AM 11.83 53.294 0.083 7.3 7.5 10.49
10/31/2021 1:30:00 AM 11.82 53.276 0.082 7.33 7.78 10.52
10/31/2021 1:45:00 AM 11.82 53.276 0.083 7.33 7.68 10.51
10/31/2021 2:00:00 AM 11.8 53.24 0.083 7.27 7.96 10.49
10/31/2021 2:15:00 AM 11.78 53.204 0.083 7.3 7.74 10.51
10/31/2021 2:30:00 AM 11.77 53.186 0.083 7.27 7.67 10.48
10/31/2021 2:45:00 AM 11.76 53.168 0.083 7.34 7.85 10.51
10/31/2021 3:00:00 AM 11.75 53.15 0.083 7.35 7.72 10.51
10/31/2021 3:15:00 AM 11.76 53.168 0.083 7.33 7.82 10.51
10/31/2021 3:30:00 AM 11.76 53.168 0.083 7.29 7.87 10.5
10/31/2021 3:45:00 AM 11.75 53.15 0.084 7.24 7.61 10.49
10/31/2021 4:00:00 AM 11.74 53.132 0.083 7.28 7.53 10.51
10/31/2021 4:15:00 AM 11.72 53.096 0.083 7.29 7.58 10.51
10/31/2021 4:30:00 AM 11.71 53.078 0.084 7.29 8.29 10.48
10/31/2021 4:45:00 AM 11.67 53.006 0.083 7.3 7.96 10.54
10/31/2021 5:00:00 AM 11.65 52.97 0.083 7.27 7.89 10.52
10/31/2021 5:15:00 AM 11.64 52.952 0.083 7.28 7.58 10.52
10/31/2021 5:30:00 AM 11.63 52.934 0.083 7.31 7.47 10.5
10/31/2021 5:45:00 AM 11.62 52.916 0.083 7.28 7.62 10.5
10/31/2021 6:00:00 AM 11.61 52.898 0.083 7.3 7.5 10.53
10/31/2021 6:15:00 AM 11.58 52.844 0.083 7.3 7.63 10.57
10/31/2021 6:30:00 AM 11.57 52.826 0.083 7.31 8.01 10.53
10/31/2021 6:45:00 AM 11.56 52.808 0.083 7.29 7.77 10.55
10/31/2021 7:00:00 AM 11.56 52.808 0.083 7.29 10.3 10.53
10/31/2021 7:15:00 AM 11.56 52.808 0.083 7.3 7.62 10.55
10/31/2021 7:30:00 AM 11.56 52.808 0.084 7.27 7.94 10.56
10/31/2021 7:45:00 AM 11.57 52.826 0.083 7.25 7.68 10.55
10/31/2021 8:00:00 AM 11.57 52.826 0.084 7.27 7.84 10.54
10/31/2021 8:15:00 AM 11.58 52.844 0.084 7.23 7.62 10.56
10/31/2021 8:30:00 AM 11.6 52.88 0.084 7.26 7.78 10.55
10/31/2021 8:45:00 AM 11.62 52.916 0.084 7.24 7.91 10.55
10/31/2021 9:00:00 AM 11.64 52.952 0.084 7.24 7.54 10.52
10/31/2021 9:15:00 AM 11.65 52.97 0.084 7.24 7.63 10.55
10/31/2021 9:30:00 AM 11.68 53.024 0.084 7.21 7.68 10.54
10/31/2021 9:45:00 AM 11.69 53.042 0.083 7.32 7.42 10.54
10/31/2021 10:00:00 AM 11.7 53.06 0.083 7.3 7.46 10.54
10/31/2021 10:15:00 AM 11.73 53.114 0.083 7.31 7.28 10.53
10/31/2021 10:30:00 AM 11.74 53.132 0.083 7.32 7.7 10.57
10/31/2021 10:45:00 AM 11.77 53.186 0.083 7.33 7.52 10.56
10/31/2021 11:00:00 AM 11.81 53.258 0.082 7.32 7.55 10.59
10/31/2021 11:15:00 AM 11.85 53.33 0.082 7.33 7.64 10.57
10/31/2021 11:30:00 AM 11.89 53.402 0.082 7.35 7.43 10.55
10/31/2021 11:45:00 AM 11.94 53.492 0.082 7.3 7.28 10.56
10/31/2021 12:00:00 PM 12.01 53.618 0.081 7.3 7.33 10.56
10/31/2021 12:15:00 PM 12.08 53.744 0.082 7.33 7.48 10.55
10/31/2021 12:30:00 PM 12.17 53.906 0.081 7.29 7.53 10.54
10/31/2021 12:45:00 PM 12.23 54.014 0.081 7.3 7.25 10.5
10/31/2021 1:00:00 PM 12.3 54.14 0.081 7.38 7.49 10.49
10/31/2021 1:15:00 PM 12.32 54.176 0.081 7.33 7.56 10.45
10/31/2021 1:30:00 PM 12.34 54.212 0.081 7.33 7.85 10.42
10/31/2021 1:45:00 PM 12.36 54.248 0.081 7.37 7.51 10.46
10/31/2021 2:00:00 PM 12.39 54.302 0.081 7.33 7.67 10.42
10/31/2021 2:15:00 PM 12.41 54.338 0.081 7.28 7.67 10.46
10/31/2021 2:30:00 PM 12.45 54.41 0.081 7.3 7.46 10.43
10/31/2021 2:45:00 PM 12.48 54.464 0.08 7.34 8 10.47
10/31/2021 3:00:00 PM 12.48 54.464 0.08 7.36 8.07 10.45
10/31/2021 3:15:00 PM 12.5 54.5 0.08 7.31 8 10.43
10/31/2021 3:30:00 PM 12.51 54.518 0.08 7.37 8.32 10.46
10/31/2021 3:45:00 PM 12.51 54.518 0.081 7.31 8.62 10.4
10/31/2021 4:00:00 PM 12.56 54.608 0.082 7.33 8.33 10.4
10/31/2021 4:15:00 PM 12.6 54.68 0.082 7.37 7.69 10.38
10/31/2021 4:30:00 PM 12.6 54.68 0.08 7.28 8.55 10.38
10/31/2021 4:45:00 PM 12.59 54.662 0.081 7.36 7.93 10.39
10/31/2021 5:00:00 PM 12.57 54.626 0.082 7.3 7.72 10.34
10/31/2021 5:15:00 PM 12.57 54.626 0.082 7.31 7.76 10.38
10/31/2021 5:30:00 PM 12.56 54.608 0.082 7.26 7.88 10.32
10/31/2021 5:45:00 PM 12.53 54.554 0.083 7.28 7.28 10.36
10/31/2021 6:00:00 PM 12.5 54.5 0.083 7.26 7.63 10.33
10/31/2021 6:15:00 PM 12.48 54.464 0.082 7.27 7.71 10.36
10/31/2021 6:30:00 PM 12.45 54.41 0.082 7.27 7.55 10.34
10/31/2021 6:45:00 PM 12.42 54.356 0.083 7.32 7.49 10.37
10/31/2021 7:00:00 PM 12.4 54.32 0.083 7.29 7.74 10.39
10/31/2021 7:15:00 PM 12.38 54.284 0.083 7.3 7.49 10.38
10/31/2021 7:30:00 PM 12.37 54.266 0.083 7.31 7.48 10.4
10/31/2021 7:45:00 PM 12.35 54.23 0.083 7.32 7.62 10.38
10/31/2021 8:00:00 PM 12.31 54.158 0.083 7.33 7.11 10.41
10/31/2021 8:15:00 PM 12.26 54.068 0.083 7.32 7.58 10.42
10/31/2021 8:30:00 PM 12.22 53.996 0.084 7.24 7.01 10.44
10/31/2021 8:45:00 PM 12.18 53.924 0.084 7.28 7.2 10.44
10/31/2021 9:00:00 PM 12.15 53.87 0.084 7.25 6.96 10.44
10/31/2021 9:15:00 PM 12.1 53.78 0.084 7.33 7.24 10.49
10/31/2021 9:30:00 PM 12.07 53.726 0.084 7.32 7.62 10.48
10/31/2021 9:45:00 PM 12.02 53.636 0.084 7.32 7.2 10.49
10/31/2021 10:00:00 PM 11.97 53.546 0.084 7.36 6.68 10.51
10/31/2021 10:15:00 PM 11.93 53.474 0.084 7.35 6.78 10.53
10/31/2021 10:30:00 PM 11.9 53.42 0.084 7.34 6.98 10.54
10/31/2021 10:45:00 PM 11.86 53.348 0.084 7.32 6.88 10.53
10/31/2021 11:00:00 PM 11.84 53.312 0.084 7.33 7.05 10.53
10/31/2021 11:15:00 PM 11.81 53.258 0.084 7.33 7.13 10.55
10/31/2021 11:30:00 PM 11.78 53.204 0.084 7.34 6.87 10.56
10/31/2021 11:45:00 PM 11.76 53.168 0.084 7.32 6.76 10.56
11/1/2021 12:00:00 AM 11.73 53.114 0.084 7.32 6.98 10.57
11/1/2021 12:15:00 AM 11.72 53.096 0.085 7.32 4.79 10.56
11/1/2021 12:30:00 AM 11.71 53.078 0.084 7.31 6.5 10.56
11/1/2021 12:45:00 AM 11.69 53.042 0.084 7.35 6.76 10.6
11/1/2021 1:00:00 AM 11.69 53.042 0.085 7.3 7.26 10.57
11/1/2021 1:15:00 AM 11.68 53.024 0.084 7.35 6.93 10.57
11/1/2021 1:30:00 AM 11.67 53.006 0.085 7.32 6.63 10.59
11/1/2021 1:45:00 AM 11.65 52.97 0.084 7.35 6.79 10.6
11/1/2021 2:00:00 AM 11.63 52.934 0.084 7.29 6.35 10.57
11/1/2021 2:15:00 AM 11.61 52.898 0.084 7.32 6.52 10.58
11/1/2021 2:30:00 AM 11.6 52.88 0.085 7.31 6.35 10.61
11/1/2021 2:45:00 AM 11.59 52.862 0.085 7.32 6.6 10.6
11/1/2021 3:00:00 AM 11.58 52.844 0.085 7.28 6.61 10.58
11/1/2021 3:15:00 AM 11.59 52.862 0.084 7.26 6.42 10.59
11/1/2021 3:30:00 AM 11.59 52.862 0.084 7.34 6.75 10.61
11/1/2021 3:45:00 AM 11.6 52.88 0.084 7.35 6.52 10.63
11/1/2021 4:00:00 AM 11.62 52.916 0.084 7.29 6.85 10.59
11/1/2021 4:15:00 AM 11.62 52.916 0.084 7.35 6.49 10.62
11/1/2021 4:30:00 AM 11.63 52.934 0.084 7.33 6.8 10.62
11/1/2021 4:45:00 AM 11.66 52.988 0.085 7.28 6.52 10.55
11/1/2021 5:00:00 AM 11.64 52.952 0.084 7.28 6.57 10.61
11/1/2021 5:15:00 AM 11.65 52.97 0.084 7.3 6.62 10.62
11/1/2021 5:30:00 AM 11.67 53.006 0.085 7.24 6.63 10.6
11/1/2021 5:45:00 AM 11.68 53.024 0.085 7.3 7.11 10.6
11/1/2021 6:00:00 AM 11.68 53.024 0.085 7.25 6.62 10.62
11/1/2021 6:15:00 AM 11.67 53.006 0.085 7.24 6.73 10.62
11/1/2021 6:30:00 AM 11.67 53.006 0.084 7.31 6.91 10.62
11/1/2021 6:45:00 AM 11.66 52.988 0.084 7.33 6.83 10.65
11/1/2021 7:00:00 AM 11.64 52.952 0.085 7.32 6.69 10.63
11/1/2021 7:15:00 AM 11.61 52.898 0.084 7.34 6.77 10.66
11/1/2021 7:30:00 AM 11.59 52.862 0.085 7.28 6.32 10.57
11/1/2021 7:45:00 AM 11.55 52.79 0.084 7.37 6.33 10.7
11/1/2021 8:00:00 AM 11.53 52.754 0.085 7.33 6.58 10.68
11/1/2021 8:15:00 AM 11.51 52.718 0.085 7.34 6.36 10.69
11/1/2021 8:30:00 AM 11.48 52.664 0.085 7.29 6.43 10.72
11/1/2021 8:45:00 AM 11.45 52.61 0.085 7.25 6.69 10.74
11/1/2021 9:00:00 AM 11.43 52.574 0.085 7.24 6.56 10.74
11/1/2021 9:15:00 AM 11.4 52.52 0.085 7.29 6.3 10.76
11/1/2021 9:30:00 AM 11.39 52.502 0.084 7.34 6.32 10.8
11/1/2021 9:45:00 AM 11.41 52.538 0.085 7.31 6.61 10.81
11/1/2021 10:00:00 AM 11.39 52.502 0.085 7.32 6.47 10.82
11/1/2021 10:15:00 AM 11.44 52.592 0.085 7.38 6.38 10.87
11/1/2021 10:30:00 AM 11.46 52.628 0.084 7.38 6.32 10.87
11/1/2021 10:45:00 AM 11.49 52.682 0.084 7.42 6.35 10.87
11/1/2021 11:00:00 AM 11.54 52.772 0.085 7.35 6.3 10.81
11/1/2021 11:15:00 AM 11.54 52.772 0.085 7.36 6.45 10.83
11/1/2021 11:30:00 AM 11.55 52.79 0.085 7.33 6.44 10.8
11/1/2021 11:45:00 AM 11.61 52.898 0.085 7.35 6.53 10.79
11/1/2021 12:00:00 PM 11.59 52.862 0.085 7.38 6.5 10.79
11/1/2021 12:15:00 PM 11.64 52.952 0.085 7.34 6.16 10.77
11/1/2021 12:30:00 PM 11.69 53.042 0.085 7.41 6.18 10.79
11/1/2021 12:45:00 PM 11.7 53.06 0.085 7.39 6.19 10.79
11/1/2021 1:00:00 PM 11.75 53.15 0.085 7.35 6.22 10.77
11/1/2021 1:15:00 PM 11.75 53.15 0.085 7.38 6.31 10.71
11/1/2021 1:30:00 PM 11.77 53.186 0.085 7.39 6.27 10.77
11/1/2021 1:45:00 PM 11.78 53.204 0.085 7.37 6.16 10.74
11/1/2021 2:00:00 PM 11.82 53.276 0.086 7.37 6.08 10.73
11/1/2021 2:15:00 PM 11.81 53.258 0.085 7.43 6.12 10.76
11/1/2021 2:30:00 PM 11.82 53.276 0.086 7.34 6.21 10.68
11/1/2021 2:45:00 PM 11.83 53.294 0.086 7.33 6.23 10.7
11/1/2021 3:00:00 PM 11.81 53.258 0.085 7.37 6.1 10.75
11/1/2021 3:15:00 PM 11.86 53.348 0.085 7.35 6.29 10.74
11/1/2021 3:30:00 PM 11.89 53.402 0.085 7.42 6.23 10.72
11/1/2021 3:45:00 PM 11.9 53.42 0.085 7.43 6.33 10.73
11/1/2021 4:00:00 PM 11.91 53.438 0.086 7.28 5.87 10.65
11/1/2021 4:15:00 PM 11.88 53.384 0.086 7.33 6.04 10.68
11/1/2021 4:30:00 PM 11.86 53.348 0.086 7.28 6.42 10.65
11/1/2021 4:45:00 PM 11.82 53.276 0.086 7.36 5.8 10.65
11/1/2021 5:00:00 PM 11.8 53.24 0.086 7.37 6.1 10.62
11/1/2021 5:15:00 PM 11.76 53.168 0.086 7.36 6.25 10.64
11/1/2021 5:30:00 PM 11.69 53.042 0.086 7.37 5.95 10.66
11/1/2021 5:45:00 PM 11.65 52.97 0.086 7.3 6.35 10.64
11/1/2021 6:00:00 PM 11.62 52.916 0.086 7.27 6.01 10.59
11/1/2021 6:15:00 PM 11.56 52.808 0.086 7.27 6.1 10.64
11/1/2021 6:30:00 PM 11.51 52.718 0.086 7.36 6.42 10.66
11/1/2021 6:45:00 PM 11.47 52.646 0.086 7.29 6.6 10.65
11/1/2021 7:00:00 PM 11.42 52.556 0.086 7.34 6.22 10.68
11/1/2021 7:15:00 PM 11.37 52.466 0.087 7.32 6.54 10.72
11/1/2021 7:30:00 PM 11.33 52.394 0.087 7.32 6.19 10.7
11/1/2021 7:45:00 PM 11.28 52.304 0.086 7.35 6.1 10.73
11/1/2021 8:00:00 PM 11.24 52.232 0.086 7.35 6.16 10.74
11/1/2021 8:15:00 PM 11.19 52.142 0.087 7.34 6 10.77
11/1/2021 8:30:00 PM 11.16 52.088 0.087 7.32 6.2 10.75
11/1/2021 8:45:00 PM 11.09 51.962 0.087 7.26 6.07 10.79
11/1/2021 9:00:00 PM 11.04 51.872 0.086 7.3 5.99 10.82
11/1/2021 9:15:00 PM 11.02 51.836 0.086 7.27 6.21 10.8
11/1/2021 9:30:00 PM 10.99 51.782 0.087 7.27 5.81 10.81
11/1/2021 9:45:00 PM 10.93 51.674 0.086 7.27 5.79 10.87
11/1/2021 10:00:00 PM 10.92 51.656 0.087 7.18 5.91 10.75
11/1/2021 10:15:00 PM 10.87 51.566 0.086 7.32 5.76 10.87
11/1/2021 10:30:00 PM 10.85 51.53 0.087 7.27 6.11 10.84
11/1/2021 10:45:00 PM 10.82 51.476 0.087 7.2 5.96 10.83
11/1/2021 11:00:00 PM 10.77 51.386 0.087 7.33 5.98 10.89
11/1/2021 11:15:00 PM 10.76 51.368 0.087 7.34 5.8 10.89
11/1/2021 11:30:00 PM 10.74 51.332 0.087 7.23 5.8 10.85
11/1/2021 11:45:00 PM 10.72 51.296 0.087 7.31 6.11 10.9
11/2/2021 12:00:00 AM 10.7 51.26 0.087 7.32 5.98 10.89
11/2/2021 12:15:00 AM 10.68 51.224 0.087 7.27 5.68 10.84
11/2/2021 12:30:00 AM 10.66 51.188 0.086 7.34 5.96 10.89
11/2/2021 12:45:00 AM 10.66 51.188 0.086 7.32 6.16 10.89
11/2/2021 1:00:00 AM 10.63 51.134 0.086 7.35 5.9 10.94
11/2/2021 1:15:00 AM 10.64 51.152 0.086 7.32 5.82 10.9
11/2/2021 1:30:00 AM 10.63 51.134 0.086 7.33 6.01 10.93
11/2/2021 1:45:00 AM 10.65 51.17 0.086 7.33 5.99 10.85
11/2/2021 2:00:00 AM 10.64 51.152 0.086 7.32 5.74 10.9
11/2/2021 2:15:00 AM 10.64 51.152 0.086 7.35 5.83 10.9
11/2/2021 2:30:00 AM 10.64 51.152 0.086 7.33 5.62 10.92
11/2/2021 2:45:00 AM 10.63 51.134 0.086 7.36 6.09 10.93
11/2/2021 3:00:00 AM 10.65 51.17 0.087 7.34 5.78 10.89
11/2/2021 3:15:00 AM 10.69 51.242 0.087 7.19 5.71 10.81
11/2/2021 3:30:00 AM 10.66 51.188 0.086 7.3 5.64 10.89
11/2/2021 3:45:00 AM 10.65 51.17 0.086 7.35 5.68 10.92
11/2/2021 4:00:00 AM 10.65 51.17 0.086 7.38 5.75 10.94
11/2/2021 4:15:00 AM 10.66 51.188 0.086 7.32 5.78 10.89
11/2/2021 4:30:00 AM 10.7 51.26 0.088 7.25 5.67 10.85
11/2/2021 4:45:00 AM 10.65 51.17 0.086 7.31 5.61 10.93
11/2/2021 5:00:00 AM 10.66 51.188 0.087 7.32 5.83 10.91
11/2/2021 5:15:00 AM 10.67 51.206 0.087 7.27 5.71 10.89
11/2/2021 5:30:00 AM 10.64 51.152 0.086 7.34 5.92 10.92
11/2/2021 5:45:00 AM 10.66 51.188 0.086 7.29 5.72 10.87
11/2/2021 6:00:00 AM 10.65 51.17 0.086 7.3 5.93 10.89
11/2/2021 6:15:00 AM 10.64 51.152 0.086 7.25 6.19 10.87
11/2/2021 6:30:00 AM 10.62 51.116 0.086 7.32 6.03 10.89
11/2/2021 6:45:00 AM 10.61 51.098 0.086 7.33 5.62 10.88
11/2/2021 7:00:00 AM 10.61 51.098 0.086 7.32 5.39 10.87
11/2/2021 7:15:00 AM 10.58 51.044 0.086 7.35 5.62 10.95
11/2/2021 7:30:00 AM 10.58 51.044 0.086 7.34 5.92 10.93
11/2/2021 7:45:00 AM 10.55 50.99 0.086 7.38 5.64 10.98
11/2/2021 8:00:00 AM 10.55 50.99 0.085 7.34 5.67 10.94
11/2/2021 8:15:00 AM 10.53 50.954 0.085 7.36 5.63 11.02
11/2/2021 8:30:00 AM 10.54 50.972 0.085 7.29 5.74 10.99
11/2/2021 8:45:00 AM 10.54 50.972 0.085 7.36 5.52 11.03
11/2/2021 9:00:00 AM 10.55 50.99 0.085 7.39 5.56 11.06
11/2/2021 9:15:00 AM 10.57 51.026 0.085 7.4 5.59 11.08
11/2/2021 9:30:00 AM 10.61 51.098 0.085 7.35 5.32 11.08
11/2/2021 9:45:00 AM 10.65 51.17 0.085 7.36 5.63 11.1
11/2/2021 10:00:00 AM 10.66 51.188 0.085 7.42 5.6 11.12
11/2/2021 10:15:00 AM 10.69 51.242 0.085 7.44 5.53 11.15
11/2/2021 10:30:00 AM 10.73 51.314 0.085 7.43 5.4 11.09
11/2/2021 10:45:00 AM 10.78 51.404 0.085 7.4 5.77 11.11
11/2/2021 11:00:00 AM 10.79 51.422 0.085 7.31 5.61 11.06
11/2/2021 11:15:00 AM 10.84 51.512 0.085 7.46 6.44 11.16
11/2/2021 11:30:00 AM 10.88 51.584 0.085 7.43 5.44 11.13
11/2/2021 11:45:00 AM 10.92 51.656 0.084 7.49 5.56 11.16
11/2/2021 12:00:00 PM 10.99 51.782 0.085 7.48 5.47 11.13
11/2/2021 12:15:00 PM 11.06 51.908 0.085 7.44 5.56 11.09
11/2/2021 12:30:00 PM 11.11 51.998 0.085 7.44 5.52 11.07
11/2/2021 12:45:00 PM 11.15 52.07 0.085 7.47 5.35 11.13
11/2/2021 1:00:00 PM 11.19 52.142 0.085 7.5 5.51 11.09
11/2/2021 1:15:00 PM 11.21 52.178 0.085 7.44 5.45 11
11/2/2021 1:30:00 PM 11.23 52.214 0.085 7.51 5.48 11.05
11/2/2021 1:45:00 PM 11.24 52.232 0.085 7.5 5.55 11.05
11/2/2021 2:00:00 PM 11.23 52.214 0.085 7.49 5.43 11.05
11/2/2021 2:15:00 PM 11.25 52.25 0.085 7.47 5.67 10.97
11/2/2021 2:30:00 PM 11.25 52.25 0.085 7.5 5.41 11.03
11/2/2021 2:45:00 PM 11.27 52.286 0.085 7.47 5.59 11.03
11/2/2021 3:00:00 PM 11.29 52.322 0.085 7.41 5.44 10.95
11/2/2021 3:15:00 PM 11.29 52.322 0.085 7.46 5.46 10.99
11/2/2021 3:30:00 PM 11.29 52.322 0.085 7.42 5.63 10.95
11/2/2021 3:45:00 PM 11.27 52.286 0.085 7.47 5.33 10.93
11/2/2021 4:00:00 PM 11.25 52.25 0.085 7.44 5.41 10.88
11/2/2021 4:15:00 PM 11.24 52.232 0.086 7.32 5.34 10.78
11/2/2021 4:30:00 PM 11.18 52.124 0.085 7.41 5.6 10.84
11/2/2021 4:45:00 PM 11.13 52.034 0.086 7.43 5.53 10.86
11/2/2021 5:00:00 PM 11.11 51.998 0.086 7.41 5.66 10.85
11/2/2021 5:15:00 PM 11.09 51.962 0.086 7.38 5.56 10.78
11/2/2021 5:30:00 PM 11.04 51.872 0.086 7.4 5.84 10.87
11/2/2021 5:45:00 PM 11.03 51.854 0.086 7.33 5.64 10.8
11/2/2021 6:00:00 PM 10.96 51.728 0.086 7.43 5.57 10.88
11/2/2021 6:15:00 PM 10.9 51.62 0.086 7.42 5.29 10.89
11/2/2021 6:30:00 PM 10.85 51.53 0.086 7.37 5.63 10.87
11/2/2021 6:45:00 PM 10.79 51.422 0.087 7.39 5.81 10.88
11/2/2021 7:00:00 PM 10.72 51.296 0.087 7.39 5.62 10.91
11/2/2021 7:15:00 PM 10.67 51.206 0.087 7.39 5.49 10.93
11/2/2021 7:30:00 PM 10.62 51.116 0.086 7.43 5.43 10.95
11/2/2021 7:45:00 PM 10.59 51.062 0.086 7.41 5.59 10.96
11/2/2021 8:00:00 PM 10.57 51.026 0.086 7.39 5.55 10.94
11/2/2021 8:15:00 PM 10.52 50.936 0.086 7.41 5.71 10.99
11/2/2021 8:30:00 PM 10.49 50.882 0.086 7.39 5.56 10.97
11/2/2021 8:45:00 PM 10.44 50.792 0.086 7.4 5.44 10.96
11/2/2021 9:00:00 PM 10.39 50.702 0.086 7.4 5.25 11.03
11/2/2021 9:15:00 PM 10.36 50.648 0.086 7.4 5.89 11.03
11/2/2021 9:30:00 PM 10.31 50.558 0.086 7.41 5.6 11.05
11/2/2021 9:45:00 PM 10.28 50.504 0.086 7.38 5.63 11.03
11/2/2021 10:00:00 PM 10.24 50.432 0.086 7.39 5.45 11.04
11/2/2021 10:15:00 PM 10.18 50.324 0.086 7.41 5.48 11.09
11/2/2021 10:30:00 PM 10.14 50.252 0.086 7.33 5.25 11.09
11/2/2021 10:45:00 PM 10.09 50.162 0.086 7.29 5.2 11.1
11/2/2021 11:00:00 PM 10.04 50.072 0.086 7.31 5.06 11.1
11/2/2021 11:15:00 PM 9.98 49.964 0.086 7.32 5.61 11.12
11/2/2021 11:30:00 PM 9.92 49.856 0.086 7.37 5.54 11.15
11/2/2021 11:45:00 PM 9.87 49.766 0.086 7.36 5.5 11.16
11/3/2021 12:00:00 AM 9.83 49.694 0.086 7.33 5.65 11.16
11/3/2021 12:15:00 AM 9.79 49.622 0.086 7.32 5.09 11.14
11/3/2021 12:30:00 AM 9.73 49.514 0.086 7.37 5.28 11.19
11/3/2021 12:45:00 AM 9.69 49.442 0.086 7.36 5.13 11.2
11/3/2021 1:00:00 AM 9.64 49.352 0.086 7.36 5.1 11.21
11/3/2021 1:15:00 AM 9.59 49.262 0.086 7.35 5.19 11.23
11/3/2021 1:30:00 AM 9.54 49.172 0.086 7.34 5.28 11.23
11/3/2021 1:45:00 AM 9.53 49.154 0.087 7.3 5.04 11.22
11/3/2021 2:00:00 AM 9.46 49.028 0.086 7.3 5.58 11.24
11/3/2021 2:15:00 AM 9.45 49.01 0.087 7.32 5.41 11.2
11/3/2021 2:30:00 AM 9.38 48.884 0.086 7.29 5.54 11.24
11/3/2021 2:45:00 AM 9.3 48.74 0.086 7.34 5.16 11.3
11/3/2021 3:00:00 AM 9.27 48.686 0.086 7.29 5.38 11.28
11/3/2021 3:15:00 AM 9.25 48.65 0.086 7.31 5.44 11.3
11/3/2021 3:30:00 AM 9.21 48.578 0.086 7.31 5.11 11.33
11/3/2021 3:45:00 AM 9.2 48.56 0.086 7.3 5.41 11.31
11/3/2021 4:00:00 AM 9.2 48.56 0.087 7.29 5.52 11.26
11/3/2021 4:15:00 AM 9.16 48.488 0.086 7.31 4.98 11.33
11/3/2021 4:30:00 AM 9.17 48.506 0.087 7.33 6.19 11.31
11/3/2021 4:45:00 AM 9.11 48.398 0.086 7.34 5.23 11.34
11/3/2021 5:00:00 AM 9.09 48.362 0.086 7.39 5.21 11.37
11/3/2021 5:15:00 AM 9.09 48.362 0.086 7.35 5.31 11.33
11/3/2021 5:30:00 AM 9.08 48.344 0.086 7.34 5.32 11.35
11/3/2021 5:45:00 AM 9.09 48.362 0.087 7.32 5.2 11.3
11/3/2021 6:00:00 AM 9.06 48.308 0.086 7.37 5.03 11.35
11/3/2021 6:15:00 AM 9.04 48.272 0.086 7.39 5.37 11.37
11/3/2021 6:30:00 AM 9.04 48.272 0.087 7.33 4.99 11.34
11/3/2021 6:45:00 AM 9.01 48.218 0.087 7.38 4.96 11.38
11/3/2021 7:00:00 AM 9.02 48.236 0.087 7.34 5.07 11.35
11/3/2021 7:15:00 AM 8.97 48.146 0.087 7.37 5.23 11.38
11/3/2021 7:30:00 AM 8.97 48.146 0.087 7.36 5.1 11.37
11/3/2021 7:45:00 AM 8.97 48.146 0.087 7.32 5.56 11.38
11/3/2021 8:00:00 AM 8.96 48.128 0.087 7.37 5.21 11.42
11/3/2021 8:15:00 AM 8.97 48.146 0.087 7.35 4.94 11.42
11/3/2021 8:30:00 AM 9.01 48.218 0.087 7.36 5.29 11.43
11/3/2021 8:45:00 AM 9 48.2 0.087 7.36 5.13 11.48
11/3/2021 9:00:00 AM 9.01 48.218 0.087 7.41 5.06 11.51
11/3/2021 9:15:00 AM 9.02 48.236 0.086 7.4 5.28 11.51
11/3/2021 9:30:00 AM 9.04 48.272 0.087 7.41 4.9 11.54
11/3/2021 9:45:00 AM 9.09 48.362 0.088 7.42 5.32 11.52
11/3/2021 10:00:00 AM 9.14 48.452 0.089 7.4 5.45 11.52
11/3/2021 10:15:00 AM 9.21 48.578 0.089 7.45 5.06 11.51
11/3/2021 10:30:00 AM 9.27 48.686 0.089 7.44 5.04 11.57
11/3/2021 10:45:00 AM 9.32 48.776 0.089 7.44 5.04 11.53
11/3/2021 11:00:00 AM 9.32 48.776 0.089 7.47 5.16 11.52
11/3/2021 11:15:00 AM 9.41 48.938 0.089 7.46 5.04 11.51
11/3/2021 11:30:00 AM 9.44 48.992 0.089 7.47 5.17 11.51
11/3/2021 11:45:00 AM 9.55 49.19 0.089 7.42 5.16 11.49
11/3/2021 12:00:00 PM 9.66 49.388 0.089 7.43 4.98 11.47
11/3/2021 12:15:00 PM 9.68 49.424 0.089 7.48 5.09 11.52
11/3/2021 12:30:00 PM 9.74 49.532 0.089 7.48 5.12 11.46
11/3/2021 12:45:00 PM 9.8 49.64 0.089 7.45 4.93 11.47
11/3/2021 1:00:00 PM 9.84 49.712 0.089 7.47 5.07 11.45
11/3/2021 1:15:00 PM 9.89 49.802 0.089 7.44 4.83 11.44
11/3/2021 1:30:00 PM 9.94 49.892 0.088 7.5 5.1 11.43
11/3/2021 1:45:00 PM 10.02 50.036 0.089 7.43 5.17 11.33
11/3/2021 2:00:00 PM 10.09 50.162 0.088 7.44 5.04 11.33
11/3/2021 2:15:00 PM 10.07 50.126 0.089 7.46 4.99 11.37
11/3/2021 2:30:00 PM 10.15 50.27 0.088 7.48 5.13 11.35
11/3/2021 2:45:00 PM 10.13 50.234 0.088 7.47 5 11.35
11/3/2021 3:00:00 PM 10.16 50.288 0.088 7.5 5.44 11.38
11/3/2021 3:15:00 PM 10.2 50.36 0.09 7.46 5.04 11.29
11/3/2021 3:30:00 PM 10.21 50.378 0.089 7.46 4.99 11.25
11/3/2021 3:45:00 PM 10.27 50.486 0.088 7.49 5.31 11.28
11/3/2021 4:00:00 PM 10.3 50.54 0.088 7.49 5.21 11.28
11/3/2021 4:15:00 PM 10.29 50.522 0.088 7.46 4.9 11.26
11/3/2021 4:30:00 PM 10.25 50.45 0.089 7.47 5.3 11.23
11/3/2021 4:45:00 PM 10.24 50.432 0.089 7.46 5.2 11.22
11/3/2021 5:00:00 PM 10.21 50.378 0.089 7.4 5.39 11.12
11/3/2021 5:15:00 PM 10.14 50.252 0.089 7.46 5.3 11.15
11/3/2021 5:30:00 PM 10.07 50.126 0.089 7.46 5.03 11.19
11/3/2021 5:45:00 PM 10.01 50.018 0.089 7.42 5.28 11.11
11/3/2021 6:00:00 PM 9.98 49.964 0.089 7.31 5.07 10.99
11/3/2021 6:15:00 PM 9.91 49.838 0.09 7.41 5.08 11.13
11/3/2021 6:30:00 PM 9.81 49.658 0.089 7.4 5.96 11.09
11/3/2021 6:45:00 PM 9.75 49.55 0.089 7.41 5.19 11.14
11/3/2021 7:00:00 PM 9.67 49.406 0.089 7.39 5.29 11.2
11/3/2021 7:15:00 PM 9.63 49.334 0.09 7.35 5.31 11.13
11/3/2021 7:30:00 PM 9.58 49.244 0.09 7.33 6.26 11.13
11/3/2021 7:45:00 PM 9.5 49.1 0.089 7.4 5.67 11.21
11/3/2021 8:00:00 PM 9.49 49.082 0.09 7.3 5.54 11.16
11/3/2021 8:15:00 PM 9.41 48.938 0.09 7.34 5.36 11.23
11/3/2021 8:30:00 PM 9.36 48.848 0.089 7.36 5.05 11.18
11/3/2021 8:45:00 PM 9.33 48.794 0.091 7.33 5.19 11.24
11/3/2021 9:00:00 PM 9.37 48.866 0.09 7.17 5.12 10.88
11/3/2021 9:15:00 PM 9.37 48.866 0.092 7.05 5.12 10.83
11/3/2021 9:30:00 PM 9.18 48.524 0.089 7.33 5.13 11.29
11/3/2021 9:45:00 PM 9.15 48.47 0.09 7.38 5.11 11.33
11/3/2021 10:00:00 PM 9.16 48.488 0.09 7.24 5.05 11.2
11/3/2021 10:15:00 PM 9.13 48.434 0.09 7.3 4.9 11.32
11/3/2021 10:30:00 PM 9.14 48.452 0.09 7.13 4.85 11.18
11/3/2021 10:45:00 PM 9.07 48.326 0.089 7.23 4.89 11.27
11/3/2021 11:00:00 PM 8.99 48.182 0.089 7.36 4.71 11.38
11/3/2021 11:15:00 PM 8.97 48.146 0.089 7.27 4.96 11.29
11/3/2021 11:30:00 PM 8.94 48.092 0.089 7.32 5 11.34
11/3/2021 11:45:00 PM 8.92 48.056 0.09 7.24 4.89 11.32
11/4/2021 12:00:00 AM 8.9 48.02 0.091 7.13 4.93 11.32
11/4/2021 12:15:00 AM 8.82 47.876 0.089 7.23 5 11.38
11/4/2021 12:30:00 AM 8.78 47.804 0.09 7.18 4.92 11.28
11/4/2021 12:45:00 AM 8.72 47.696 0.089 7.28 5.03 11.28
11/4/2021 1:00:00 AM 8.76 47.768 0.09 7.1 5.13 11.18
11/4/2021 1:15:00 AM 8.63 47.534 0.09 7.28 5.05 11.41
11/4/2021 1:30:00 AM 8.61 47.498 0.089 7.3 4.93 11.39
11/4/2021 1:45:00 AM 8.57 47.426 0.09 7.27 4.77 11.43
11/4/2021 2:00:00 AM 8.53 47.354 0.089 7.29 4.88 11.43
11/4/2021 2:15:00 AM 8.62 47.516 0.09 7.12 4.78 11.18
11/4/2021 2:30:00 AM 8.5 47.3 0.09 7.26 4.91 11.34
11/4/2021 2:45:00 AM 8.52 47.336 0.09 7.27 5.06 11.24
11/4/2021 3:00:00 AM 8.43 47.174 0.091 7.33 4.72 11.51
11/4/2021 3:15:00 AM 8.53 47.354 0.092 7.11 4.65 11.16
11/4/2021 3:30:00 AM 8.39 47.102 0.09 7.27 5.76 11.46
11/4/2021 3:45:00 AM 8.31 46.958 0.089 7.32 4.81 11.53
11/4/2021 4:00:00 AM 8.32 46.976 0.09 7.32 4.89 11.55
11/4/2021 4:15:00 AM 8.33 46.994 0.09 7.28 4.88 11.43
11/4/2021 4:30:00 AM 8.37 47.066 0.09 7.25 5.03 11.35
11/4/2021 4:45:00 AM 8.46 47.228 0.092 7.21 4.99 11.35
11/4/2021 5:00:00 AM 8.3 46.94 0.09 7.26 4.95 11.28
11/4/2021 5:15:00 AM 8.27 46.886 0.09 7.26 4.83 11.51
11/4/2021 5:30:00 AM 8.27 46.886 0.09 7.25 4.77 11.44
11/4/2021 5:45:00 AM 8.27 46.886 0.09 7.18 4.85 11.38
11/4/2021 6:00:00 AM 8.27 46.886 0.09 7.18 5.15 11.35
11/4/2021 6:15:00 AM 8.2 46.76 0.089 7.31 5.03 11.52
11/4/2021 6:30:00 AM 8.23 46.814 0.09 7.16 4.83 11.48
11/4/2021 6:45:00 AM 8.17 46.706 0.09 7.23 4.81 11.54
11/4/2021 7:00:00 AM 8.16 46.688 0.089 7.18 4.78 11.47
11/4/2021 7:15:00 AM 8.12 46.616 0.089 7.33 4.86 11.54
11/4/2021 7:30:00 AM 8.18 46.724 0.09 7.23 4.76 11.38
11/4/2021 7:45:00 AM 8.23 46.814 0.091 7.18 4.5 11.4
11/4/2021 8:00:00 AM 8.14 46.652 0.09 7.22 4.91 11.52
11/4/2021 8:15:00 AM 8.18 46.724 0.091 7.15 4.7 11.52
11/4/2021 8:30:00 AM 8.14 46.652 0.09 7.14 4.78 11.46
11/4/2021 8:45:00 AM 8.13 46.634 0.089 7.29 4.73 11.61
11/4/2021 9:00:00 AM 8.26 46.868 0.092 7.15 4.65 11.28
11/4/2021 9:15:00 AM 8.22 46.796 0.09 7.25 4.81 11.53
11/4/2021 9:30:00 AM 8.23 46.814 0.09 7.17 4.61 11.58
11/4/2021 9:45:00 AM 8.25 46.85 0.09 7.25 4.69 11.62
11/4/2021 10:00:00 AM 8.26 46.868 0.089 7.22 4.78 11.58
11/4/2021 10:15:00 AM 8.36 47.048 0.091 7.14 4.71 11.48
11/4/2021 10:30:00 AM 8.32 46.976 0.089 7.32 4.76 11.78
11/4/2021 10:45:00 AM 8.42 47.156 0.089 7.35 4.67 11.8
11/4/2021 11:00:00 AM 8.49 47.282 0.089 7.31 4.8 11.65
11/4/2021 11:15:00 AM 8.55 47.39 0.09 7.24 4.76 11.68
11/4/2021 11:30:00 AM 8.58 47.444 0.089 7.27 4.83 11.67
11/4/2021 11:45:00 AM 8.62 47.516 0.089 7.28 4.72 11.66
11/4/2021 12:00:00 PM 8.8 47.84 0.091 7.16 4.65 11.53
11/4/2021 12:15:00 PM 8.79 47.822 0.089 7.26 4.69 11.61
11/4/2021 12:30:00 PM 8.91 48.038 0.09 7.15 4.65 11.37
11/4/2021 12:45:00 PM 8.93 48.074 0.09 7.23 4.86 11.54
11/4/2021 1:00:00 PM 8.98 48.164 0.09 7.22 4.8 11.51
11/4/2021 1:15:00 PM 9.11 48.398 0.091 7.15 4.5 11.35
11/4/2021 1:30:00 PM 9.1 48.38 0.089 7.28 4.59 11.58
11/4/2021 1:45:00 PM 9.14 48.452 0.089 7.4 4.73 11.65
11/4/2021 2:00:00 PM 9.24 48.632 0.089 7.24 4.63 11.53
11/4/2021 2:15:00 PM 9.31 48.758 0.09 7.33 4.76 11.45
11/4/2021 2:30:00 PM 9.36 48.848 0.089 7.25 4.79 11.38
11/4/2021 2:45:00 PM 9.41 48.938 0.089 7.38 4.74 11.41
11/4/2021 3:00:00 PM 9.51 49.118 0.09 7.19 4.58 11.31
11/4/2021 3:15:00 PM 9.54 49.172 0.09 7.19 4.76 11.26
11/4/2021 3:30:00 PM 9.5 49.1 0.089 7.37 4.79 11.47
11/4/2021 3:45:00 PM 9.55 49.19 0.09 7.33 4.58 11.39
11/4/2021 4:00:00 PM 9.65 49.37 0.09 7.21 4.92 11.23
11/4/2021 4:15:00 PM 9.59 49.262 0.089 7.41 4.8 11.43
11/4/2021 4:30:00 PM 9.63 49.334 0.089 7.27 4.69 11.26
11/4/2021 4:45:00 PM 9.69 49.442 0.09 7.19 4.8 11.16
11/4/2021 5:00:00 PM 9.63 49.334 0.09 7.31 4.7 11.29
11/4/2021 5:15:00 PM 9.59 49.262 0.089 7.36 4.92 11.27
11/4/2021 5:30:00 PM 9.6 49.28 0.09 7.23 5.01 11.19
11/4/2021 5:45:00 PM 9.56 49.208 0.09 7.26 4.82 11.16
11/4/2021 6:00:00 PM 9.53 49.154 0.09 7.21 4.89 11.08
11/4/2021 6:15:00 PM 9.45 49.01 0.089 7.33 4.83 11.17
11/4/2021 6:30:00 PM 9.4 48.92 0.09 7.25 4.99 11.13
11/4/2021 6:45:00 PM 9.3 48.74 0.09 7.36 4.89 11.23
11/4/2021 7:00:00 PM 9.28 48.704 0.09 7.31 4.81 11.2
11/4/2021 7:15:00 PM 9.24 48.632 0.09 7.3 5.14 11.22
11/4/2021 7:30:00 PM 9.12 48.416 0.09 7.39 4.98 11.29
11/4/2021 7:45:00 PM 9.08 48.344 0.09 7.35 5.16 11.28
11/4/2021 8:00:00 PM 9.02 48.236 0.09 7.35 5.74 11.3
11/4/2021 8:15:00 PM 8.96 48.128 0.09 7.34 4.97 11.27
11/4/2021 8:30:00 PM 8.97 48.146 0.091 7.28 4.73 11.23
11/4/2021 8:45:00 PM 8.87 47.966 0.091 7.27 4.95 11.26
11/4/2021 9:00:00 PM 8.79 47.822 0.09 7.33 4.86 11.34
11/4/2021 9:15:00 PM 8.72 47.696 0.09 7.28 4.64 11.38
11/4/2021 9:30:00 PM 8.67 47.606 0.091 7.3 4.82 11.35
11/4/2021 9:45:00 PM 8.6 47.48 0.091 7.28 4.85 11.4
11/4/2021 10:00:00 PM 8.51 47.318 0.091 7.31 4.79 11.43
11/4/2021 10:15:00 PM 8.46 47.228 0.091 7.29 4.71 11.39
11/4/2021 10:30:00 PM 8.37 47.066 0.09 7.34 4.76 11.48
11/4/2021 10:45:00 PM 8.34 47.012 0.091 7.28 4.8 11.44
11/4/2021 11:00:00 PM 8.27 46.886 0.091 7.29 4.62 11.48
11/4/2021 11:15:00 PM 8.18 46.724 0.09 7.32 4.58 11.54
11/4/2021 11:30:00 PM 8.16 46.688 0.091 7.32 4.87 11.48
11/4/2021 11:45:00 PM 8.09 46.562 0.09 7.3 4.69 11.49
11/5/2021 12:00:00 AM 8.04 46.472 0.09 7.3 4.53 11.54
11/5/2021 12:15:00 AM 7.97 46.346 0.091 7.34 4.6 11.63
11/5/2021 12:30:00 AM 7.93 46.274 0.09 7.33 4.49 11.63
11/5/2021 12:45:00 AM 7.97 46.346 0.091 7.24 4.59 11.47
11/5/2021 1:00:00 AM 7.9 46.22 0.091 7.22 4.69 11.46
11/5/2021 1:15:00 AM 7.85 46.13 0.09 7.28 4.58 11.53
11/5/2021 1:30:00 AM 7.79 46.022 0.09 7.31 4.59 11.62
11/5/2021 1:45:00 AM 7.75 45.95 0.09 7.29 4.56 11.63
11/5/2021 2:00:00 AM 7.72 45.896 0.09 7.29 4.48 11.57
11/5/2021 2:15:00 AM 7.68 45.824 0.09 7.3 4.71 11.65
11/5/2021 2:30:00 AM 7.62 45.716 0.09 7.34 4.49 11.71
11/5/2021 2:45:00 AM 7.61 45.698 0.09 7.29 4.65 11.6
11/5/2021 3:00:00 AM 7.59 45.662 0.09 7.31 4.92 11.65
11/5/2021 3:15:00 AM 7.54 45.572 0.09 7.29 4.44 11.67
11/5/2021 3:30:00 AM 7.49 45.482 0.09 7.33 4.72 11.74
11/5/2021 3:45:00 AM 7.45 45.41 0.091 7.35 4.61 11.75
11/5/2021 4:00:00 AM 7.42 45.356 0.091 7.33 4.62 11.76
11/5/2021 4:15:00 AM 7.4 45.32 0.091 7.32 4.36 11.73
11/5/2021 4:30:00 AM 7.35 45.23 0.09 7.34 4.61 11.78
11/5/2021 4:45:00 AM 7.34 45.212 0.09 7.3 4.68 11.78
11/5/2021 5:00:00 AM 7.32 45.176 0.091 7.19 4.4 11.74
11/5/2021 5:15:00 AM 7.26 45.068 0.091 7.19 4.52 11.79
11/5/2021 5:30:00 AM 7.25 45.05 0.091 7.25 4.41 11.79
11/5/2021 5:45:00 AM 7.24 45.032 0.091 7.21 4.63 11.74
11/5/2021 6:00:00 AM 7.2 44.96 0.091 7.22 4.5 11.81
11/5/2021 6:15:00 AM 7.16 44.888 0.091 7.28 4.66 11.83
11/5/2021 6:30:00 AM 7.16 44.888 0.09 7.28 4.6 11.84
11/5/2021 6:45:00 AM 7.15 44.87 0.091 7.3 4.58 11.81
11/5/2021 7:00:00 AM 7.12 44.816 0.091 7.27 4.57 11.85
11/5/2021 7:15:00 AM 7.13 44.834 0.091 7.24 4.53 11.8
11/5/2021 7:30:00 AM 7.13 44.834 0.091 7.26 4.65 11.85
11/5/2021 7:45:00 AM 7.15 44.87 0.091 7.26 5 11.78
11/5/2021 8:00:00 AM 7.09 44.762 0.09 7.28 4.57 11.9
11/5/2021 8:15:00 AM 7.11 44.798 0.091 7.28 4.41 11.92
11/5/2021 8:30:00 AM 7.14 44.852 0.091 7.27 4.47 11.91
11/5/2021 8:45:00 AM 7.13 44.834 0.09 7.35 4.43 12.04
11/5/2021 9:00:00 AM 7.14 44.852 0.091 7.34 4.14 12.02
11/5/2021 9:15:00 AM 7.14 44.852 0.09 7.36 4.51 12.03
11/5/2021 9:30:00 AM 7.14 44.852 0.09 7.4 4.33 12.08
11/5/2021 9:45:00 AM 7.16 44.888 0.09 7.42 4.36 12.09
11/5/2021 10:00:00 AM 7.22 44.996 0.09 7.38 4.35 12.07
11/5/2021 10:15:00 AM 7.24 45.032 0.09 7.43 4.48 12.15
11/5/2021 10:30:00 AM 7.38 45.284 0.091 7.35 4.51 12.19
11/5/2021 10:45:00 AM 7.44 45.392 0.09 7.44 4.67 12.21
11/5/2021 11:00:00 AM 7.51 45.518 0.09 7.4 4.6 12.15
11/5/2021 11:15:00 AM 7.53 45.554 0.09 7.41 4.49 12.17
11/5/2021 11:30:00 AM 7.58 45.644 0.09 7.46 4.47 12.16
11/5/2021 11:45:00 AM 7.72 45.896 0.09 7.44 4.45 12.14
11/5/2021 12:00:00 PM 7.8 46.04 0.09 7.44 4.69 12.08
11/5/2021 12:15:00 PM 7.86 46.148 0.09 7.46 4.56 12.04
11/5/2021 12:30:00 PM 7.98 46.364 0.09 7.45 4.57 12.04
11/5/2021 12:45:00 PM 8.04 46.472 0.09 7.45 4.36 11.99
11/5/2021 1:00:00 PM 8.09 46.562 0.09 7.45 4.36 11.97
11/5/2021 1:15:00 PM 8.18 46.724 0.09 7.44 4.37 11.94
11/5/2021 1:30:00 PM 8.25 46.85 0.09 7.45 4.38 11.93
11/5/2021 1:45:00 PM 8.3 46.94 0.09 7.45 4.53 11.88
11/5/2021 2:00:00 PM 8.45 47.21 0.091 7.42 4.49 11.78
11/5/2021 2:15:00 PM 8.44 47.192 0.09 7.43 4.47 11.81
11/5/2021 2:30:00 PM 8.48 47.264 0.089 7.49 4.56 11.83
11/5/2021 2:45:00 PM 8.54 47.372 0.09 7.37 4.35 11.73
11/5/2021 3:00:00 PM 8.57 47.426 0.09 7.43 4.47 11.74
11/5/2021 3:15:00 PM 8.62 47.516 0.09 7.4 4.5 11.67
11/5/2021 3:30:00 PM 8.66 47.588 0.09 7.37 4.53 11.55
11/5/2021 3:45:00 PM 8.68 47.624 0.09 7.44 4.43 11.65
11/5/2021 4:00:00 PM 8.73 47.714 0.09 7.44 4.4 11.56
11/5/2021 4:15:00 PM 8.73 47.714 0.09 7.42 4.56 11.56
11/5/2021 4:30:00 PM 8.74 47.732 0.09 7.41 4.33 11.57
11/5/2021 4:45:00 PM 8.73 47.714 0.09 7.44 4.52 11.58
11/5/2021 5:00:00 PM 8.74 47.732 0.09 7.37 4.47 11.52
11/5/2021 5:15:00 PM 8.69 47.642 0.09 7.44 4.5 11.56
11/5/2021 5:30:00 PM 8.74 47.732 0.091 7.2 4.69 11.35
11/5/2021 5:45:00 PM 8.66 47.588 0.09 7.39 4.6 11.51
11/5/2021 6:00:00 PM 8.6 47.48 0.09 7.38 4.46 11.47
11/5/2021 6:15:00 PM 8.55 47.39 0.09 7.38 4.58 11.49
11/5/2021 6:30:00 PM 8.51 47.318 0.09 7.38 4.69 11.48
11/5/2021 6:45:00 PM 8.45 47.21 0.09 7.4 4.59 11.49
11/5/2021 7:00:00 PM 8.42 47.156 0.09 7.37 4.61 11.5
11/5/2021 7:15:00 PM 8.35 47.03 0.09 7.38 4.51 11.53
11/5/2021 7:30:00 PM 8.31 46.958 0.091 7.37 4.61 11.53
11/5/2021 7:45:00 PM 8.28 46.904 0.091 7.36 4.6 11.53
11/5/2021 8:00:00 PM 8.2 46.76 0.09 7.37 4.46 11.55
11/5/2021 8:15:00 PM 8.16 46.688 0.09 7.39 4.92 11.56
11/5/2021 8:30:00 PM 8.12 46.616 0.09 7.4 4.4 11.59
11/5/2021 8:45:00 PM 8.08 46.544 0.091 7.37 4.78 11.58
11/5/2021 9:00:00 PM 8.03 46.454 0.091 7.38 4.66 11.59
11/5/2021 9:15:00 PM 7.99 46.382 0.091 7.37 4.75 11.62
11/5/2021 9:30:00 PM 7.94 46.292 0.091 7.32 4.3 11.62
11/5/2021 9:45:00 PM 7.89 46.202 0.091 7.38 4.49 11.64
11/5/2021 10:00:00 PM 7.83 46.094 0.091 7.32 4.55 11.63
11/5/2021 10:15:00 PM 7.77 45.986 0.091 7.36 4.41 11.7
11/5/2021 10:30:00 PM 7.72 45.896 0.091 7.35 4.59 11.69
11/5/2021 10:45:00 PM 7.67 45.806 0.091 7.36 4.53 11.7
11/5/2021 11:00:00 PM 7.62 45.716 0.091 7.35 4.61 11.71
11/5/2021 11:15:00 PM 7.57 45.626 0.091 7.37 4.45 11.73
11/5/2021 11:30:00 PM 7.53 45.554 0.091 7.37 4.61 11.74
11/5/2021 11:45:00 PM 7.46 45.428 0.091 7.36 4.46 11.76
11/6/2021 12:00:00 AM 7.44 45.392 0.091 7.34 4.35 11.73
11/6/2021 12:15:00 AM 7.38 45.284 0.091 7.32 4.39 11.78
11/6/2021 12:30:00 AM 7.34 45.212 0.091 7.36 4.29 11.76
11/6/2021 12:45:00 AM 7.29 45.122 0.091 7.34 6.94 11.82
11/6/2021 1:00:00 AM 7.24 45.032 0.091 7.35 5.75 11.83
11/6/2021 1:15:00 AM 7.21 44.978 0.091 7.35 5.98 11.82
11/6/2021 1:30:00 AM 7.15 44.87 0.09 7.37 4.36 11.86
11/6/2021 1:45:00 AM 7.12 44.816 0.091 7.33 5.1 11.86
11/6/2021 2:00:00 AM 7.07 44.726 0.091 7.32 4.41 11.86
11/6/2021 2:15:00 AM 7.04 44.672 0.09 7.37 4.49 11.89
11/6/2021 2:30:00 AM 6.99 44.582 0.09 7.35 4.45 11.9
11/6/2021 2:45:00 AM 6.95 44.51 0.09 7.34 4.43 11.91
11/6/2021 3:00:00 AM 6.94 44.492 0.091 7.35 4.38 11.9
11/6/2021 3:15:00 AM 6.91 44.438 0.09 7.36 4.55 11.94
11/6/2021 3:30:00 AM 6.88 44.384 0.09 7.34 4.39 11.93
11/6/2021 3:45:00 AM 6.87 44.366 0.091 7.36 4.48 11.94
11/6/2021 4:00:00 AM 6.84 44.312 0.09 7.34 4.32 11.97
11/6/2021 4:15:00 AM 6.86 44.348 0.091 7.32 4.42 11.94
11/6/2021 4:30:00 AM 6.84 44.312 0.091 7.34 4.57 11.95
11/6/2021 4:45:00 AM 6.84 44.312 0.09 7.35 4.3 11.98
11/6/2021 5:00:00 AM 6.82 44.276 0.09 7.36 4.38 11.96
11/6/2021 5:15:00 AM 6.81 44.258 0.09 7.36 4.2 11.97
11/6/2021 5:30:00 AM 6.78 44.204 0.091 7.35 4.21 11.98
11/6/2021 5:45:00 AM 6.76 44.168 0.09 7.37 4.37 12.01
11/6/2021 6:00:00 AM 6.74 44.132 0.091 7.35 4.41 11.99
11/6/2021 6:15:00 AM 6.73 44.114 0.09 7.34 4.26 12
11/6/2021 6:30:00 AM 6.72 44.096 0.091 7.32 4.34 12.01
11/6/2021 6:45:00 AM 6.71 44.078 0.091 7.29 4.41 12.01
11/6/2021 7:00:00 AM 6.69 44.042 0.091 7.28 4.39 12.02
11/6/2021 7:15:00 AM 6.66 43.988 0.091 7.29 4.23 12
11/6/2021 7:30:00 AM 6.64 43.952 0.091 7.3 4.29 12.03
11/6/2021 7:45:00 AM 6.62 43.916 0.091 7.33 4.37 12.06
11/6/2021 8:00:00 AM 6.59 43.862 0.091 7.32 4.49 12.07
11/6/2021 8:15:00 AM 6.58 43.844 0.09 7.33 4.35 12.12
11/6/2021 8:30:00 AM 6.58 43.844 0.091 7.31 4.21 12.14
11/6/2021 8:45:00 AM 6.56 43.808 0.09 7.36 4.39 12.28
11/6/2021 9:00:00 AM 6.55 43.79 0.091 7.38 4.2 12.29
11/6/2021 9:15:00 AM 6.52 43.736 0.09 7.37 4.38 12.28
11/6/2021 9:30:00 AM 6.5 43.7 0.09 7.4 4.25 12.38
11/6/2021 9:45:00 AM 6.53 43.754 0.09 7.41 4.34 12.39
11/6/2021 10:00:00 AM 6.56 43.808 0.09 7.42 4.41 12.42
11/6/2021 10:15:00 AM 6.57 43.826 0.09 7.43 4.43 12.39
11/6/2021 10:30:00 AM 6.61 43.898 0.09 7.45 4.37 12.45
11/6/2021 10:45:00 AM 6.65 43.97 0.09 7.46 4.31 12.43
11/6/2021 11:00:00 AM 6.75 44.15 0.09 7.43 4.44 12.41
11/6/2021 11:15:00 AM 6.96 44.528 0.09 7.44 4.29 12.45
11/6/2021 11:30:00 AM 7.05 44.69 0.09 7.47 4.51 12.44
11/6/2021 11:45:00 AM 7.09 44.762 0.09 7.46 4.35 12.35
11/6/2021 12:00:00 PM 7.18 44.924 0.09 7.47 4.31 12.31
11/6/2021 12:15:00 PM 7.24 45.032 0.092 7.4 3.37 12.26
11/6/2021 12:30:00 PM 7.32 45.176 0.029 7.43 4.08 12.25
11/6/2021 12:45:00 PM 7.41 45.338 0.09 7.46 4.2 12.23
11/6/2021 1:00:00 PM 7.51 45.518 0.09 7.45 4.08 12.15
11/6/2021 1:15:00 PM 7.6 45.68 0.09 7.42 3.99 12.13
11/6/2021 1:30:00 PM 7.68 45.824 0.09 7.46 4.2 12.13
11/6/2021 1:45:00 PM 7.74 45.932 0.09 7.44 4.18 12.08
11/6/2021 2:00:00 PM 7.94 46.292 0.09 7.45 4.14 12.09
11/6/2021 2:15:00 PM 7.97 46.346 0.091 7.42 4.22 12.01
11/6/2021 2:30:00 PM 7.95 46.31 0.09 7.47 4.18 11.97
11/6/2021 2:45:00 PM 8.02 46.436 0.09 7.43 4.06 11.91
11/6/2021 3:00:00 PM 8.08 46.544 0.09 7.41 4.13 11.88
11/6/2021 3:15:00 PM 8.13 46.634 0.09 7.43 4.22 11.82
11/6/2021 3:30:00 PM 8.17 46.706 0.09 7.44 4.36 11.77
11/6/2021 3:45:00 PM 8.22 46.796 0.09 7.44 4.28 11.76
11/6/2021 4:00:00 PM 8.27 46.886 0.09 7.45 4.23 11.73
11/6/2021 4:15:00 PM 8.32 46.976 0.09 7.43 4.39 11.66
11/6/2021 4:30:00 PM 8.33 46.994 0.09 7.44 4.18 11.67
11/6/2021 4:45:00 PM 8.35 47.03 0.09 7.43 4.18 11.64
11/6/2021 5:00:00 PM 8.36 47.048 0.09 7.39 4.34 11.6
11/6/2021 5:15:00 PM 8.33 46.994 0.09 7.41 4.15 11.61
11/6/2021 5:30:00 PM 8.31 46.958 0.09 7.42 4.19 11.6
11/6/2021 5:45:00 PM 8.29 46.922 0.09 7.39 4.26 11.56
11/6/2021 6:00:00 PM 8.26 46.868 0.091 7.42 4.32 11.56
11/6/2021 6:15:00 PM 8.23 46.814 0.091 7.41 4.32 11.54
11/6/2021 6:30:00 PM 8.17 46.706 0.091 7.41 4.36 11.55
11/6/2021 6:45:00 PM 8.11 46.598 0.091 7.4 4.4 11.54
11/6/2021 7:00:00 PM 8.07 46.526 0.091 7.37 4.18 11.56
11/6/2021 7:15:00 PM 8 46.4 0.091 7.39 4.28 11.58
11/6/2021 7:30:00 PM 7.95 46.31 0.091 7.39 4.4 11.58
11/6/2021 7:45:00 PM 7.92 46.256 0.091 7.39 5.2 11.6
11/6/2021 8:00:00 PM 7.87 46.166 0.091 7.38 4.18 11.61
11/6/2021 8:15:00 PM 7.84 46.112 0.091 7.35 4.55 11.61
11/6/2021 8:30:00 PM 7.8 46.04 0.091 7.36 4.35 11.61
11/6/2021 8:45:00 PM 7.76 45.968 0.091 7.37 4.49 11.62
11/6/2021 9:00:00 PM 7.68 45.824 0.091 7.38 4.43 11.63
11/6/2021 9:15:00 PM 7.65 45.77 0.091 7.35 4.31 11.64
11/6/2021 9:30:00 PM 7.6 45.68 0.092 7.32 4.33 11.68
11/6/2021 9:45:00 PM 7.53 45.554 0.091 7.32 4.48 11.7
11/6/2021 10:00:00 PM 7.47 45.446 0.092 7.37 4.31 11.7
11/6/2021 10:15:00 PM 7.42 45.356 0.091 7.34 4.29 11.74
11/6/2021 10:30:00 PM 7.38 45.284 0.092 7.36 4.38 11.76
11/6/2021 10:45:00 PM 7.32 45.176 0.091 7.35 4.32 11.78
11/6/2021 11:00:00 PM 7.27 45.086 0.091 7.37 4.45 11.78
11/6/2021 11:15:00 PM 7.2 44.96 0.091 7.39 4.26 11.79
11/6/2021 11:30:00 PM 7.15 44.87 0.091 7.34 4.3 11.81
11/6/2021 11:45:00 PM 7.07 44.726 0.092 7.37 4.16 11.84
11/7/2021 12:00:00 AM 7.02 44.636 0.092 7.38 4.41 11.85
11/7/2021 12:15:00 AM 6.95 44.51 0.092 7.37 4.18 11.85
11/7/2021 12:30:00 AM 6.91 44.438 0.092 7.38 4.05 11.88
11/7/2021 12:45:00 AM 6.87 44.366 0.092 7.35 4.17 11.9
11/7/2021 1:00:00 AM 6.81 44.258 0.092 7.34 4.77 11.93
11/7/2021 1:15:00 AM 6.75 44.15 0.092 7.33 4.25 11.91
11/7/2021 1:30:00 AM 6.71 44.078 0.092 7.35 4.2 11.94
11/7/2021 1:45:00 AM 6.66 43.988 0.092 7.34 4.17 11.94
11/7/2021 2:00:00 AM 6.59 43.862 0.092 7.34 4.25 11.96
11/7/2021 2:15:00 AM 6.56 43.808 0.092 7.37 4.08 11.96
11/7/2021 2:30:00 AM 6.53 43.754 0.092 7.33 4.31 11.99
11/7/2021 2:45:00 AM 6.48 43.664 0.092 7.33 4.47 11.99
11/7/2021 3:00:00 AM 6.43 43.574 0.092 7.32 4.19 12.01
11/7/2021 3:15:00 AM 6.37 43.466 0.092 7.34 4.26 12
11/7/2021 3:30:00 AM 6.34 43.412 0.092 7.38 4.18 12.06
11/7/2021 3:45:00 AM 6.32 43.376 0.092 7.34 4.13 12.05
11/7/2021 4:00:00 AM 6.31 43.358 0.092 7.35 4.21 12.05
11/7/2021 4:15:00 AM 6.26 43.268 0.092 7.34 4.36 12.04
11/7/2021 4:30:00 AM 6.17 43.106 0.092 7.36 4.19 12.1
11/7/2021 4:45:00 AM 6.16 43.088 0.092 7.36 4 12.11
11/7/2021 5:00:00 AM 6.17 43.106 0.092 7.36 4.16 12.09
11/7/2021 5:15:00 AM 6.13 43.034 0.092 7.34 4.21 12.11
11/7/2021 5:30:00 AM 6.1 42.98 0.092 7.35 4.11 12.11
11/7/2021 5:45:00 AM 6.06 42.908 0.092 7.35 4.15 12.13
11/7/2021 6:00:00 AM 6.05 42.89 0.092 7.32 4.15 12.11
11/7/2021 6:15:00 AM 6.01 42.818 0.092 7.36 4.38 12.14
11/7/2021 6:30:00 AM 5.98 42.764 0.092 7.33 4.2 12.15
11/7/2021 6:45:00 AM 5.96 42.728 0.092 7.36 4.02 12.16
11/7/2021 7:00:00 AM 5.92 42.656 0.092 7.3 4.12 12.18
11/7/2021 7:15:00 AM 5.9 42.62 0.092 7.33 4.26 12.24
11/7/2021 7:30:00 AM 5.9 42.62 0.092 7.35 4.09 12.28
11/7/2021 7:45:00 AM 5.93 42.674 0.092 7.36 4.39 12.31
11/7/2021 8:00:00 AM 5.94 42.692 0.092 7.4 4.62 12.36
11/7/2021 8:15:00 AM 5.97 42.746 0.092 7.35 4.18 12.38
11/7/2021 8:30:00 AM 5.99 42.782 0.092 7.38 4.27 12.44
11/7/2021 8:45:00 AM 6.02 42.836 0.092 7.37 4.05 12.44
11/7/2021 9:00:00 AM 6.06 42.908 0.091 7.39 4.53 12.51
11/7/2021 9:15:00 AM 6.09 42.962 0.091 7.42 4.24 12.52
11/7/2021 9:30:00 AM 6.14 43.052 0.091 7.42 4.34 12.56
11/7/2021 9:45:00 AM 6.22 43.196 0.091 7.43 4.28 12.51
11/7/2021 10:00:00 AM 6.45 43.61 0.091 7.46 4.46 12.58
11/7/2021 10:15:00 AM 6.56 43.808 0.091 7.42 4.18 12.47
11/7/2021 10:30:00 AM 6.57 43.826 0.091 7.47 4.28 12.42
11/7/2021 10:45:00 AM 6.72 44.096 0.091 7.46 4.28 12.43
11/7/2021 11:00:00 AM 6.78 44.204 0.091 7.46 4.15 12.42
11/7/2021 11:15:00 AM 6.87 44.366 0.091 7.44 4.18 12.35
11/7/2021 11:30:00 AM 6.97 44.546 0.091 7.46 4.32 12.34
11/7/2021 11:45:00 AM 7.03 44.654 0.091 7.45 4.3 12.31
11/7/2021 12:00:00 PM 7.14 44.852 0.091 7.46 4.13 12.28
11/7/2021 12:15:00 PM 7.17 44.906 0.091 7.47 4 12.18
11/7/2021 12:30:00 PM 7.28 45.104 0.091 7.47 4.16 12.16
11/7/2021 12:45:00 PM 7.4 45.32 0.091 7.48 4.15 12.17
11/7/2021 1:00:00 PM 7.52 45.536 0.091 7.46 4.13 12.1
11/7/2021 1:15:00 PM 7.59 45.662 0.091 7.43 4.06 12.04
11/7/2021 1:30:00 PM 7.59 45.662 0.091 7.45 4.1 12.03
11/7/2021 1:45:00 PM 7.68 45.824 0.091 7.45 4.13 11.99
11/7/2021 2:00:00 PM 7.73 45.914 0.091 7.48 4.09 11.92
11/7/2021 2:15:00 PM 7.81 46.058 0.091 7.44 4.14 11.88
11/7/2021 2:30:00 PM 7.88 46.184 0.091 7.42 4.25 11.85
11/7/2021 2:45:00 PM 7.93 46.274 0.091 7.47 4.26 11.8
11/7/2021 3:00:00 PM 8 46.4 0.091 7.44 4.13 11.75
11/7/2021 3:15:00 PM 8.07 46.526 0.091 7.41 4.22 11.72
11/7/2021 3:30:00 PM 8.1 46.58 0.091 7.45 4.2 11.69
11/7/2021 3:45:00 PM 8.13 46.634 0.091 7.44 4.01 11.67
11/7/2021 4:00:00 PM 8.15 46.67 0.091 7.41 4.09 11.63
11/7/2021 4:15:00 PM 8.15 46.67 0.091 7.38 4.22 11.61
11/7/2021 4:30:00 PM 8.13 46.634 0.091 7.41 4.23 11.59
11/7/2021 4:45:00 PM 8.11 46.598 0.092 7.38 4.02 11.54
11/7/2021 5:00:00 PM 8.07 46.526 0.092 7.41 4.23 11.54
11/7/2021 5:15:00 PM 8.02 46.436 0.092 7.4 4.18 11.5
11/7/2021 5:30:00 PM 7.98 46.364 0.092 7.38 4.3 11.52
11/7/2021 5:45:00 PM 7.93 46.274 0.092 7.39 4.33 11.51
11/7/2021 6:00:00 PM 7.9 46.22 0.092 7.37 4.18 11.49
11/7/2021 6:15:00 PM 7.87 46.166 0.092 7.36 4.32 11.5
11/7/2021 6:30:00 PM 7.84 46.112 0.093 7.35 4.18 11.52
11/7/2021 6:45:00 PM 7.82 46.076 0.092 7.38 4.36 11.53
11/7/2021 7:00:00 PM 7.77 45.986 0.093 7.36 4.25 11.53
11/7/2021 7:15:00 PM 7.75 45.95 0.093 7.35 4.17 11.54
11/7/2021 7:30:00 PM 7.72 45.896 0.092 7.36 4.4 11.55
11/7/2021 7:45:00 PM 7.71 45.878 0.092 7.35 4.11 11.58
11/7/2021 8:00:00 PM 7.65 45.77 0.092 7.38 4.28 11.58
11/7/2021 8:15:00 PM 7.61 45.698 0.093 7.35 4.52 11.59
11/7/2021 8:30:00 PM 7.59 45.662 0.092 7.32 4.41 11.59
11/7/2021 8:45:00 PM 7.56 45.608 0.092 7.37 4.66 11.62
11/7/2021 9:00:00 PM 7.52 45.536 0.092 7.38 4.43 11.63
11/7/2021 9:15:00 PM 7.48 45.464 0.093 7.33 4.24 11.64
11/7/2021 9:30:00 PM 7.46 45.428 0.093 7.33 4.34 11.63
11/7/2021 9:45:00 PM 7.4 45.32 0.093 7.35 4.34 11.65
11/7/2021 10:00:00 PM 7.37 45.266 0.092 7.32 4.31 11.65
11/7/2021 10:15:00 PM 7.33 45.194 0.093 7.35 4.76 11.68
11/7/2021 10:30:00 PM 7.3 45.14 0.093 7.34 4.46 11.7
11/7/2021 10:45:00 PM 7.27 45.086 0.093 7.38 4.41 11.71
11/7/2021 11:00:00 PM 7.22 44.996 0.093 7.37 4.31 11.71
11/7/2021 11:15:00 PM 7.2 44.96 0.093 7.34 4.17 11.72
11/7/2021 11:30:00 PM 7.16 44.888 0.093 7.35 4.2 11.73
11/7/2021 11:45:00 PM 7.12 44.816 0.093 7.35 4.43 11.73
11/8/2021 12:00:00 AM 7.11 44.798 0.093 7.32 4.27 11.71
11/8/2021 12:15:00 AM 7.07 44.726 0.093 7.33 4.85 11.73
11/8/2021 12:30:00 AM 7.04 44.672 0.093 7.35 4.11 11.76
11/8/2021 12:45:00 AM 7.02 44.636 0.093 7.29 4.09 11.73
11/8/2021 1:00:00 AM 6.98 44.564 0.093 7.36 4.29 11.79
11/8/2021 1:15:00 AM 6.95 44.51 0.093 7.35 4.22 11.76
11/8/2021 1:30:00 AM 6.93 44.474 0.093 7.33 4.14 11.76
11/8/2021 1:45:00 AM 6.89 44.402 0.093 7.36 4.16 11.8
11/8/2021 2:00:00 AM 6.86 44.348 0.093 7.36 4.19 11.77
11/8/2021 2:15:00 AM 6.84 44.312 0.093 7.32 4.12 11.79
11/8/2021 2:30:00 AM 6.8 44.24 0.093 7.33 4.19 11.83
11/8/2021 2:45:00 AM 6.76 44.168 0.093 7.31 4.2 11.83
11/8/2021 3:00:00 AM 6.73 44.114 0.093 7.35 4.3 11.87
11/8/2021 3:15:00 AM 6.71 44.078 0.093 7.32 4.11 11.83
11/8/2021 3:30:00 AM 6.68 44.024 0.093 7.34 4.17 11.87
11/8/2021 3:45:00 AM 6.65 43.97 0.093 7.35 3.92 11.86
11/8/2021 4:00:00 AM 6.63 43.934 0.093 7.34 4.18 11.89
11/8/2021 4:15:00 AM 6.59 43.862 0.093 7.34 4.02 11.88
11/8/2021 4:30:00 AM 6.56 43.808 0.093 7.34 4.17 11.89
11/8/2021 4:45:00 AM 6.54 43.772 0.093 7.34 4.05 11.9
11/8/2021 5:00:00 AM 6.53 43.754 0.093 7.31 4.15 11.92
11/8/2021 5:15:00 AM 6.49 43.682 0.093 7.35 4.21 11.94
11/8/2021 5:30:00 AM 6.47 43.646 0.093 7.28 4.13 11.94
11/8/2021 5:45:00 AM 6.46 43.628 0.093 7.31 4.01 11.93
11/8/2021 6:00:00 AM 6.44 43.592 0.093 7.25 4.5 11.9
11/8/2021 6:15:00 AM 6.42 43.556 0.093 7.32 4.25 11.93
11/8/2021 6:30:00 AM 6.37 43.466 0.093 7.31 4.13 11.94
11/8/2021 6:45:00 AM 6.36 43.448 0.093 7.34 4.07 11.97
11/8/2021 7:00:00 AM 6.35 43.43 0.093 7.32 4.06 11.96
11/8/2021 7:15:00 AM 6.33 43.394 0.093 7.34 4.11 12.04
11/8/2021 7:30:00 AM 6.34 43.412 0.093 7.34 4.11 12.1
11/8/2021 7:45:00 AM 6.34 43.412 0.093 7.37 4.19 12.16
11/8/2021 8:00:00 AM 6.35 43.43 0.093 7.35 3.99 12.21
11/8/2021 8:15:00 AM 6.37 43.466 0.093 7.34 3.97 12.28
11/8/2021 8:30:00 AM 6.41 43.538 0.093 7.37 4.06 12.32
11/8/2021 8:45:00 AM 6.44 43.592 0.093 7.4 4.14 12.35
11/8/2021 9:00:00 AM 6.51 43.718 0.093 7.42 3.95 12.34
11/8/2021 9:15:00 AM 6.57 43.826 0.092 7.39 4.07 12.39
11/8/2021 9:30:00 AM 6.73 44.114 0.092 7.39 4.05 12.44
11/8/2021 9:45:00 AM 6.85 44.33 0.092 7.45 4.1 12.43
11/8/2021 10:00:00 AM 6.95 44.51 0.092 7.41 3.9 12.43
11/8/2021 10:15:00 AM 7.04 44.672 0.093 7.42 3.92 12.42
11/8/2021 10:30:00 AM 7.12 44.816 0.092 7.4 4.16 12.36
11/8/2021 10:45:00 AM 7.26 45.068 0.092 7.39 3.97 12.33
11/8/2021 11:00:00 AM 7.43 45.374 0.092 7.43 4.05 12.37
11/8/2021 11:15:00 AM 7.55 45.59 0.092 7.42 4.05 12.27
11/8/2021 11:30:00 AM 7.61 45.698 0.092 7.45 4 12.24
11/8/2021 11:45:00 AM 7.71 45.878 0.092 7.42 3.93 12.19
11/8/2021 12:00:00 PM 7.83 46.094 0.092 7.42 3.99 12.12
11/8/2021 12:15:00 PM 7.96 46.328 0.092 7.4 3.92 12.13
11/8/2021 12:30:00 PM 8.12 46.616 0.092 7.45 3.98 12.05
11/8/2021 12:45:00 PM 8.26 46.868 0.092 7.45 3.98 12.04
11/8/2021 1:00:00 PM 8.4 47.12 0.092 7.41 4.18 12
11/8/2021 1:15:00 PM 8.44 47.192 0.092 7.45 4.13 11.93
11/8/2021 1:30:00 PM 8.48 47.264 0.092 7.43 4.13 11.85
11/8/2021 1:45:00 PM 8.56 47.408 0.092 7.42 4.17 11.79
11/8/2021 2:00:00 PM 8.61 47.498 0.092 7.44 4.15 11.78
11/8/2021 2:15:00 PM 8.65 47.57 0.092 7.42 4.33 11.72
11/8/2021 2:30:00 PM 8.71 47.678 0.092 7.43 4.06 11.65
11/8/2021 2:45:00 PM 8.78 47.804 0.092 7.38 3.92 11.58
11/8/2021 3:00:00 PM 8.84 47.912 0.092 7.36 3.92 11.6
11/8/2021 3:15:00 PM 8.92 48.056 0.093 7.35 4 11.48
11/8/2021 3:30:00 PM 8.94 48.092 0.092 7.42 4.19 11.48
11/8/2021 3:45:00 PM 8.97 48.146 0.092 7.37 4.15 11.44
11/8/2021 4:00:00 PM 8.97 48.146 0.092 7.41 4.1 11.43
11/8/2021 4:15:00 PM 8.98 48.164 0.093 7.35 4 11.39
11/8/2021 4:30:00 PM 8.96 48.128 0.093 7.4 4.22 11.34
11/8/2021 4:45:00 PM 8.93 48.074 0.092 7.38 4.13 11.33
11/8/2021 5:00:00 PM 8.89 48.002 0.093 7.38 4.13 11.28
11/8/2021 5:15:00 PM 8.85 47.93 0.093 7.31 4.12 11.22
11/8/2021 5:30:00 PM 8.8 47.84 0.093 7.36 4.24 11.23
11/8/2021 5:45:00 PM 8.75 47.75 0.084 7.34 7.24 11.25
11/8/2021 6:00:00 PM 8.71 47.678 0.093 7.34 4.23 11.25
11/8/2021 6:15:00 PM 8.67 47.606 0.093 7.3 4.05 11.24
11/8/2021 6:30:00 PM 8.64 47.552 0.093 7.32 4.23 11.26
11/8/2021 6:45:00 PM 8.61 47.498 0.094 7.3 3.89 11.25
11/8/2021 7:00:00 PM 8.57 47.426 0.094 7.33 4.23 11.24
11/8/2021 7:15:00 PM 8.54 47.372 0.094 7.35 3.99 11.27
11/8/2021 7:30:00 PM 8.52 47.336 0.094 7.34 3.93 11.28
11/8/2021 7:45:00 PM 8.49 47.282 0.094 7.31 4.07 11.29
11/8/2021 8:00:00 PM 8.46 47.228 0.094 7.27 4.04 11.26
11/8/2021 8:15:00 PM 8.44 47.192 0.094 7.26 4.28 11.29
11/8/2021 8:30:00 PM 8.4 47.12 0.094 7.32 4.05 11.3
11/8/2021 8:45:00 PM 8.37 47.066 0.094 7.33 4.1 11.33
11/8/2021 9:00:00 PM 8.35 47.03 0.094 7.28 4.16 11.31
11/8/2021 9:15:00 PM 8.31 46.958 0.094 7.33 4.14 11.34
11/8/2021 9:30:00 PM 8.29 46.922 0.094 7.3 4.3 11.31
11/8/2021 9:45:00 PM 8.27 46.886 0.094 7.29 4.09 11.33
11/8/2021 10:00:00 PM 8.24 46.832 0.094 7.31 4.12 11.35
11/8/2021 10:15:00 PM 8.21 46.778 0.094 7.26 4.04 11.33
11/8/2021 10:30:00 PM 8.18 46.724 0.094 7.3 4.12 11.4
11/8/2021 10:45:00 PM 8.16 46.688 0.094 7.27 4.26 11.35
11/8/2021 11:00:00 PM 8.14 46.652 0.094 7.27 4.2 11.4
11/8/2021 11:15:00 PM 8.1 46.58 0.094 7.26 4.14 11.36
11/8/2021 11:30:00 PM 8.05 46.49 0.094 7.29 4.21 11.41
11/8/2021 11:45:00 PM 8.03 46.454 0.094 7.26 4.13 11.39
11/9/2021 12:00:00 AM 7.99 46.382 0.094 7.3 4.06 11.41
11/9/2021 12:15:00 AM 7.96 46.328 0.094 7.31 4.02 11.36
11/9/2021 12:30:00 AM 7.92 46.256 0.094 7.31 4.2 11.42
11/9/2021 12:45:00 AM 7.89 46.202 0.094 7.28 4.22 11.45
11/9/2021 1:00:00 AM 7.84 46.112 0.094 7.35 4.09 11.5
11/9/2021 1:15:00 AM 7.84 46.112 0.095 7.26 4.02 11.43
11/9/2021 1:30:00 AM 7.84 46.112 0.094 7.27 4.09 11.46
11/9/2021 1:45:00 AM 7.85 46.13 0.095 7.28 4.04 11.41
11/9/2021 2:00:00 AM 7.79 46.022 0.094 7.31 4.1 11.49
11/9/2021 2:15:00 AM 7.76 45.968 0.094 7.32 3.98 11.48
11/9/2021 2:30:00 AM 7.74 45.932 0.095 7.28 3.9 11.49
11/9/2021 2:45:00 AM 7.7 45.86 0.094 7.32 4 11.51
11/9/2021 3:00:00 AM 7.68 45.824 0.094 7.28 3.85 11.5
11/9/2021 3:15:00 AM 7.65 45.77 0.094 7.3 4.02 11.49
11/9/2021 3:30:00 AM 7.63 45.734 0.094 7.27 3.88 11.54
11/9/2021 3:45:00 AM 7.59 45.662 0.095 7.28 4.11 11.56
11/9/2021 4:00:00 AM 7.55 45.59 0.094 7.27 4.03 11.53
11/9/2021 4:15:00 AM 7.52 45.536 0.094 7.29 4.75 11.56
11/9/2021 4:30:00 AM 7.48 45.464 0.094 7.32 4.07 11.59
11/9/2021 4:45:00 AM 7.48 45.464 0.094 7.29 3.94 11.52
11/9/2021 5:00:00 AM 7.44 45.392 0.095 7.31 4.13 11.59
11/9/2021 5:15:00 AM 7.43 45.374 0.095 7.27 3.94 11.55
11/9/2021 5:30:00 AM 7.4 45.32 0.095 7.28 3.83 11.59
11/9/2021 5:45:00 AM 7.37 45.266 0.094 7.3 4.17 11.63
11/9/2021 6:00:00 AM 7.36 45.248 0.094 7.28 4.01 11.62
11/9/2021 6:15:00 AM 7.36 45.248 0.095 7.29 4.08 11.59
11/9/2021 6:30:00 AM 7.35 45.23 0.095 7.26 4 11.59
11/9/2021 6:45:00 AM 7.33 45.194 0.095 7.3 4.28 11.61
11/9/2021 7:00:00 AM 7.33 45.194 0.094 7.28 4.11 11.58
11/9/2021 7:15:00 AM 7.29 45.122 0.094 7.29 4.05 11.69
11/9/2021 7:30:00 AM 7.25 45.05 0.094 7.32 3.98 11.77
11/9/2021 7:45:00 AM 7.26 45.068 0.094 7.29 4.09 11.83
11/9/2021 8:00:00 AM 7.23 45.014 0.094 7.3 3.84 11.91
11/9/2021 8:15:00 AM 7.24 45.032 0.094 7.33 4.02 11.98
11/9/2021 8:30:00 AM 7.25 45.05 0.094 7.32 3.89 12.06
11/9/2021 8:45:00 AM 7.31 45.158 0.094 7.31 3.95 12.1
11/9/2021 9:00:00 AM 7.37 45.266 0.094 7.34 3.93 12.19
11/9/2021 9:15:00 AM 7.4 45.32 0.094 7.35 4.08 12.22
11/9/2021 9:30:00 AM 7.48 45.464 0.094 7.4 3.88 12.28
11/9/2021 9:45:00 AM 7.6 45.68 0.094 7.37 3.99 12.24
11/9/2021 10:00:00 AM 7.76 45.968 0.094 7.36 4.09 12.22
11/9/2021 10:15:00 AM 7.83 46.094 0.094 7.36 3.91 12.24
11/9/2021 10:30:00 AM 7.84 46.112 0.093 7.43 4.09 12.19
11/9/2021 10:45:00 AM 8.02 46.436 0.094 7.4 4.08 12.21
11/9/2021 11:00:00 AM 8.06 46.508 0.094 7.41 4.03 12.16
11/9/2021 11:15:00 AM 8.27 46.886 0.094 7.35 3.93 12.16
11/9/2021 11:30:00 AM 8.32 46.976 0.094 7.36 4.2 12.08
11/9/2021 11:45:00 AM 8.37 47.066 0.094 7.36 4.09 12.02
11/9/2021 12:00:00 PM 8.44 47.192 0.093 7.43 4.16 12.01
11/9/2021 12:15:00 PM 8.49 47.282 0.093 7.43 3.95 11.94
11/9/2021 12:30:00 PM 8.71 47.678 0.093 7.39 3.99 11.94
11/9/2021 12:45:00 PM 8.79 47.822 0.093 7.45 3.91 11.88
11/9/2021 1:00:00 PM 9 48.2 0.094 7.4 3.94 11.9
11/9/2021 1:15:00 PM 8.95 48.11 0.093 7.49 4.06 11.82
11/9/2021 1:30:00 PM 9.09 48.362 0.093 7.46 4.11 11.79
11/9/2021 1:45:00 PM 9.15 48.47 0.093 7.46 4.04 11.79
11/9/2021 2:00:00 PM 9.23 48.614 0.093 7.46 3.93 11.74
11/9/2021 2:15:00 PM 9.31 48.758 0.093 7.44 4.03 11.69
11/9/2021 2:30:00 PM 9.37 48.866 0.093 7.43 3.96 11.62
11/9/2021 2:45:00 PM 9.43 48.974 0.093 7.49 4.17 11.59
11/9/2021 3:00:00 PM 9.49 49.082 0.093 7.45 3.91 11.55
11/9/2021 3:15:00 PM 9.56 49.208 0.093 7.46 4.04 11.56
11/9/2021 3:30:00 PM 9.63 49.334 0.093 7.45 4.17 11.55
11/9/2021 3:45:00 PM 9.62 49.316 0.093 7.41 3.94 11.47
11/9/2021 4:00:00 PM 9.63 49.334 0.093 7.42 3.89 11.41
11/9/2021 4:15:00 PM 9.6 49.28 0.093 7.41 3.87 11.26
11/9/2021 4:30:00 PM 9.61 49.298 0.093 7.4 4.25 11.19
11/9/2021 4:45:00 PM 9.61 49.298 0.093 7.38 4 11.13
11/9/2021 5:00:00 PM 9.61 49.298 0.093 7.31 4.24 11.05
11/9/2021 5:15:00 PM 9.6 49.28 0.094 7.36 4.2 11.01
11/9/2021 5:30:00 PM 9.59 49.262 0.094 7.36 4.47 11.04
11/9/2021 5:45:00 PM 9.6 49.28 0.094 7.31 4.34 10.95
11/9/2021 6:00:00 PM 9.6 49.28 0.094 7.35 4.32 10.96
11/9/2021 6:15:00 PM 9.62 49.316 0.094 7.32 4.07 10.93
11/9/2021 6:30:00 PM 9.64 49.352 0.094 7.31 4.23 10.82
11/9/2021 6:45:00 PM 9.63 49.334 0.094 7.33 4.15 10.95
11/9/2021 7:00:00 PM 9.65 49.37 0.094 7.28 4.33 10.89
11/9/2021 7:15:00 PM 9.65 49.37 0.094 7.35 4.36 10.97
11/9/2021 7:30:00 PM 9.68 49.424 0.094 7.31 4.16 10.89
11/9/2021 7:45:00 PM 9.68 49.424 0.095 7.34 4.18 10.93
11/9/2021 8:00:00 PM 9.69 49.442 0.095 7.3 3.99 10.87
11/9/2021 8:15:00 PM 9.68 49.424 0.095 7.26 4.15 10.91
11/9/2021 8:30:00 PM 9.68 49.424 0.095 7.31 4.04 10.9
11/9/2021 8:45:00 PM 9.68 49.424 0.095 7.31 4.18 10.9
11/9/2021 9:00:00 PM 9.67 49.406 0.095 7.29 4.04 10.88
11/9/2021 9:15:00 PM 9.67 49.406 0.095 7.31 4.28 10.92
11/9/2021 9:30:00 PM 9.67 49.406 0.095 7.31 3.85 10.93
11/9/2021 9:45:00 PM 9.65 49.37 0.095 7.33 3.97 10.93
11/9/2021 10:00:00 PM 9.63 49.334 0.095 7.32 4 10.94
11/9/2021 10:15:00 PM 9.62 49.316 0.094 7.25 4.06 10.84
11/9/2021 10:30:00 PM 9.61 49.298 0.095 7.31 4.07 10.9
11/9/2021 10:45:00 PM 9.62 49.316 0.095 7.27 3.8 10.9
11/9/2021 11:00:00 PM 9.59 49.262 0.095 7.33 3.85 10.97
11/9/2021 11:15:00 PM 9.57 49.226 0.094 7.32 4.25 10.93
11/9/2021 11:30:00 PM 9.57 49.226 0.095 7.3 4.11 10.92
11/9/2021 11:45:00 PM 9.55 49.19 0.095 7.29 3.95 10.91
11/10/2021 12:00:00 AM 9.53 49.154 0.095 7.28 3.93 10.9
11/10/2021 12:15:00 AM 9.53 49.154 0.095 7.27 4.17 10.91
11/10/2021 12:30:00 AM 9.53 49.154 0.096 7.26 3.98 10.89
11/10/2021 12:45:00 AM 9.52 49.136 0.095 7.27 3.97 10.91
11/10/2021 1:00:00 AM 9.53 49.154 0.095 7.26 3.8 10.91
11/10/2021 1:15:00 AM 9.49 49.082 0.095 7.31 4.05 10.95
11/10/2021 1:30:00 AM 9.47 49.046 0.095 7.32 3.97 10.91
11/10/2021 1:45:00 AM 9.46 49.028 0.094 7.26 4.32 10.93
11/10/2021 2:00:00 AM 9.43 48.974 0.095 7.25 3.89 10.92
11/10/2021 2:15:00 AM 9.41 48.938 0.095 7.27 3.94 10.9
11/10/2021 2:30:00 AM 9.38 48.884 0.095 7.31 3.85 10.97
11/10/2021 2:45:00 AM 9.39 48.902 0.094 7.24 4.09 10.91
11/10/2021 3:00:00 AM 9.36 48.848 0.095 7.26 4.02 10.9
11/10/2021 3:15:00 AM 9.32 48.776 0.095 7.3 4.07 10.99
11/10/2021 3:30:00 AM 9.31 48.758 0.095 7.26 3.88 10.94
11/10/2021 3:45:00 AM 9.26 48.668 0.095 7.26 4.08 10.96
11/10/2021 4:00:00 AM 9.22 48.596 0.095 7.29 3.94 11.03
11/10/2021 4:15:00 AM 9.22 48.596 0.095 7.28 4.01 10.95
11/10/2021 4:30:00 AM 9.2 48.56 0.095 7.26 3.89 10.97
11/10/2021 4:45:00 AM 9.17 48.506 0.095 7.31 4.08 11.05
11/10/2021 5:00:00 AM 9.18 48.524 0.095 7.29 3.92 11.01
11/10/2021 5:15:00 AM 9.2 48.56 0.095 7.27 4.03 10.98
11/10/2021 5:30:00 AM 9.2 48.56 0.095 7.3 3.84 10.99
11/10/2021 5:45:00 AM 9.23 48.614 0.094 7.26 4.26 11.04
11/10/2021 6:00:00 AM 9.25 48.65 0.095 7.3 3.99 11
11/10/2021 6:15:00 AM 9.25 48.65 0.095 7.29 4.15 11.05
11/10/2021 6:30:00 AM 9.27 48.686 0.095 7.29 4.16 11.07
11/10/2021 6:45:00 AM 9.27 48.686 0.095 7.3 4.09 11.02
11/10/2021 7:00:00 AM 9.28 48.704 0.095 7.3 4.04 11.03
11/10/2021 7:15:00 AM 9.31 48.758 0.095 7.29 4.12 11
11/10/2021 7:30:00 AM 9.31 48.758 0.095 7.31 4.06 11.07
11/10/2021 7:45:00 AM 9.3 48.74 0.094 7.35 3.91 11.12
11/10/2021 8:00:00 AM 9.33 48.794 0.095 7.31 3.93 11.15
11/10/2021 8:15:00 AM 9.38 48.884 0.095 7.3 4.07 11.08
11/10/2021 8:30:00 AM 9.39 48.902 0.095 7.34 4.08 11.26
11/10/2021 8:45:00 AM 9.4 48.92 0.094 7.39 3.95 11.32
11/10/2021 9:00:00 AM 9.45 49.01 0.094 7.37 3.92 11.45
11/10/2021 9:15:00 AM 9.5 49.1 0.094 7.41 4.08 11.5
11/10/2021 9:30:00 AM 9.58 49.244 0.094 7.44 3.98 11.63
11/10/2021 9:45:00 AM 9.61 49.298 0.094 7.47 4.03 11.64
11/10/2021 10:00:00 AM 9.72 49.496 0.094 7.49 3.9 11.67
11/10/2021 10:15:00 AM 9.88 49.784 0.094 7.45 3.87 11.74
11/10/2021 10:30:00 AM 9.92 49.856 0.094 7.53 3.93 11.69
11/10/2021 10:45:00 AM 10.01 50.018 0.093 7.44 4.04 11.7
11/10/2021 11:00:00 AM 10.1 50.18 0.093 7.49 4.08 11.69
11/10/2021 11:15:00 AM 10.08 50.144 0.093 7.49 3.98 11.61
11/10/2021 11:30:00 AM 10.14 50.252 0.094 7.46 4.13 11.64
11/10/2021 11:45:00 AM 10.13 50.234 0.094 7.44 3.91 11.58
11/10/2021 12:00:00 PM 10.15 50.27 0.094 7.41 3.73 11.52
11/10/2021 12:15:00 PM 10.11 50.198 0.094 7.4 3.99 11.49
11/10/2021 12:30:00 PM 10.16 50.288 0.093 7.47 4.02 11.52
11/10/2021 12:45:00 PM 10.14 50.252 0.093 7.47 3.95 11.5
11/10/2021 1:00:00 PM 10.21 50.378 0.092 7.45 3.83 11.47
11/10/2021 1:15:00 PM 10.19 50.342 0.093 7.48 3.8 11.46
11/10/2021 1:30:00 PM 10.21 50.378 0.094 7.44 3.95 11.43
11/10/2021 1:45:00 PM 10.17 50.306 0.093 7.45 3.74 11.41
11/10/2021 2:00:00 PM 10.17 50.306 0.093 7.43 4.01 11.35
11/10/2021 2:15:00 PM 10.16 50.288 0.094 7.37 4.08 11.29
11/10/2021 2:30:00 PM 10.13 50.234 0.093 7.46 4.05 11.25
11/10/2021 2:45:00 PM 10.14 50.252 0.094 7.43 3.89 11.26
11/10/2021 3:00:00 PM 10.15 50.27 0.094 7.43 3.93 11.23
11/10/2021 3:15:00 PM 10.17 50.306 0.094 7.39 3.96 11.14
11/10/2021 3:30:00 PM 10.14 50.252 0.094 7.4 4.02 11.15
11/10/2021 3:45:00 PM 10.13 50.234 0.094 7.37 4.02 11.09
11/10/2021 4:00:00 PM 10.1 50.18 0.094 7.4 3.8 11.11
11/10/2021 4:15:00 PM 10.07 50.126 0.094 7.33 4.02 11.05
11/10/2021 4:30:00 PM 10.01 50.018 0.095 7.34 4.16 10.99
11/10/2021 4:45:00 PM 9.95 49.91 0.094 7.3 3.91 10.94
11/10/2021 5:00:00 PM 9.85 49.73 0.095 7.29 4.09 10.92
11/10/2021 5:15:00 PM 9.77 49.586 0.094 7.3 4.05 10.87
11/10/2021 5:30:00 PM 9.67 49.406 0.094 7.3 3.99 10.94
11/10/2021 5:45:00 PM 9.57 49.226 0.095 7.34 4.07 10.97
11/10/2021 6:00:00 PM 9.55 49.19 0.095 7.27 3.94 10.88
11/10/2021 6:15:00 PM 9.4 48.92 0.094 7.31 4.05 11.01
11/10/2021 6:30:00 PM 9.33 48.794 0.096 7.26 4.14 10.91
11/10/2021 6:45:00 PM 9.26 48.668 0.094 7.3 4.04 10.98
11/10/2021 7:00:00 PM 9.2 48.56 0.096 7.27 3.97 10.99
11/10/2021 7:15:00 PM 9.11 48.398 0.094 7.33 4.14 11.08
11/10/2021 7:30:00 PM 9.06 48.308 0.095 7.28 3.93 11.04
11/10/2021 7:45:00 PM 8.99 48.182 0.096 7.3 4.09 11.13
11/10/2021 8:00:00 PM 8.93 48.074 0.096 7.3 3.94 11.11
11/10/2021 8:15:00 PM 8.87 47.966 0.096 7.27 4.13 11.13
11/10/2021 8:30:00 PM 8.83 47.894 0.096 7.24 4.13 11.11
11/10/2021 8:45:00 PM 8.78 47.804 0.095 7.28 4.01 11.16
11/10/2021 9:00:00 PM 8.71 47.678 0.096 7.27 3.99 11.18
11/10/2021 9:15:00 PM 8.65 47.57 0.096 7.3 4.1 11.2
11/10/2021 9:30:00 PM 8.6 47.48 0.096 7.27 3.91 11.21
11/10/2021 9:45:00 PM 8.53 47.354 0.096 7.29 4.08 11.23
11/10/2021 10:00:00 PM 8.5 47.3 0.096 7.3 4.08 11.23
11/10/2021 10:15:00 PM 8.43 47.174 0.095 7.28 3.92 11.28
11/10/2021 10:30:00 PM 8.38 47.084 0.096 7.3 3.9 11.25
11/10/2021 10:45:00 PM 8.33 46.994 0.096 7.22 4.51 11.23
11/10/2021 11:00:00 PM 8.27 46.886 0.096 7.29 4.71 11.3
11/10/2021 11:15:00 PM 8.22 46.796 0.096 7.27 4.01 11.3
11/10/2021 11:30:00 PM 8.2 46.76 0.096 7.22 4.42 11.21
11/10/2021 11:45:00 PM 8.11 46.598 0.096 7.25 4.1 11.29
11/11/2021 12:00:00 AM 8.05 46.49 0.096 7.28 4.02 11.34
11/11/2021 12:15:00 AM 8 46.4 0.096 7.27 3.86 11.36
11/11/2021 12:30:00 AM 7.97 46.346 0.096 7.27 3.87 11.38
11/11/2021 12:45:00 AM 7.92 46.256 0.096 7.25 3.99 11.38
11/11/2021 1:00:00 AM 7.84 46.112 0.096 7.3 3.98 11.45
11/11/2021 1:15:00 AM 7.78 46.004 0.096 7.28 3.96 11.5
11/11/2021 1:30:00 AM 7.72 45.896 0.096 7.29 4.15 11.52
11/11/2021 1:45:00 AM 7.68 45.824 0.096 7.29 3.91 11.45
11/11/2021 2:00:00 AM 7.62 45.716 0.096 7.27 3.86 11.44
11/11/2021 2:15:00 AM 7.58 45.644 0.096 7.25 3.96 11.51
11/11/2021 2:30:00 AM 7.54 45.572 0.096 7.24 3.91 11.39
11/11/2021 2:45:00 AM 7.46 45.428 0.096 7.28 3.96 11.54
11/11/2021 3:00:00 AM 7.42 45.356 0.096 7.29 3.88 11.52
11/11/2021 3:15:00 AM 7.36 45.248 0.096 7.26 3.85 11.58
11/11/2021 3:30:00 AM 7.31 45.158 0.096 7.29 3.89 11.62
11/11/2021 3:45:00 AM 7.29 45.122 0.096 7.27 3.87 11.6
11/11/2021 4:00:00 AM 7.23 45.014 0.096 7.31 3.84 11.63
11/11/2021 4:15:00 AM 7.22 44.996 0.096 7.28 3.93 11.63
11/11/2021 4:30:00 AM 7.18 44.924 0.096 7.27 3.98 11.62
11/11/2021 4:45:00 AM 7.15 44.87 0.096 7.29 4.08 11.63
11/11/2021 5:00:00 AM 7.14 44.852 0.096 7.27 4.07 11.64
11/11/2021 5:15:00 AM 7.11 44.798 0.096 7.29 4.27 11.65
11/11/2021 5:30:00 AM 7.06 44.708 0.096 7.3 4.08 11.69
11/11/2021 5:45:00 AM 7.05 44.69 0.096 7.25 4.4 11.6
11/11/2021 6:00:00 AM 6.98 44.564 0.096 7.32 4.01 11.71
11/11/2021 6:15:00 AM 6.99 44.582 0.096 7.31 4.03 11.69
11/11/2021 6:30:00 AM 7 44.6 0.097 7.24 4.05 11.63
11/11/2021 6:45:00 AM 7 44.6 0.096 7.26 4.13 11.65
11/11/2021 7:00:00 AM 6.99 44.582 0.096 7.27 4.05 11.67
11/11/2021 7:15:00 AM 6.97 44.546 0.096 7.28 4 11.68
11/11/2021 7:30:00 AM 6.96 44.528 0.096 7.29 4.01 11.82
11/11/2021 7:45:00 AM 6.94 44.492 0.096 7.27 3.91 11.92
11/11/2021 8:00:00 AM 6.92 44.456 0.096 7.35 3.9 12.05
11/11/2021 8:15:00 AM 6.94 44.492 0.096 7.34 3.76 12.15
11/11/2021 8:30:00 AM 7.02 44.636 0.096 7.32 4.05 12.21
11/11/2021 8:45:00 AM 7.02 44.636 0.095 7.41 3.82 12.26
11/11/2021 9:00:00 AM 7.08 44.744 0.096 7.27 4.12 12.24
11/11/2021 9:15:00 AM 7.1 44.78 0.095 7.36 3.93 12.28
11/11/2021 9:30:00 AM 7.17 44.906 0.095 7.4 3.84 12.34
11/11/2021 9:45:00 AM 7.19 44.942 0.095 7.36 3.87 12.28
11/11/2021 10:00:00 AM 7.21 44.978 0.095 7.41 3.94 12.34
11/11/2021 10:15:00 AM 7.34 45.212 0.095 7.44 4.05 12.39
11/11/2021 10:30:00 AM 7.47 45.446 0.095 7.47 3.97 12.4
11/11/2021 10:45:00 AM 7.72 45.896 0.095 7.42 4.07 12.41
11/11/2021 11:00:00 AM 7.73 45.914 0.094 7.45 3.86 12.34
11/11/2021 11:15:00 AM 7.82 46.076 0.095 7.43 3.99 12.32
11/11/2021 11:30:00 AM 7.88 46.184 0.094 7.47 3.95 12.28
11/11/2021 11:45:00 AM 7.96 46.328 0.095 7.48 3.99 12.27
11/11/2021 12:00:00 PM 8.12 46.616 0.094 7.42 4.04 12.26
11/11/2021 12:15:00 PM 8.18 46.724 0.094 7.54 3.82 12.22
11/11/2021 12:30:00 PM 8.32 46.976 0.094 7.48 3.89 12.21
11/11/2021 12:45:00 PM 8.46 47.228 0.094 7.48 4.04 12.14
11/11/2021 1:00:00 PM 8.58 47.444 0.095 7.5 4.11 12.13
11/11/2021 1:15:00 PM 8.67 47.606 0.094 7.51 3.96 12.06
11/11/2021 1:30:00 PM 8.77 47.786 0.094 7.53 3.94 12.03
11/11/2021 1:45:00 PM 8.88 47.984 0.095 7.47 3.92 11.96
11/11/2021 2:00:00 PM 8.95 48.11 0.094 7.44 3.94 11.98
11/11/2021 2:15:00 PM 8.99 48.182 0.094 7.48 3.97 11.89
11/11/2021 2:30:00 PM 9.05 48.29 0.094 7.47 3.98 11.84
11/11/2021 2:45:00 PM 9.09 48.362 0.094 7.48 3.95 11.78
11/11/2021 3:00:00 PM 9.13 48.434 0.094 7.47 3.87 11.68
11/11/2021 3:15:00 PM 9.16 48.488 0.094 7.48 4.11 11.67
11/11/2021 3:30:00 PM 9.19 48.542 0.094 7.44 3.75 11.62
11/11/2021 3:45:00 PM 9.22 48.596 0.095 7.42 4.03 11.52
11/11/2021 4:00:00 PM 9.2 48.56 0.094 7.45 3.88 11.45
11/11/2021 4:15:00 PM 9.23 48.614 0.095 7.38 4.03 11.33
11/11/2021 4:30:00 PM 9.22 48.596 0.095 7.36 3.88 11.26
11/11/2021 4:45:00 PM 9.22 48.596 0.094 7.33 4.06 11.16
11/11/2021 5:00:00 PM 9.19 48.542 0.095 7.36 4.01 11.1
11/11/2021 5:15:00 PM 9.19 48.542 0.095 7.34 3.93 11.05
11/11/2021 5:30:00 PM 9.18 48.524 0.096 7.31 4.21 11.01
11/11/2021 5:45:00 PM 9.17 48.506 0.095 7.34 6.24 11.05
11/11/2021 6:00:00 PM 9.19 48.542 0.096 7.31 8.51 10.99
11/11/2021 6:15:00 PM 9.14 48.452 0.096 7.31 9.62 11.03
11/11/2021 6:30:00 PM 9.17 48.506 0.096 7.26 8.02 11
11/11/2021 6:45:00 PM 9.16 48.488 0.096 7.37 6.15 11.02
11/11/2021 7:00:00 PM 9.21 48.578 0.096 7.22 5.86 10.89
11/11/2021 7:15:00 PM 9.19 48.542 0.096 7.29 5.42 10.98
11/11/2021 7:30:00 PM 9.19 48.542 0.096 7.29 4.6 11.01
11/11/2021 7:45:00 PM 9.21 48.578 0.097 7.31 4.2 10.96
11/11/2021 8:00:00 PM 9.22 48.596 0.096 7.35 4.22 11.04
11/11/2021 8:15:00 PM 9.26 48.668 0.097 7.33 4.27 11.03
11/11/2021 8:30:00 PM 9.3 48.74 0.097 7.32 4.12 10.98
11/11/2021 8:45:00 PM 9.32 48.776 0.095 7.3 4.07 10.97
11/11/2021 9:00:00 PM 9.37 48.866 0.095 7.32 4.27 10.92
11/11/2021 9:15:00 PM 9.37 48.866 0.095 7.33 4.09 10.99
11/11/2021 9:30:00 PM 9.41 48.938 0.095 7.33 4.16 10.96
11/11/2021 9:45:00 PM 9.46 49.028 0.095 7.3 4 10.93
11/11/2021 10:00:00 PM 9.48 49.064 0.096 7.35 4.14 10.94
11/11/2021 10:15:00 PM 9.54 49.172 0.095 7.32 4.21 10.86
11/11/2021 10:30:00 PM 9.56 49.208 0.092 7.32 4.22 10.88
11/11/2021 10:45:00 PM 9.59 49.262 0.096 7.32 4.06 10.9
11/11/2021 11:00:00 PM 9.63 49.334 0.092 7.34 3.95 10.87
11/11/2021 11:15:00 PM 9.68 49.424 0.091 7.28 4.03 10.83
11/11/2021 11:30:00 PM 9.73 49.514 0.092 7.28 4.01 10.71
11/11/2021 11:45:00 PM 9.74 49.532 0.097 7.32 3.92 10.8
11/12/2021 12:00:00 AM 9.78 49.604 0.093 7.27 3.89 10.79
11/12/2021 12:15:00 AM 9.79 49.622 0.097 7.31 4.11 10.8
11/12/2021 12:30:00 AM 9.81 49.658 0.087 7.32 4.56 10.83
11/12/2021 12:45:00 AM 9.84 49.712 0.092 7.33 4.11 10.81
11/12/2021 1:00:00 AM 9.87 49.766 0.091 7.34 4.03 10.82
11/12/2021 1:15:00 AM 9.89 49.802 0.094 7.37 4.06 10.8
11/12/2021 1:30:00 AM 9.93 49.874 0.091 7.32 4.04 10.78
11/12/2021 1:45:00 AM 9.98 49.964 0.092 7.33 4.21 10.74
11/12/2021 2:00:00 AM 10.02 50.036 0.09 7.29 3.89 10.73
11/12/2021 2:15:00 AM 10.07 50.126 0.089 7.29 4.05 10.68
11/12/2021 2:30:00 AM 10.07 50.126 0.096 7.35 4.17 10.76
11/12/2021 2:45:00 AM 10.12 50.216 0.093 7.36 4.09 10.71
11/12/2021 3:00:00 AM 10.18 50.324 0.098 7.34 4.15 10.68
11/12/2021 3:15:00 AM 10.2 50.36 0.095 7.37 4.08 10.72
11/12/2021 3:30:00 AM 10.27 50.486 0.097 7.29 4.05 10.63
11/12/2021 3:45:00 AM 10.33 50.594 0.096 7.32 3.97 10.62
11/12/2021 4:00:00 AM 10.42 50.756 0.095 7.26 4.08 10.53
11/12/2021 4:15:00 AM 10.42 50.756 0.091 7.37 4.26 10.66
11/12/2021 4:30:00 AM 10.47 50.846 0.097 7.35 4.22 10.59
11/12/2021 4:45:00 AM 10.52 50.936 0.095 7.35 4.15 10.56
11/12/2021 5:00:00 AM 10.59 51.062 0.096 7.37 4.53 10.56
11/12/2021 5:15:00 AM 10.69 51.242 0.093 7.34 4.71 10.51
11/12/2021 5:30:00 AM 10.76 51.368 0.094 7.36 5.35 10.55
11/12/2021 5:45:00 AM 10.82 51.476 0.091 7.38 6.07 10.6
11/12/2021 6:00:00 AM 10.9 51.62 0.091 7.36 6.33 10.54
11/12/2021 6:15:00 AM 10.95 51.71 0.09 7.37 6.72 10.56
11/12/2021 6:30:00 AM 11.16 52.088 0.085 7.33 12.89 10.52
11/12/2021 6:45:00 AM 11.26 52.268 0.081 7.32 24.54 10.52
11/12/2021 7:00:00 AM 11.27 52.286 0.081 7.33 90.69 10.56
11/12/2021 7:15:00 AM 11.27 52.286 0.077 7.33 91.85 10.61
11/12/2021 7:30:00 AM 11.22 52.196 0.072 7.36 84.39 10.73
11/12/2021 7:45:00 AM 11.13 52.034 0.07 7.31 88.83 10.77
11/12/2021 8:00:00 AM 11.03 51.854 0.067 7.29 79.6 10.82
11/12/2021 8:15:00 AM 10.97 51.746 0.064 7.26 66.02 10.84
11/12/2021 8:30:00 AM 10.94 51.692 0.063 7.25 55.18 10.84
11/12/2021 8:45:00 AM 10.93 51.674 0.063 7.26 49.83 10.85
11/12/2021 9:00:00 AM 10.91 51.638 0.064 7.24 47.31 10.84
11/12/2021 9:15:00 AM 10.88 51.584 0.065 7.22 39.8 10.84
11/12/2021 9:30:00 AM 10.84 51.512 0.067 7.23 29.92 10.87
11/12/2021 9:45:00 AM 10.8 51.44 0.069 7.24 28.52 10.85
11/12/2021 10:00:00 AM 10.75 51.35 0.071 7.26 20.86 10.9
11/12/2021 10:15:00 AM 10.7 51.26 0.072 7.26 21.63 10.92
11/12/2021 10:30:00 AM 10.66 51.188 0.072 7.26 21.41 10.93
11/12/2021 10:45:00 AM 10.63 51.134 0.072 7.31 18.08 10.97
11/12/2021 11:00:00 AM 10.61 51.098 0.072 7.31 18.55 11
11/12/2021 11:15:00 AM 10.61 51.098 0.075 7.29 25.1 11.04
11/12/2021 11:30:00 AM 10.62 51.116 0.076 7.34 16.06 11.04
11/12/2021 11:45:00 AM 10.62 51.116 0.074 7.38 15.57 11.07
11/12/2021 12:00:00 PM 10.63 51.134 0.075 7.36 15.1 11.06
11/12/2021 12:15:00 PM 10.6 51.08 0.075 7.38 15.11 11.07
11/12/2021 12:30:00 PM 10.6 51.08 0.076 7.35 15.07 11.06
11/12/2021 12:45:00 PM 10.59 51.062 0.077 7.36 14.5 11.07
11/12/2021 1:00:00 PM 10.57 51.026 0.077 7.39 16.2 11.09
11/12/2021 1:15:00 PM 10.56 51.008 0.078 7.34 12.66 11.06
11/12/2021 1:30:00 PM 10.51 50.918 0.078 7.41 11.91 11.05
11/12/2021 1:45:00 PM 10.49 50.882 0.079 7.4 13.53 11.06
11/12/2021 2:00:00 PM 10.46 50.828 0.079 7.41 14.01 11.07
11/12/2021 2:15:00 PM 10.42 50.756 0.079 7.44 12.53 11.07
11/12/2021 2:30:00 PM 10.38 50.684 0.08 7.42 13.05 11.06
11/12/2021 2:45:00 PM 10.34 50.612 0.08 7.42 12.38 11.08
11/12/2021 3:00:00 PM 10.3 50.54 0.081 7.39 12.35 11.09
11/12/2021 3:15:00 PM 10.27 50.486 0.081 7.4 11.62 11.08
11/12/2021 3:30:00 PM 10.23 50.414 0.081 7.38 11.18 11.08
11/12/2021 3:45:00 PM 10.17 50.306 0.081 7.38 11.61 11.11
11/12/2021 4:00:00 PM 10.13 50.234 0.082 7.36 10.75 11.11
11/12/2021 4:15:00 PM 10.09 50.162 0.082 7.37 10.27 11.1
11/12/2021 4:30:00 PM 10.04 50.072 0.082 7.4 9.74 11.12
11/12/2021 4:45:00 PM 10.02 50.036 0.082 7.33 10.07 11.09
11/12/2021 5:00:00 PM 9.96 49.928 0.082 7.39 10.02 11.1
11/12/2021 5:15:00 PM 9.91 49.838 0.082 7.4 10 11.13
11/12/2021 5:30:00 PM 9.87 49.766 0.083 7.39 9.44 11.14
11/12/2021 5:45:00 PM 9.84 49.712 0.083 7.35 9.54 11.11
11/12/2021 6:00:00 PM 9.78 49.604 0.082 7.36 9.42 11.15
11/12/2021 6:15:00 PM 9.75 49.55 0.082 7.34 10.05 11.16
11/12/2021 6:30:00 PM 9.71 49.478 0.082 7.32 9.09 11.17
11/12/2021 6:45:00 PM 9.67 49.406 0.082 7.34 8.71 11.19
11/12/2021 7:00:00 PM 9.65 49.37 0.082 7.31 8.9 11.17
11/12/2021 7:15:00 PM 9.62 49.316 0.081 7.36 8.45 11.19
11/12/2021 7:30:00 PM 9.58 49.244 0.081 7.36 8.82 11.22
11/12/2021 7:45:00 PM 9.54 49.172 0.082 7.35 8.46 11.23
11/12/2021 8:00:00 PM 9.5 49.1 0.082 7.36 8.33 11.22
11/12/2021 8:15:00 PM 9.46 49.028 0.082 7.34 8.43 11.22
11/12/2021 8:30:00 PM 9.42 48.956 0.082 7.32 8.49 11.23
11/12/2021 8:45:00 PM 9.37 48.866 0.082 7.36 8.19 11.25
11/12/2021 9:00:00 PM 9.32 48.776 0.082 7.31 7.92 11.29
11/12/2021 9:15:00 PM 9.29 48.722 0.082 7.3 7.79 11.28
11/12/2021 9:30:00 PM 9.25 48.65 0.082 7.32 7.96 11.29
11/12/2021 9:45:00 PM 9.21 48.578 0.082 7.34 8.3 11.28
11/12/2021 10:00:00 PM 9.18 48.524 0.083 7.33 8.1 11.3
11/12/2021 10:15:00 PM 9.15 48.47 0.082 7.32 8.39 11.3
11/12/2021 10:30:00 PM 9.11 48.398 0.082 7.34 7.74 11.34
11/12/2021 10:45:00 PM 9.09 48.362 0.082 7.31 8.32 11.32
11/12/2021 11:00:00 PM 9.06 48.308 0.082 7.35 8.13 11.35
11/12/2021 11:15:00 PM 9.04 48.272 0.082 7.3 8.32 11.31
11/12/2021 11:30:00 PM 9.03 48.254 0.082 7.32 8.66 11.29
11/12/2021 11:45:00 PM 8.98 48.164 0.081 7.35 8.38 11.32
11/13/2021 12:00:00 AM 8.95 48.11 0.082 7.38 8.55 11.36
11/13/2021 12:15:00 AM 8.93 48.074 0.082 7.36 8.01 11.35
11/13/2021 12:30:00 AM 8.88 47.984 0.081 7.4 8.54 11.39
11/13/2021 12:45:00 AM 8.88 47.984 0.082 7.36 8.41 11.37
11/13/2021 1:00:00 AM 8.86 47.948 0.082 7.35 8.73 11.37
11/13/2021 1:15:00 AM 8.85 47.93 0.081 7.34 8.04 11.36
11/13/2021 1:30:00 AM 8.83 47.894 0.081 7.35 8.53 11.38
11/13/2021 1:45:00 AM 8.84 47.912 0.082 7.36 7.93 11.38
11/13/2021 2:00:00 AM 8.84 47.912 0.082 7.35 8.39 11.38
11/13/2021 2:15:00 AM 8.85 47.93 0.082 7.35 8.24 11.35
11/13/2021 2:30:00 AM 8.85 47.93 0.082 7.37 8.1 11.35
11/13/2021 2:45:00 AM 8.85 47.93 0.082 7.35 8.31 11.35
11/13/2021 3:00:00 AM 8.86 47.948 0.082 7.38 8.38 11.35
11/13/2021 3:15:00 AM 8.87 47.966 0.081 7.37 8.4 11.34
11/13/2021 3:30:00 AM 8.88 47.984 0.082 7.38 8.06 11.35
11/13/2021 3:45:00 AM 8.88 47.984 0.081 7.38 8.66 11.35
11/13/2021 4:00:00 AM 8.89 48.002 0.082 7.36 8.21 11.32
11/13/2021 4:15:00 AM 8.89 48.002 0.082 7.38 8.93 11.35
11/13/2021 4:30:00 AM 8.89 48.002 0.082 7.38 8.01 11.33
11/13/2021 4:45:00 AM 8.91 48.038 0.082 7.36 8.21 11.32
11/13/2021 5:00:00 AM 8.91 48.038 0.082 7.38 7.9 11.32
11/13/2021 5:15:00 AM 8.92 48.056 0.082 7.36 8.37 11.32
11/13/2021 5:30:00 AM 8.94 48.092 0.082 7.34 7.56 11.29
11/13/2021 5:45:00 AM 8.95 48.11 0.082 7.33 7.66 11.27
11/13/2021 6:00:00 AM 8.94 48.092 0.082 7.38 8.4 11.32
11/13/2021 6:15:00 AM 8.96 48.128 0.082 7.37 7.85 11.31
11/13/2021 6:30:00 AM 8.97 48.146 0.082 7.38 8.14 11.31
11/13/2021 6:45:00 AM 8.98 48.164 0.082 7.4 7.73 11.31
11/13/2021 7:00:00 AM 9 48.2 0.082 7.38 7.76 11.31
11/13/2021 7:15:00 AM 9.06 48.308 0.083 7.36 7.96 11.28
11/13/2021 7:30:00 AM 9.09 48.362 0.083 7.35 7.77 11.28
11/13/2021 7:45:00 AM 9.12 48.416 0.082 7.37 7.68 11.29
11/13/2021 8:00:00 AM 9.17 48.506 0.082 7.4 7.58 11.3
11/13/2021 8:15:00 AM 9.23 48.614 0.082 7.38 7.88 11.29
11/13/2021 8:30:00 AM 9.28 48.704 0.082 7.42 8.11 11.32
11/13/2021 8:45:00 AM 9.32 48.776 0.082 7.41 7.76 11.29
11/13/2021 9:00:00 AM 9.36 48.848 0.082 7.4 8.05 11.26
11/13/2021 9:15:00 AM 9.39 48.902 0.082 7.44 7.5 11.29
11/13/2021 9:30:00 AM 9.44 48.992 0.083 7.41 7.7 11.26
11/13/2021 9:45:00 AM 9.46 49.028 0.083 7.44 7.63 11.26
11/13/2021 10:00:00 AM 9.48 49.064 0.082 7.47 7.34 11.33
11/13/2021 10:15:00 AM 9.52 49.136 0.083 7.45 7.56 11.28
11/13/2021 10:30:00 AM 9.54 49.172 0.083 7.45 7.39 11.27
11/13/2021 10:45:00 AM 9.55 49.19 0.083 7.47 7.6 11.29
11/13/2021 11:00:00 AM 9.55 49.19 0.083 7.42 7.23 11.25
11/13/2021 11:15:00 AM 9.53 49.154 0.083 7.47 7.22 11.23
11/13/2021 11:30:00 AM 9.51 49.118 0.083 7.43 7.62 11.23
11/13/2021 11:45:00 AM 9.48 49.064 0.083 7.44 7.26 11.22
11/13/2021 12:00:00 PM 9.45 49.01 0.083 7.41 7.13 11.23
11/13/2021 12:15:00 PM 9.45 49.01 0.083 7.41 7.46 11.21
11/13/2021 12:30:00 PM 9.42 48.956 0.083 7.37 7.13 11.2
11/13/2021 12:45:00 PM 9.38 48.884 0.083 7.44 7.23 11.24
11/13/2021 1:00:00 PM 9.35 48.83 0.082 7.41 7.58 11.22
11/13/2021 1:15:00 PM 9.32 48.776 0.083 7.42 7.17 11.25
11/13/2021 1:30:00 PM 9.29 48.722 0.083 7.4 7.57 11.25
11/13/2021 1:45:00 PM 9.25 48.65 0.083 7.42 7.29 11.29
11/13/2021 2:00:00 PM 9.22 48.596 0.083 7.39 7.28 11.31
11/13/2021 2:15:00 PM 9.19 48.542 0.083 7.38 7.37 11.27
11/13/2021 2:30:00 PM 9.14 48.452 0.083 7.45 6.87 11.37
11/13/2021 2:45:00 PM 9.15 48.47 0.082 7.4 7.22 11.37
11/13/2021 3:00:00 PM 9.13 48.434 0.082 7.42 7.08 11.39
11/13/2021 3:15:00 PM 9.14 48.452 0.083 7.43 7.39 11.34
11/13/2021 3:30:00 PM 9.15 48.47 0.083 7.39 7.26 11.3
11/13/2021 3:45:00 PM 9.07 48.326 0.082 7.44 7.2 11.37
11/13/2021 4:00:00 PM 9.04 48.272 0.082 7.39 7.27 11.3
11/13/2021 4:15:00 PM 8.98 48.164 0.082 7.37 7.37 11.3
11/13/2021 4:30:00 PM 8.92 48.056 0.082 7.39 7.06 11.3
11/13/2021 4:45:00 PM 8.9 48.02 0.083 7.36 7.25 11.28
11/13/2021 5:00:00 PM 8.84 47.912 0.083 7.38 6.96 11.33
11/13/2021 5:15:00 PM 8.77 47.786 0.082 7.36 7.19 11.35
11/13/2021 5:30:00 PM 8.74 47.732 0.083 7.37 7.16 11.33
11/13/2021 5:45:00 PM 8.7 47.66 0.082 7.41 7.45 11.38
11/13/2021 6:00:00 PM 8.66 47.588 0.083 7.42 7.25 11.39
11/13/2021 6:15:00 PM 8.65 47.57 0.083 7.38 7.38 11.37
11/13/2021 6:30:00 PM 8.59 47.462 0.083 7.42 7.14 11.4
11/13/2021 6:45:00 PM 8.57 47.426 0.083 7.37 7.08 11.41
11/13/2021 7:00:00 PM 8.54 47.372 0.083 7.39 6.99 11.43
11/13/2021 7:15:00 PM 8.53 47.354 0.083 7.38 6.92 11.42
11/13/2021 7:30:00 PM 8.49 47.282 0.083 7.4 6.89 11.43
11/13/2021 7:45:00 PM 8.47 47.246 0.083 7.39 7.51 11.43
11/13/2021 8:00:00 PM 8.42 47.156 0.083 7.4 7.3 11.46
11/13/2021 8:15:00 PM 8.4 47.12 0.083 7.37 7.29 11.44
11/13/2021 8:30:00 PM 8.37 47.066 0.083 7.4 7.06 11.46
11/13/2021 8:45:00 PM 8.35 47.03 0.083 7.38 6.85 11.48
11/13/2021 9:00:00 PM 8.37 47.066 0.083 7.4 6.83 11.47
11/13/2021 9:15:00 PM 8.34 47.012 0.083 7.41 6.85 11.49
11/13/2021 9:30:00 PM 8.35 47.03 0.083 7.34 6.81 11.47
11/13/2021 9:45:00 PM 8.34 47.012 0.083 7.37 7.03 11.48
11/13/2021 10:00:00 PM 8.33 46.994 0.083 7.37 7.14 11.48
11/13/2021 10:15:00 PM 8.31 46.958 0.083 7.36 6.47 11.48
11/13/2021 10:30:00 PM 8.29 46.922 0.083 7.4 6.93 11.5
11/13/2021 10:45:00 PM 8.27 46.886 0.083 7.37 6.6 11.49
11/13/2021 11:00:00 PM 8.25 46.85 0.083 7.4 7.07 11.51
11/13/2021 11:15:00 PM 8.25 46.85 0.083 7.39 6.67 11.5
11/13/2021 11:30:00 PM 8.24 46.832 0.083 7.38 6.65 11.5
11/13/2021 11:45:00 PM 8.22 46.796 0.083 7.39 6.96 11.5
11/14/2021 12:00:00 AM 8.22 46.796 0.083 7.41 6.7 11.52
11/14/2021 12:15:00 AM 8.23 46.814 0.083 7.36 6.8 11.49
11/14/2021 12:30:00 AM 8.22 46.796 0.083 7.37 6.54 11.53
11/14/2021 12:45:00 AM 8.22 46.796 0.083 7.4 6.84 11.51
11/14/2021 1:00:00 AM 8.22 46.796 0.083 7.36 6.7 11.51
11/14/2021 1:15:00 AM 8.21 46.778 0.082 7.38 6.77 11.51
11/14/2021 1:30:00 AM 8.22 46.796 0.082 7.36 6.65 11.5
11/14/2021 1:45:00 AM 8.22 46.796 0.083 7.39 6.84 11.51
11/14/2021 2:00:00 AM 8.22 46.796 0.083 7.4 6.78 11.52
11/14/2021 2:15:00 AM 8.24 46.832 0.083 7.35 6.57 11.5
11/14/2021 2:30:00 AM 8.24 46.832 0.083 7.39 6.85 11.5
11/14/2021 2:45:00 AM 8.22 46.796 0.083 7.38 6.59 11.52
11/14/2021 3:00:00 AM 8.23 46.814 0.083 7.39 6.72 11.52
11/14/2021 3:15:00 AM 8.24 46.832 0.083 7.37 6.51 11.49
11/14/2021 3:30:00 AM 8.24 46.832 0.083 7.4 6.7 11.5
11/14/2021 3:45:00 AM 8.23 46.814 0.083 7.36 6.87 11.51
11/14/2021 4:00:00 AM 8.24 46.832 0.083 7.39 6.89 11.51
11/14/2021 4:15:00 AM 8.23 46.814 0.083 7.37 6.47 11.49
11/14/2021 4:30:00 AM 8.21 46.778 0.083 7.36 6.73 11.51
11/14/2021 4:45:00 AM 8.21 46.778 0.083 7.34 6.73 11.51
11/14/2021 5:00:00 AM 8.21 46.778 0.083 7.34 6.56 11.52
11/14/2021 5:15:00 AM 8.21 46.778 0.083 7.36 6.41 11.5
11/14/2021 5:30:00 AM 8.19 46.742 0.083 7.4 6.69 11.53
11/14/2021 5:45:00 AM 8.2 46.76 0.083 7.36 6.49 11.47
11/14/2021 6:00:00 AM 8.18 46.724 0.083 7.39 6.55 11.52
11/14/2021 6:15:00 AM 8.17 46.706 0.083 7.37 6.5 11.52
11/14/2021 6:30:00 AM 8.17 46.706 0.083 7.37 6.85 11.49
11/14/2021 6:45:00 AM 8.16 46.688 0.083 7.37 6.54 11.53
11/14/2021 7:00:00 AM 8.17 46.706 0.083 7.37 6.67 11.48
11/14/2021 7:15:00 AM 8.18 46.724 0.083 7.33 6.67 11.48
11/14/2021 7:30:00 AM 8.15 46.67 0.083 7.37 6.59 11.56
11/14/2021 7:45:00 AM 8.15 46.67 0.083 7.37 6.49 11.6
11/14/2021 8:00:00 AM 8.14 46.652 0.083 7.39 6.44 11.62
11/14/2021 8:15:00 AM 8.16 46.688 0.083 7.42 6.46 11.63
11/14/2021 8:30:00 AM 8.2 46.76 0.083 7.34 6.24 11.59
11/14/2021 8:45:00 AM 8.2 46.76 0.083 7.4 6.4 11.67
11/14/2021 9:00:00 AM 8.21 46.778 0.083 7.41 6.18 11.73
11/14/2021 9:15:00 AM 8.25 46.85 0.083 7.4 6.42 11.72
11/14/2021 9:30:00 AM 8.3 46.94 0.083 7.4 6.16 11.71
11/14/2021 9:45:00 AM 8.34 47.012 0.083 7.41 6.23 11.72
11/14/2021 10:00:00 AM 8.34 47.012 0.083 7.44 6.24 11.73
11/14/2021 10:15:00 AM 8.4 47.12 0.083 7.42 6.12 11.69
11/14/2021 10:30:00 AM 8.39 47.102 0.083 7.46 6.43 11.71
11/14/2021 10:45:00 AM 8.43 47.174 0.083 7.43 6.33 11.66
11/14/2021 11:00:00 AM 8.49 47.282 0.083 7.41 6.18 11.65
11/14/2021 11:15:00 AM 8.59 47.462 0.083 7.4 6.28 11.65
11/14/2021 11:30:00 AM 8.59 47.462 0.083 7.43 6.34 11.63
11/14/2021 11:45:00 AM 8.62 47.516 0.083 7.42 6.13 11.61
11/14/2021 12:00:00 PM 8.67 47.606 0.083 7.49 6.11 11.66
11/14/2021 12:15:00 PM 8.74 47.732 0.083 7.46 6.2 11.62
11/14/2021 12:30:00 PM 8.81 47.858 0.084 7.45 6.49 11.54
11/14/2021 12:45:00 PM 8.85 47.93 0.083 7.45 6.27 11.55
11/14/2021 1:00:00 PM 8.86 47.948 0.083 7.47 6.43 11.54
11/14/2021 1:15:00 PM 8.9 48.02 0.083 7.4 6.07 11.47
11/14/2021 1:30:00 PM 8.93 48.074 0.084 7.37 6.45 11.41
11/14/2021 1:45:00 PM 8.9 48.02 0.083 7.45 6.1 11.46
11/14/2021 2:00:00 PM 8.86 47.948 0.083 7.42 6.19 11.43
11/14/2021 2:15:00 PM 8.86 47.948 0.084 7.43 6.22 11.44
11/14/2021 2:30:00 PM 8.86 47.948 0.084 7.4 6.09 11.4
11/14/2021 2:45:00 PM 8.83 47.894 0.083 7.38 6.25 11.35
11/14/2021 3:00:00 PM 8.82 47.876 0.084 7.39 6.11 11.36
11/14/2021 3:15:00 PM 8.76 47.768 0.083 7.41 6.21 11.42
11/14/2021 3:30:00 PM 8.76 47.768 0.084 7.41 6.39 11.4
11/14/2021 3:45:00 PM 8.77 47.786 0.084 7.39 6.26 11.33
11/14/2021 4:00:00 PM 8.7 47.66 0.084 7.39 6.16 11.37
11/14/2021 4:15:00 PM 8.73 47.714 0.084 7.35 6.18 11.28
11/14/2021 4:30:00 PM 8.64 47.552 0.084 7.38 6.29 11.35
11/14/2021 4:45:00 PM 8.65 47.57 0.084 7.32 6.29 11.27
11/14/2021 5:00:00 PM 8.62 47.516 0.084 7.37 6.28 11.33
11/14/2021 5:15:00 PM 8.58 47.444 0.084 7.4 6.47 11.37
11/14/2021 5:30:00 PM 8.57 47.426 0.084 7.38 6.64 11.36
11/14/2021 5:45:00 PM 8.55 47.39 0.084 7.37 6.25 11.35
11/14/2021 6:00:00 PM 8.5 47.3 0.084 7.39 6.3 11.41
11/14/2021 6:15:00 PM 8.5 47.3 0.084 7.38 6.3 11.39
11/14/2021 6:30:00 PM 8.49 47.282 0.084 7.32 6.19 11.34
11/14/2021 6:45:00 PM 8.49 47.282 0.084 7.32 6.57 11.28
11/14/2021 7:00:00 PM 8.5 47.3 0.085 7.31 6.22 11.29
11/14/2021 7:15:00 PM 8.47 47.246 0.084 7.35 6.22 11.35
11/14/2021 7:30:00 PM 8.4 47.12 0.084 7.39 6.46 11.42
11/14/2021 7:45:00 PM 8.43 47.174 0.084 7.36 6.36 11.39
11/14/2021 8:00:00 PM 8.38 47.084 0.084 7.37 6.05 11.42
11/14/2021 8:15:00 PM 8.36 47.048 0.084 7.34 6.34 11.39
11/14/2021 8:30:00 PM 8.33 46.994 0.084 7.36 6.28 11.43
11/14/2021 8:45:00 PM 8.3 46.94 0.084 7.4 6.09 11.46
11/14/2021 9:00:00 PM 8.32 46.976 0.084 7.36 6.07 11.33
11/14/2021 9:15:00 PM 8.27 46.886 0.084 7.37 6.16 11.44
11/14/2021 9:30:00 PM 8.27 46.886 0.084 7.35 6 11.41
11/14/2021 9:45:00 PM 8.26 46.868 0.085 7.32 6.02 11.42
11/14/2021 10:00:00 PM 8.25 46.85 0.084 7.33 6.32 11.36
11/14/2021 10:15:00 PM 8.17 46.706 0.084 7.39 6.33 11.48
11/14/2021 10:30:00 PM 8.18 46.724 0.084 7.33 6.35 11.44
11/14/2021 10:45:00 PM 8.15 46.67 0.084 7.38 6.01 11.47
11/14/2021 11:00:00 PM 8.16 46.688 0.084 7.35 6.2 11.42
11/14/2021 11:15:00 PM 8.1 46.58 0.084 7.42 5.99 11.51
11/14/2021 11:30:00 PM 8.12 46.616 0.084 7.37 6.07 11.43
11/14/2021 11:45:00 PM 8.08 46.544 0.084 7.4 6.01 11.51
11/15/2021 12:00:00 AM 8.07 46.526 0.084 7.41 6.19 11.5
11/15/2021 12:15:00 AM 8.13 46.634 0.085 7.32 6.17 11.37
11/15/2021 12:30:00 AM 8.14 46.652 0.085 7.32 6.15 11.34
11/15/2021 12:45:00 AM 8.06 46.508 0.084 7.38 6.04 11.5
11/15/2021 1:00:00 AM 8.09 46.562 0.085 7.35 6.05 11.44
11/15/2021 1:15:00 AM 8.06 46.508 0.084 7.35 6.17 11.43
11/15/2021 1:30:00 AM 8.06 46.508 0.085 7.33 6.27 11.43
11/15/2021 1:45:00 AM 8.04 46.472 0.084 7.37 6.17 11.44
11/15/2021 2:00:00 AM 8.02 46.436 0.085 7.36 6.17 11.49
11/15/2021 2:15:00 AM 8.02 46.436 0.084 7.36 6.14 11.4
11/15/2021 2:30:00 AM 7.98 46.364 0.084 7.39 6.2 11.49
11/15/2021 2:45:00 AM 7.96 46.328 0.084 7.38 6.3 11.49
11/15/2021 3:00:00 AM 7.97 46.346 0.084 7.35 6.13 11.47
11/15/2021 3:15:00 AM 7.96 46.328 0.085 7.35 6.03 11.48
11/15/2021 3:30:00 AM 7.95 46.31 0.085 7.39 6.11 11.49
11/15/2021 3:45:00 AM 7.92 46.256 0.084 7.43 6.09 11.55
11/15/2021 4:00:00 AM 7.92 46.256 0.084 7.38 5.98 11.5
11/15/2021 4:15:00 AM 7.96 46.328 0.085 7.38 5.94 11.49
11/15/2021 4:30:00 AM 7.91 46.238 0.084 7.42 5.99 11.53
11/15/2021 4:45:00 AM 7.92 46.256 0.084 7.4 6.11 11.53
11/15/2021 5:00:00 AM 7.94 46.292 0.085 7.38 5.93 11.49
11/15/2021 5:15:00 AM 7.93 46.274 0.084 7.37 6.26 11.47
11/15/2021 5:30:00 AM 7.88 46.184 0.084 7.41 6.06 11.55
11/15/2021 5:45:00 AM 7.86 46.148 0.084 7.4 5.76 11.5
11/15/2021 6:00:00 AM 7.86 46.148 0.085 7.36 5.94 11.41
11/15/2021 6:15:00 AM 7.81 46.058 0.084 7.41 5.84 11.54
11/15/2021 6:30:00 AM 7.78 46.004 0.084 7.41 6.19 11.57
11/15/2021 6:45:00 AM 7.76 45.968 0.084 7.42 5.94 11.58
11/15/2021 7:00:00 AM 7.76 45.968 0.084 7.4 6.37 11.59
11/15/2021 7:15:00 AM 7.81 46.058 0.085 7.38 6.07 11.53
11/15/2021 7:30:00 AM 7.76 45.968 0.084 7.42 5.84 11.62
11/15/2021 7:45:00 AM 7.76 45.968 0.084 7.41 5.95 11.64
11/15/2021 8:00:00 AM 7.76 45.968 0.084 7.43 5.98 11.67
11/15/2021 8:15:00 AM 7.82 46.076 0.084 7.4 5.86 11.66
11/15/2021 8:30:00 AM 7.82 46.076 0.084 7.45 5.98 11.78
11/15/2021 8:45:00 AM 7.82 46.076 0.084 7.47 5.76